<?xml version="1.0" encoding="UTF-8" standalone="no" ?>
<gpx xmlns="http://www.topografix.com/GPX/1/1" xmlns:xsi="http://www.w3.org/2001/XMLSchema-instance" xsi:schemaLocation="http://www.topografix.com/GPX/1/1 http://www.topografix.com/GPX/1/1/gpx.xsd" version="1.1" creator="VisuGPX - https://www.visugpx.com">
  <metadata>
    <name>Acqueduc - chateau de la reine Jeanne- Ermitage</name>
    <desc><![CDATA[départ du parking vers l'aqueduc de Roquefavour. 
 Au retour au parking: petit crochet vers le château de la reine Jeanne.
Départ en voiture pour le second tracé:  balade dans les vestiges  de l'ermitage St Honnorat]]></desc>
  </metadata>
  <trk>
    <name><![CDATA[09-JAN-20 02:56:03 PM]]></name>
    <trkseg>
      <trkpt lat="43.53631" lon="5.29442">
        <ele>104.92</ele>
        <time>2020-01-09T09:02:26Z</time>
      </trkpt>
      <trkpt lat="43.53631" lon="5.29442">
        <ele>104.92</ele>
        <time>2020-01-09T09:02:27Z</time>
      </trkpt>
      <trkpt lat="43.53613" lon="5.29457">
        <ele>104.92</ele>
        <time>2020-01-09T09:02:45Z</time>
      </trkpt>
      <trkpt lat="43.53612" lon="5.2946">
        <ele>104.44</ele>
        <time>2020-01-09T09:02:50Z</time>
      </trkpt>
      <trkpt lat="43.53605" lon="5.29468">
        <ele>104.44</ele>
        <time>2020-01-09T09:03:04Z</time>
      </trkpt>
      <trkpt lat="43.53595" lon="5.29483">
        <ele>105.4</ele>
        <time>2020-01-09T09:03:21Z</time>
      </trkpt>
      <trkpt lat="43.5359" lon="5.29496">
        <ele>105.4</ele>
        <time>2020-01-09T09:03:34Z</time>
      </trkpt>
      <trkpt lat="43.53587" lon="5.29511">
        <ele>106.36</ele>
        <time>2020-01-09T09:03:46Z</time>
      </trkpt>
      <trkpt lat="43.53583" lon="5.29532">
        <ele>106.84</ele>
        <time>2020-01-09T09:04:03Z</time>
      </trkpt>
      <trkpt lat="43.53582" lon="5.29536">
        <ele>106.84</ele>
        <time>2020-01-09T09:04:07Z</time>
      </trkpt>
      <trkpt lat="43.53577" lon="5.29557">
        <ele>107.81</ele>
        <time>2020-01-09T09:04:23Z</time>
      </trkpt>
      <trkpt lat="43.53575" lon="5.29566">
        <ele>108.29</ele>
        <time>2020-01-09T09:04:30Z</time>
      </trkpt>
      <trkpt lat="43.53572" lon="5.29575">
        <ele>102.04</ele>
        <time>2020-01-09T09:04:36Z</time>
      </trkpt>
      <trkpt lat="43.53571" lon="5.29576">
        <ele>114.53</ele>
        <time>2020-01-09T09:04:37Z</time>
      </trkpt>
      <trkpt lat="43.53571" lon="5.29577">
        <ele>109.73</ele>
        <time>2020-01-09T09:04:38Z</time>
      </trkpt>
      <trkpt lat="43.5357" lon="5.29581">
        <ele>108.29</ele>
        <time>2020-01-09T09:04:40Z</time>
      </trkpt>
      <trkpt lat="43.53565" lon="5.29601">
        <ele>109.25</ele>
        <time>2020-01-09T09:04:54Z</time>
      </trkpt>
      <trkpt lat="43.53565" lon="5.29605">
        <ele>102.04</ele>
        <time>2020-01-09T09:04:57Z</time>
      </trkpt>
      <trkpt lat="43.53565" lon="5.29607">
        <ele>116.46</ele>
        <time>2020-01-09T09:04:58Z</time>
      </trkpt>
      <trkpt lat="43.53565" lon="5.29608">
        <ele>109.73</ele>
        <time>2020-01-09T09:04:59Z</time>
      </trkpt>
      <trkpt lat="43.53562" lon="5.29617">
        <ele>109.73</ele>
        <time>2020-01-09T09:05:06Z</time>
      </trkpt>
      <trkpt lat="43.5356" lon="5.2962">
        <ele>109.73</ele>
        <time>2020-01-09T09:05:09Z</time>
      </trkpt>
      <trkpt lat="43.53553" lon="5.29625">
        <ele>110.21</ele>
        <time>2020-01-09T09:05:23Z</time>
      </trkpt>
      <trkpt lat="43.53547" lon="5.29633">
        <ele>110.69</ele>
        <time>2020-01-09T09:05:36Z</time>
      </trkpt>
      <trkpt lat="43.53548" lon="5.29655">
        <ele>110.21</ele>
        <time>2020-01-09T09:05:42Z</time>
      </trkpt>
      <trkpt lat="43.53539" lon="5.29668">
        <ele>110.69</ele>
        <time>2020-01-09T09:06:40Z</time>
      </trkpt>
      <trkpt lat="43.5354" lon="5.29662">
        <ele>110.69</ele>
        <time>2020-01-09T09:06:41Z</time>
      </trkpt>
      <trkpt lat="43.53541" lon="5.29661">
        <ele>106.84</ele>
        <time>2020-01-09T09:06:42Z</time>
      </trkpt>
      <trkpt lat="43.53546" lon="5.29662">
        <ele>113.09</ele>
        <time>2020-01-09T09:06:43Z</time>
      </trkpt>
      <trkpt lat="43.53546" lon="5.29665">
        <ele>109.73</ele>
        <time>2020-01-09T09:06:44Z</time>
      </trkpt>
      <trkpt lat="43.53542" lon="5.29683">
        <ele>110.69</ele>
        <time>2020-01-09T09:06:58Z</time>
      </trkpt>
      <trkpt lat="43.5354" lon="5.29695">
        <ele>111.17</ele>
        <time>2020-01-09T09:07:07Z</time>
      </trkpt>
      <trkpt lat="43.53539" lon="5.29699">
        <ele>102.04</ele>
        <time>2020-01-09T09:07:10Z</time>
      </trkpt>
      <trkpt lat="43.53538" lon="5.29701">
        <ele>118.86</ele>
        <time>2020-01-09T09:07:11Z</time>
      </trkpt>
      <trkpt lat="43.53538" lon="5.29702">
        <ele>113.09</ele>
        <time>2020-01-09T09:07:12Z</time>
      </trkpt>
      <trkpt lat="43.53536" lon="5.29706">
        <ele>111.65</ele>
        <time>2020-01-09T09:07:14Z</time>
      </trkpt>
      <trkpt lat="43.53536" lon="5.29706">
        <ele>111.65</ele>
        <time>2020-01-09T09:07:15Z</time>
      </trkpt>
      <trkpt lat="43.53533" lon="5.29721">
        <ele>112.13</ele>
        <time>2020-01-09T09:07:27Z</time>
      </trkpt>
      <trkpt lat="43.53532" lon="5.29727">
        <ele>98.67</ele>
        <time>2020-01-09T09:07:31Z</time>
      </trkpt>
      <trkpt lat="43.53532" lon="5.29728">
        <ele>121.26</ele>
        <time>2020-01-09T09:07:32Z</time>
      </trkpt>
      <trkpt lat="43.53531" lon="5.29729">
        <ele>117.42</ele>
        <time>2020-01-09T09:07:33Z</time>
      </trkpt>
      <trkpt lat="43.5353" lon="5.29732">
        <ele>112.13</ele>
        <time>2020-01-09T09:07:35Z</time>
      </trkpt>
      <trkpt lat="43.53529" lon="5.29733">
        <ele>113.57</ele>
        <time>2020-01-09T09:07:36Z</time>
      </trkpt>
      <trkpt lat="43.53529" lon="5.29735">
        <ele>105.4</ele>
        <time>2020-01-09T09:07:37Z</time>
      </trkpt>
      <trkpt lat="43.53529" lon="5.29736">
        <ele>116.94</ele>
        <time>2020-01-09T09:07:38Z</time>
      </trkpt>
      <trkpt lat="43.53528" lon="5.2974">
        <ele>111.17</ele>
        <time>2020-01-09T09:07:40Z</time>
      </trkpt>
      <trkpt lat="43.53527" lon="5.29744">
        <ele>112.13</ele>
        <time>2020-01-09T09:07:42Z</time>
      </trkpt>
      <trkpt lat="43.53525" lon="5.29752">
        <ele>107.81</ele>
        <time>2020-01-09T09:07:46Z</time>
      </trkpt>
      <trkpt lat="43.53525" lon="5.29753">
        <ele>120.78</ele>
        <time>2020-01-09T09:07:47Z</time>
      </trkpt>
      <trkpt lat="43.53525" lon="5.29755">
        <ele>114.05</ele>
        <time>2020-01-09T09:07:48Z</time>
      </trkpt>
      <trkpt lat="43.53525" lon="5.29756">
        <ele>105.88</ele>
        <time>2020-01-09T09:07:49Z</time>
      </trkpt>
      <trkpt lat="43.53525" lon="5.29757">
        <ele>114.05</ele>
        <time>2020-01-09T09:07:50Z</time>
      </trkpt>
      <trkpt lat="43.53522" lon="5.29773">
        <ele>113.57</ele>
        <time>2020-01-09T09:08:01Z</time>
      </trkpt>
      <trkpt lat="43.53513" lon="5.29789">
        <ele>114.05</ele>
        <time>2020-01-09T09:08:12Z</time>
      </trkpt>
      <trkpt lat="43.53508" lon="5.2981">
        <ele>114.53</ele>
        <time>2020-01-09T09:08:27Z</time>
      </trkpt>
      <trkpt lat="43.53507" lon="5.29812">
        <ele>114.53</ele>
        <time>2020-01-09T09:08:29Z</time>
      </trkpt>
      <trkpt lat="43.53498" lon="5.29835">
        <ele>115.5</ele>
        <time>2020-01-09T09:08:44Z</time>
      </trkpt>
      <trkpt lat="43.53497" lon="5.29839">
        <ele>115.5</ele>
        <time>2020-01-09T09:08:46Z</time>
      </trkpt>
      <trkpt lat="43.53496" lon="5.29844">
        <ele>115.98</ele>
        <time>2020-01-09T09:08:50Z</time>
      </trkpt>
      <trkpt lat="43.53495" lon="5.29849">
        <ele>115.98</ele>
        <time>2020-01-09T09:08:53Z</time>
      </trkpt>
      <trkpt lat="43.5349" lon="5.29874">
        <ele>116.94</ele>
        <time>2020-01-09T09:09:08Z</time>
      </trkpt>
      <trkpt lat="43.53486" lon="5.29895">
        <ele>117.42</ele>
        <time>2020-01-09T09:09:21Z</time>
      </trkpt>
      <trkpt lat="43.53479" lon="5.29913">
        <ele>117.9</ele>
        <time>2020-01-09T09:09:35Z</time>
      </trkpt>
      <trkpt lat="43.53479" lon="5.29929">
        <ele>109.73</ele>
        <time>2020-01-09T09:09:43Z</time>
      </trkpt>
      <trkpt lat="43.53479" lon="5.29931">
        <ele>123.67</ele>
        <time>2020-01-09T09:09:44Z</time>
      </trkpt>
      <trkpt lat="43.5348" lon="5.29933">
        <ele>120.78</ele>
        <time>2020-01-09T09:09:45Z</time>
      </trkpt>
      <trkpt lat="43.53479" lon="5.29938">
        <ele>117.9</ele>
        <time>2020-01-09T09:09:47Z</time>
      </trkpt>
      <trkpt lat="43.53479" lon="5.29943">
        <ele>114.53</ele>
        <time>2020-01-09T09:09:53Z</time>
      </trkpt>
      <trkpt lat="43.53478" lon="5.29942">
        <ele>121.26</ele>
        <time>2020-01-09T09:09:54Z</time>
      </trkpt>
      <trkpt lat="43.53477" lon="5.2994">
        <ele>118.86</ele>
        <time>2020-01-09T09:09:56Z</time>
      </trkpt>
      <trkpt lat="43.53463" lon="5.29927">
        <ele>120.3</ele>
        <time>2020-01-09T09:10:11Z</time>
      </trkpt>
      <trkpt lat="43.53459" lon="5.29927">
        <ele>120.3</ele>
        <time>2020-01-09T09:10:14Z</time>
      </trkpt>
      <trkpt lat="43.53457" lon="5.29927">
        <ele>120.3</ele>
        <time>2020-01-09T09:10:20Z</time>
      </trkpt>
      <trkpt lat="43.53458" lon="5.29931">
        <ele>120.78</ele>
        <time>2020-01-09T09:10:24Z</time>
      </trkpt>
      <trkpt lat="43.53457" lon="5.29939">
        <ele>121.26</ele>
        <time>2020-01-09T09:10:36Z</time>
      </trkpt>
      <trkpt lat="43.53456" lon="5.2994">
        <ele>121.74</ele>
        <time>2020-01-09T09:10:38Z</time>
      </trkpt>
      <trkpt lat="43.53456" lon="5.29944">
        <ele>112.61</ele>
        <time>2020-01-09T09:10:41Z</time>
      </trkpt>
      <trkpt lat="43.53455" lon="5.29945">
        <ele>127.99</ele>
        <time>2020-01-09T09:10:42Z</time>
      </trkpt>
      <trkpt lat="43.53455" lon="5.29946">
        <ele>123.19</ele>
        <time>2020-01-09T09:10:43Z</time>
      </trkpt>
      <trkpt lat="43.53454" lon="5.29947">
        <ele>122.22</ele>
        <time>2020-01-09T09:10:44Z</time>
      </trkpt>
      <trkpt lat="43.53452" lon="5.29949">
        <ele>122.22</ele>
        <time>2020-01-09T09:10:47Z</time>
      </trkpt>
      <trkpt lat="43.53443" lon="5.29957">
        <ele>122.71</ele>
        <time>2020-01-09T09:11:01Z</time>
      </trkpt>
      <trkpt lat="43.53443" lon="5.29957">
        <ele>118.86</ele>
        <time>2020-01-09T09:11:11Z</time>
      </trkpt>
      <trkpt lat="43.53443" lon="5.29957">
        <ele>126.55</ele>
        <time>2020-01-09T09:11:12Z</time>
      </trkpt>
      <trkpt lat="43.53438" lon="5.29953">
        <ele>124.63</ele>
        <time>2020-01-09T09:11:20Z</time>
      </trkpt>
      <trkpt lat="43.53438" lon="5.29952">
        <ele>124.63</ele>
        <time>2020-01-09T09:11:21Z</time>
      </trkpt>
      <trkpt lat="43.53429" lon="5.29946">
        <ele>125.59</ele>
        <time>2020-01-09T09:11:29Z</time>
      </trkpt>
      <trkpt lat="43.53414" lon="5.29944">
        <ele>126.07</ele>
        <time>2020-01-09T09:11:44Z</time>
      </trkpt>
      <trkpt lat="43.53406" lon="5.29948">
        <ele>127.51</ele>
        <time>2020-01-09T09:11:57Z</time>
      </trkpt>
      <trkpt lat="43.53404" lon="5.29949">
        <ele>127.51</ele>
        <time>2020-01-09T09:12:00Z</time>
      </trkpt>
      <trkpt lat="43.53401" lon="5.29949">
        <ele>127.99</ele>
        <time>2020-01-09T09:12:04Z</time>
      </trkpt>
      <trkpt lat="43.53401" lon="5.29944">
        <ele>128.95</ele>
        <time>2020-01-09T09:12:16Z</time>
      </trkpt>
      <trkpt lat="43.53403" lon="5.29945">
        <ele>130.88</ele>
        <time>2020-01-09T09:12:39Z</time>
      </trkpt>
      <trkpt lat="43.534" lon="5.29949">
        <ele>130.88</ele>
        <time>2020-01-09T09:12:43Z</time>
      </trkpt>
      <trkpt lat="43.53392" lon="5.29958">
        <ele>131.36</ele>
        <time>2020-01-09T09:12:52Z</time>
      </trkpt>
      <trkpt lat="43.53376" lon="5.29971">
        <ele>132.8</ele>
        <time>2020-01-09T09:13:05Z</time>
      </trkpt>
      <trkpt lat="43.53358" lon="5.29996">
        <ele>133.28</ele>
        <time>2020-01-09T09:13:20Z</time>
      </trkpt>
      <trkpt lat="43.53355" lon="5.29999">
        <ele>115.5</ele>
        <time>2020-01-09T09:13:24Z</time>
      </trkpt>
      <trkpt lat="43.53355" lon="5.3">
        <ele>148.18</ele>
        <time>2020-01-09T09:13:25Z</time>
      </trkpt>
      <trkpt lat="43.53354" lon="5.30001">
        <ele>134.72</ele>
        <time>2020-01-09T09:13:26Z</time>
      </trkpt>
      <trkpt lat="43.53352" lon="5.30003">
        <ele>133.28</ele>
        <time>2020-01-09T09:13:28Z</time>
      </trkpt>
      <trkpt lat="43.5335" lon="5.30006">
        <ele>133.28</ele>
        <time>2020-01-09T09:13:31Z</time>
      </trkpt>
      <trkpt lat="43.53334" lon="5.30016">
        <ele>133.76</ele>
        <time>2020-01-09T09:13:47Z</time>
      </trkpt>
      <trkpt lat="43.53326" lon="5.30019">
        <ele>134.72</ele>
        <time>2020-01-09T09:14:01Z</time>
      </trkpt>
      <trkpt lat="43.53317" lon="5.30024">
        <ele>135.2</ele>
        <time>2020-01-09T09:14:16Z</time>
      </trkpt>
      <trkpt lat="43.53307" lon="5.30033">
        <ele>134.72</ele>
        <time>2020-01-09T09:14:28Z</time>
      </trkpt>
      <trkpt lat="43.53303" lon="5.30035">
        <ele>135.2</ele>
        <time>2020-01-09T09:14:41Z</time>
      </trkpt>
      <trkpt lat="43.533" lon="5.30038">
        <ele>135.68</ele>
        <time>2020-01-09T09:14:55Z</time>
      </trkpt>
      <trkpt lat="43.53299" lon="5.3004">
        <ele>136.64</ele>
        <time>2020-01-09T09:15:15Z</time>
      </trkpt>
      <trkpt lat="43.53295" lon="5.30044">
        <ele>136.64</ele>
        <time>2020-01-09T09:15:29Z</time>
      </trkpt>
      <trkpt lat="43.53295" lon="5.30044">
        <ele>137.61</ele>
        <time>2020-01-09T09:15:38Z</time>
      </trkpt>
      <trkpt lat="43.53295" lon="5.30053">
        <ele>137.61</ele>
        <time>2020-01-09T09:15:50Z</time>
      </trkpt>
      <trkpt lat="43.53295" lon="5.30054">
        <ele>139.05</ele>
        <time>2020-01-09T09:16:04Z</time>
      </trkpt>
      <trkpt lat="43.53295" lon="5.30054">
        <ele>139.53</ele>
        <time>2020-01-09T09:16:19Z</time>
      </trkpt>
      <trkpt lat="43.53296" lon="5.30054">
        <ele>140.49</ele>
        <time>2020-01-09T09:16:39Z</time>
      </trkpt>
      <trkpt lat="43.53293" lon="5.30055">
        <ele>141.45</ele>
        <time>2020-01-09T09:16:59Z</time>
      </trkpt>
      <trkpt lat="43.53285" lon="5.30056">
        <ele>140.97</ele>
        <time>2020-01-09T09:17:12Z</time>
      </trkpt>
      <trkpt lat="43.53279" lon="5.30055">
        <ele>141.45</ele>
        <time>2020-01-09T09:17:22Z</time>
      </trkpt>
      <trkpt lat="43.53266" lon="5.30059">
        <ele>140.49</ele>
        <time>2020-01-09T09:17:35Z</time>
      </trkpt>
      <trkpt lat="43.5326" lon="5.30062">
        <ele>140.01</ele>
        <time>2020-01-09T09:17:43Z</time>
      </trkpt>
      <trkpt lat="43.53247" lon="5.30069">
        <ele>137.61</ele>
        <time>2020-01-09T09:17:57Z</time>
      </trkpt>
      <trkpt lat="43.5324" lon="5.30071">
        <ele>137.13</ele>
        <time>2020-01-09T09:18:05Z</time>
      </trkpt>
      <trkpt lat="43.53228" lon="5.30077">
        <ele>137.61</ele>
        <time>2020-01-09T09:18:18Z</time>
      </trkpt>
      <trkpt lat="43.53218" lon="5.30083">
        <ele>138.57</ele>
        <time>2020-01-09T09:18:28Z</time>
      </trkpt>
      <trkpt lat="43.53213" lon="5.30086">
        <ele>139.05</ele>
        <time>2020-01-09T09:18:33Z</time>
      </trkpt>
      <trkpt lat="43.53211" lon="5.30088">
        <ele>139.53</ele>
        <time>2020-01-09T09:18:35Z</time>
      </trkpt>
      <trkpt lat="43.53197" lon="5.30096">
        <ele>142.41</ele>
        <time>2020-01-09T09:18:52Z</time>
      </trkpt>
      <trkpt lat="43.53189" lon="5.30098">
        <ele>143.37</ele>
        <time>2020-01-09T09:19:00Z</time>
      </trkpt>
      <trkpt lat="43.53187" lon="5.30099">
        <ele>143.85</ele>
        <time>2020-01-09T09:19:02Z</time>
      </trkpt>
      <trkpt lat="43.53172" lon="5.30105">
        <ele>146.26</ele>
        <time>2020-01-09T09:19:19Z</time>
      </trkpt>
      <trkpt lat="43.53162" lon="5.30109">
        <ele>147.7</ele>
        <time>2020-01-09T09:19:34Z</time>
      </trkpt>
      <trkpt lat="43.53154" lon="5.30112">
        <ele>149.62</ele>
        <time>2020-01-09T09:19:49Z</time>
      </trkpt>
      <trkpt lat="43.53152" lon="5.30112">
        <ele>149.62</ele>
        <time>2020-01-09T09:19:52Z</time>
      </trkpt>
      <trkpt lat="43.53144" lon="5.30115">
        <ele>151.54</ele>
        <time>2020-01-09T09:20:06Z</time>
      </trkpt>
      <trkpt lat="43.53136" lon="5.30121">
        <ele>152.51</ele>
        <time>2020-01-09T09:20:19Z</time>
      </trkpt>
      <trkpt lat="43.53124" lon="5.30128">
        <ele>153.47</ele>
        <time>2020-01-09T09:20:33Z</time>
      </trkpt>
      <trkpt lat="43.53118" lon="5.30132">
        <ele>154.43</ele>
        <time>2020-01-09T09:20:50Z</time>
      </trkpt>
      <trkpt lat="43.53115" lon="5.30132">
        <ele>155.39</ele>
        <time>2020-01-09T09:20:58Z</time>
      </trkpt>
      <trkpt lat="43.53108" lon="5.30134">
        <ele>155.39</ele>
        <time>2020-01-09T09:21:03Z</time>
      </trkpt>
      <trkpt lat="43.53086" lon="5.30143">
        <ele>156.83</ele>
        <time>2020-01-09T09:21:19Z</time>
      </trkpt>
      <trkpt lat="43.53067" lon="5.30152">
        <ele>157.31</ele>
        <time>2020-01-09T09:21:36Z</time>
      </trkpt>
      <trkpt lat="43.5305" lon="5.3016">
        <ele>157.79</ele>
        <time>2020-01-09T09:21:53Z</time>
      </trkpt>
      <trkpt lat="43.53039" lon="5.30166">
        <ele>158.27</ele>
        <time>2020-01-09T09:22:04Z</time>
      </trkpt>
      <trkpt lat="43.53035" lon="5.30168">
        <ele>158.27</ele>
        <time>2020-01-09T09:22:08Z</time>
      </trkpt>
      <trkpt lat="43.53032" lon="5.30169">
        <ele>158.27</ele>
        <time>2020-01-09T09:22:11Z</time>
      </trkpt>
      <trkpt lat="43.53018" lon="5.30179">
        <ele>158.75</ele>
        <time>2020-01-09T09:22:27Z</time>
      </trkpt>
      <trkpt lat="43.53004" lon="5.30188">
        <ele>158.75</ele>
        <time>2020-01-09T09:22:43Z</time>
      </trkpt>
      <trkpt lat="43.52989" lon="5.30198">
        <ele>159.72</ele>
        <time>2020-01-09T09:22:59Z</time>
      </trkpt>
      <trkpt lat="43.52974" lon="5.30207">
        <ele>159.24</ele>
        <time>2020-01-09T09:23:15Z</time>
      </trkpt>
      <trkpt lat="43.52957" lon="5.30217">
        <ele>159.24</ele>
        <time>2020-01-09T09:23:31Z</time>
      </trkpt>
      <trkpt lat="43.52938" lon="5.30227">
        <ele>160.2</ele>
        <time>2020-01-09T09:23:48Z</time>
      </trkpt>
      <trkpt lat="43.52934" lon="5.3023">
        <ele>160.2</ele>
        <time>2020-01-09T09:23:53Z</time>
      </trkpt>
      <trkpt lat="43.52929" lon="5.30233">
        <ele>160.2</ele>
        <time>2020-01-09T09:23:58Z</time>
      </trkpt>
      <trkpt lat="43.52915" lon="5.30241">
        <ele>160.2</ele>
        <time>2020-01-09T09:24:12Z</time>
      </trkpt>
      <trkpt lat="43.52905" lon="5.30245">
        <ele>160.2</ele>
        <time>2020-01-09T09:24:21Z</time>
      </trkpt>
      <trkpt lat="43.5289" lon="5.30256">
        <ele>161.16</ele>
        <time>2020-01-09T09:24:36Z</time>
      </trkpt>
      <trkpt lat="43.52877" lon="5.30267">
        <ele>161.64</ele>
        <time>2020-01-09T09:24:50Z</time>
      </trkpt>
      <trkpt lat="43.52871" lon="5.30272">
        <ele>161.64</ele>
        <time>2020-01-09T09:24:57Z</time>
      </trkpt>
      <trkpt lat="43.52868" lon="5.30277">
        <ele>161.64</ele>
        <time>2020-01-09T09:25:01Z</time>
      </trkpt>
      <trkpt lat="43.52853" lon="5.30293">
        <ele>162.6</ele>
        <time>2020-01-09T09:25:17Z</time>
      </trkpt>
      <trkpt lat="43.52849" lon="5.30298">
        <ele>163.08</ele>
        <time>2020-01-09T09:25:22Z</time>
      </trkpt>
      <trkpt lat="43.52843" lon="5.303">
        <ele>162.6</ele>
        <time>2020-01-09T09:25:27Z</time>
      </trkpt>
      <trkpt lat="43.52836" lon="5.30307">
        <ele>162.6</ele>
        <time>2020-01-09T09:25:34Z</time>
      </trkpt>
      <trkpt lat="43.52818" lon="5.30319">
        <ele>163.56</ele>
        <time>2020-01-09T09:25:52Z</time>
      </trkpt>
      <trkpt lat="43.52803" lon="5.30327">
        <ele>164.04</ele>
        <time>2020-01-09T09:26:05Z</time>
      </trkpt>
      <trkpt lat="43.52796" lon="5.30331">
        <ele>164.04</ele>
        <time>2020-01-09T09:26:12Z</time>
      </trkpt>
      <trkpt lat="43.52786" lon="5.30336">
        <ele>164.52</ele>
        <time>2020-01-09T09:26:21Z</time>
      </trkpt>
      <trkpt lat="43.52772" lon="5.30348">
        <ele>165</ele>
        <time>2020-01-09T09:26:36Z</time>
      </trkpt>
      <trkpt lat="43.52767" lon="5.30358">
        <ele>157.79</ele>
        <time>2020-01-09T09:26:41Z</time>
      </trkpt>
      <trkpt lat="43.52766" lon="5.30359">
        <ele>165</ele>
        <time>2020-01-09T09:26:42Z</time>
      </trkpt>
      <trkpt lat="43.52764" lon="5.30361">
        <ele>154.43</ele>
        <time>2020-01-09T09:26:44Z</time>
      </trkpt>
      <trkpt lat="43.52763" lon="5.30362">
        <ele>172.69</ele>
        <time>2020-01-09T09:26:45Z</time>
      </trkpt>
      <trkpt lat="43.52762" lon="5.30363">
        <ele>165</ele>
        <time>2020-01-09T09:26:46Z</time>
      </trkpt>
      <trkpt lat="43.52761" lon="5.30364">
        <ele>160.2</ele>
        <time>2020-01-09T09:26:47Z</time>
      </trkpt>
      <trkpt lat="43.52761" lon="5.30365">
        <ele>164.04</ele>
        <time>2020-01-09T09:26:48Z</time>
      </trkpt>
      <trkpt lat="43.52759" lon="5.30367">
        <ele>168.37</ele>
        <time>2020-01-09T09:26:50Z</time>
      </trkpt>
      <trkpt lat="43.52759" lon="5.30368">
        <ele>165</ele>
        <time>2020-01-09T09:26:51Z</time>
      </trkpt>
      <trkpt lat="43.52752" lon="5.30377">
        <ele>161.16</ele>
        <time>2020-01-09T09:27:01Z</time>
      </trkpt>
      <trkpt lat="43.52752" lon="5.30377">
        <ele>167.41</ele>
        <time>2020-01-09T09:27:02Z</time>
      </trkpt>
      <trkpt lat="43.52752" lon="5.30377">
        <ele>164.04</ele>
        <time>2020-01-09T09:27:03Z</time>
      </trkpt>
      <trkpt lat="43.52752" lon="5.30377">
        <ele>168.37</ele>
        <time>2020-01-09T09:27:05Z</time>
      </trkpt>
      <trkpt lat="43.52752" lon="5.30377">
        <ele>165.48</ele>
        <time>2020-01-09T09:27:06Z</time>
      </trkpt>
      <trkpt lat="43.52752" lon="5.30377">
        <ele>165</ele>
        <time>2020-01-09T09:27:08Z</time>
      </trkpt>
      <trkpt lat="43.52752" lon="5.30378">
        <ele>165.48</ele>
        <time>2020-01-09T09:27:19Z</time>
      </trkpt>
      <trkpt lat="43.52752" lon="5.30379">
        <ele>165.96</ele>
        <time>2020-01-09T09:27:38Z</time>
      </trkpt>
      <trkpt lat="43.52753" lon="5.30377">
        <ele>166.93</ele>
        <time>2020-01-09T09:27:50Z</time>
      </trkpt>
      <trkpt lat="43.52758" lon="5.30372">
        <ele>167.41</ele>
        <time>2020-01-09T09:27:58Z</time>
      </trkpt>
      <trkpt lat="43.52773" lon="5.30358">
        <ele>168.37</ele>
        <time>2020-01-09T09:28:16Z</time>
      </trkpt>
      <trkpt lat="43.52784" lon="5.3035">
        <ele>169.33</ele>
        <time>2020-01-09T09:28:31Z</time>
      </trkpt>
      <trkpt lat="43.528" lon="5.3034">
        <ele>170.29</ele>
        <time>2020-01-09T09:28:48Z</time>
      </trkpt>
      <trkpt lat="43.52815" lon="5.3033">
        <ele>170.77</ele>
        <time>2020-01-09T09:29:03Z</time>
      </trkpt>
      <trkpt lat="43.52831" lon="5.3032">
        <ele>171.73</ele>
        <time>2020-01-09T09:29:21Z</time>
      </trkpt>
      <trkpt lat="43.52841" lon="5.30311">
        <ele>172.69</ele>
        <time>2020-01-09T09:29:34Z</time>
      </trkpt>
      <trkpt lat="43.52856" lon="5.30299">
        <ele>173.66</ele>
        <time>2020-01-09T09:29:50Z</time>
      </trkpt>
      <trkpt lat="43.52871" lon="5.30285">
        <ele>174.14</ele>
        <time>2020-01-09T09:30:05Z</time>
      </trkpt>
      <trkpt lat="43.52881" lon="5.30277">
        <ele>174.62</ele>
        <time>2020-01-09T09:30:16Z</time>
      </trkpt>
      <trkpt lat="43.52887" lon="5.30272">
        <ele>175.1</ele>
        <time>2020-01-09T09:30:24Z</time>
      </trkpt>
      <trkpt lat="43.52891" lon="5.30276">
        <ele>175.1</ele>
        <time>2020-01-09T09:30:30Z</time>
      </trkpt>
      <trkpt lat="43.52893" lon="5.30277">
        <ele>175.58</ele>
        <time>2020-01-09T09:30:39Z</time>
      </trkpt>
      <trkpt lat="43.52894" lon="5.30279">
        <ele>175.58</ele>
        <time>2020-01-09T09:30:42Z</time>
      </trkpt>
      <trkpt lat="43.52902" lon="5.30288">
        <ele>175.58</ele>
        <time>2020-01-09T09:30:54Z</time>
      </trkpt>
      <trkpt lat="43.52911" lon="5.30301">
        <ele>176.06</ele>
        <time>2020-01-09T09:31:08Z</time>
      </trkpt>
      <trkpt lat="43.52915" lon="5.30304">
        <ele>176.06</ele>
        <time>2020-01-09T09:31:13Z</time>
      </trkpt>
      <trkpt lat="43.52917" lon="5.30307">
        <ele>176.06</ele>
        <time>2020-01-09T09:31:17Z</time>
      </trkpt>
      <trkpt lat="43.52926" lon="5.30315">
        <ele>176.06</ele>
        <time>2020-01-09T09:31:29Z</time>
      </trkpt>
      <trkpt lat="43.52932" lon="5.30317">
        <ele>175.58</ele>
        <time>2020-01-09T09:31:43Z</time>
      </trkpt>
      <trkpt lat="43.52932" lon="5.30318">
        <ele>175.58</ele>
        <time>2020-01-09T09:31:47Z</time>
      </trkpt>
      <trkpt lat="43.52923" lon="5.3033">
        <ele>175.1</ele>
        <time>2020-01-09T09:31:59Z</time>
      </trkpt>
      <trkpt lat="43.52919" lon="5.30341">
        <ele>175.1</ele>
        <time>2020-01-09T09:32:07Z</time>
      </trkpt>
      <trkpt lat="43.52918" lon="5.30364">
        <ele>174.14</ele>
        <time>2020-01-09T09:32:22Z</time>
      </trkpt>
      <trkpt lat="43.52919" lon="5.30372">
        <ele>173.66</ele>
        <time>2020-01-09T09:32:27Z</time>
      </trkpt>
      <trkpt lat="43.5292" lon="5.30375">
        <ele>173.66</ele>
        <time>2020-01-09T09:32:29Z</time>
      </trkpt>
      <trkpt lat="43.52925" lon="5.30391">
        <ele>168.85</ele>
        <time>2020-01-09T09:32:38Z</time>
      </trkpt>
      <trkpt lat="43.52926" lon="5.30392">
        <ele>176.54</ele>
        <time>2020-01-09T09:32:39Z</time>
      </trkpt>
      <trkpt lat="43.52927" lon="5.30396">
        <ele>178.94</ele>
        <time>2020-01-09T09:32:42Z</time>
      </trkpt>
      <trkpt lat="43.52927" lon="5.30397">
        <ele>170.77</ele>
        <time>2020-01-09T09:32:43Z</time>
      </trkpt>
      <trkpt lat="43.52928" lon="5.30399">
        <ele>175.1</ele>
        <time>2020-01-09T09:32:44Z</time>
      </trkpt>
      <trkpt lat="43.52931" lon="5.30416">
        <ele>172.69</ele>
        <time>2020-01-09T09:32:57Z</time>
      </trkpt>
      <trkpt lat="43.52932" lon="5.30422">
        <ele>172.69</ele>
        <time>2020-01-09T09:33:01Z</time>
      </trkpt>
      <trkpt lat="43.52935" lon="5.30428">
        <ele>172.69</ele>
        <time>2020-01-09T09:33:06Z</time>
      </trkpt>
      <trkpt lat="43.5294" lon="5.30448">
        <ele>171.25</ele>
        <time>2020-01-09T09:33:21Z</time>
      </trkpt>
      <trkpt lat="43.52943" lon="5.30458">
        <ele>170.29</ele>
        <time>2020-01-09T09:33:29Z</time>
      </trkpt>
      <trkpt lat="43.52945" lon="5.30463">
        <ele>169.81</ele>
        <time>2020-01-09T09:33:33Z</time>
      </trkpt>
      <trkpt lat="43.52946" lon="5.30469">
        <ele>169.81</ele>
        <time>2020-01-09T09:33:36Z</time>
      </trkpt>
      <trkpt lat="43.52952" lon="5.30476">
        <ele>169.81</ele>
        <time>2020-01-09T09:33:52Z</time>
      </trkpt>
      <trkpt lat="43.52953" lon="5.30483">
        <ele>169.33</ele>
        <time>2020-01-09T09:33:59Z</time>
      </trkpt>
      <trkpt lat="43.52957" lon="5.305">
        <ele>168.37</ele>
        <time>2020-01-09T09:34:12Z</time>
      </trkpt>
      <trkpt lat="43.52958" lon="5.30517">
        <ele>167.89</ele>
        <time>2020-01-09T09:34:26Z</time>
      </trkpt>
      <trkpt lat="43.52958" lon="5.30526">
        <ele>167.41</ele>
        <time>2020-01-09T09:34:33Z</time>
      </trkpt>
      <trkpt lat="43.52957" lon="5.30535">
        <ele>167.41</ele>
        <time>2020-01-09T09:34:39Z</time>
      </trkpt>
      <trkpt lat="43.52957" lon="5.30551">
        <ele>165.96</ele>
        <time>2020-01-09T09:34:51Z</time>
      </trkpt>
      <trkpt lat="43.52958" lon="5.30561">
        <ele>165.96</ele>
        <time>2020-01-09T09:34:56Z</time>
      </trkpt>
      <trkpt lat="43.5296" lon="5.30584">
        <ele>164.04</ele>
        <time>2020-01-09T09:35:12Z</time>
      </trkpt>
      <trkpt lat="43.52961" lon="5.30603">
        <ele>162.6</ele>
        <time>2020-01-09T09:35:26Z</time>
      </trkpt>
      <trkpt lat="43.52962" lon="5.30615">
        <ele>161.16</ele>
        <time>2020-01-09T09:35:35Z</time>
      </trkpt>
      <trkpt lat="43.52962" lon="5.30622">
        <ele>147.7</ele>
        <time>2020-01-09T09:35:41Z</time>
      </trkpt>
      <trkpt lat="43.52962" lon="5.30623">
        <ele>170.29</ele>
        <time>2020-01-09T09:35:42Z</time>
      </trkpt>
      <trkpt lat="43.52963" lon="5.30624">
        <ele>161.16</ele>
        <time>2020-01-09T09:35:43Z</time>
      </trkpt>
      <trkpt lat="43.52963" lon="5.30626">
        <ele>160.2</ele>
        <time>2020-01-09T09:35:45Z</time>
      </trkpt>
      <trkpt lat="43.52964" lon="5.30635">
        <ele>156.83</ele>
        <time>2020-01-09T09:35:56Z</time>
      </trkpt>
      <trkpt lat="43.52965" lon="5.30637">
        <ele>163.08</ele>
        <time>2020-01-09T09:35:59Z</time>
      </trkpt>
      <trkpt lat="43.52965" lon="5.30637">
        <ele>160.68</ele>
        <time>2020-01-09T09:36:00Z</time>
      </trkpt>
      <trkpt lat="43.52965" lon="5.30637">
        <ele>156.35</ele>
        <time>2020-01-09T09:36:02Z</time>
      </trkpt>
      <trkpt lat="43.52965" lon="5.30637">
        <ele>159.24</ele>
        <time>2020-01-09T09:36:03Z</time>
      </trkpt>
      <trkpt lat="43.52968" lon="5.3065">
        <ele>156.83</ele>
        <time>2020-01-09T09:36:19Z</time>
      </trkpt>
      <trkpt lat="43.5297" lon="5.30669">
        <ele>154.43</ele>
        <time>2020-01-09T09:36:35Z</time>
      </trkpt>
      <trkpt lat="43.52972" lon="5.30683">
        <ele>152.51</ele>
        <time>2020-01-09T09:36:49Z</time>
      </trkpt>
      <trkpt lat="43.52971" lon="5.30698">
        <ele>142.89</ele>
        <time>2020-01-09T09:37:02Z</time>
      </trkpt>
      <trkpt lat="43.52971" lon="5.30699">
        <ele>149.62</ele>
        <time>2020-01-09T09:37:03Z</time>
      </trkpt>
      <trkpt lat="43.5297" lon="5.30701">
        <ele>152.99</ele>
        <time>2020-01-09T09:37:05Z</time>
      </trkpt>
      <trkpt lat="43.5297" lon="5.30701">
        <ele>149.14</ele>
        <time>2020-01-09T09:37:07Z</time>
      </trkpt>
      <trkpt lat="43.5297" lon="5.30702">
        <ele>154.43</ele>
        <time>2020-01-09T09:37:09Z</time>
      </trkpt>
      <trkpt lat="43.52969" lon="5.30702">
        <ele>151.06</ele>
        <time>2020-01-09T09:37:10Z</time>
      </trkpt>
      <trkpt lat="43.52967" lon="5.30706">
        <ele>150.58</ele>
        <time>2020-01-09T09:37:13Z</time>
      </trkpt>
      <trkpt lat="43.52963" lon="5.30717">
        <ele>144.82</ele>
        <time>2020-01-09T09:37:22Z</time>
      </trkpt>
      <trkpt lat="43.52963" lon="5.30718">
        <ele>149.14</ele>
        <time>2020-01-09T09:37:23Z</time>
      </trkpt>
      <trkpt lat="43.52962" lon="5.30719">
        <ele>149.62</ele>
        <time>2020-01-09T09:37:25Z</time>
      </trkpt>
      <trkpt lat="43.52959" lon="5.30723">
        <ele>142.89</ele>
        <time>2020-01-09T09:37:31Z</time>
      </trkpt>
      <trkpt lat="43.52959" lon="5.30723">
        <ele>153.95</ele>
        <time>2020-01-09T09:37:32Z</time>
      </trkpt>
      <trkpt lat="43.52959" lon="5.30724">
        <ele>147.7</ele>
        <time>2020-01-09T09:37:33Z</time>
      </trkpt>
      <trkpt lat="43.52958" lon="5.30725">
        <ele>150.58</ele>
        <time>2020-01-09T09:37:34Z</time>
      </trkpt>
      <trkpt lat="43.5295" lon="5.30734">
        <ele>148.18</ele>
        <time>2020-01-09T09:37:47Z</time>
      </trkpt>
      <trkpt lat="43.52946" lon="5.3074">
        <ele>147.22</ele>
        <time>2020-01-09T09:37:58Z</time>
      </trkpt>
      <trkpt lat="43.52945" lon="5.30743">
        <ele>147.22</ele>
        <time>2020-01-09T09:38:05Z</time>
      </trkpt>
      <trkpt lat="43.52943" lon="5.30757">
        <ele>145.3</ele>
        <time>2020-01-09T09:38:18Z</time>
      </trkpt>
      <trkpt lat="43.52949" lon="5.3076">
        <ele>144.34</ele>
        <time>2020-01-09T09:38:25Z</time>
      </trkpt>
      <trkpt lat="43.52963" lon="5.30758">
        <ele>143.37</ele>
        <time>2020-01-09T09:38:37Z</time>
      </trkpt>
      <trkpt lat="43.52975" lon="5.30757">
        <ele>140.49</ele>
        <time>2020-01-09T09:38:50Z</time>
      </trkpt>
      <trkpt lat="43.52976" lon="5.30757">
        <ele>140.97</ele>
        <time>2020-01-09T09:38:51Z</time>
      </trkpt>
      <trkpt lat="43.52985" lon="5.30763">
        <ele>139.53</ele>
        <time>2020-01-09T09:39:02Z</time>
      </trkpt>
      <trkpt lat="43.5299" lon="5.30769">
        <ele>127.99</ele>
        <time>2020-01-09T09:39:10Z</time>
      </trkpt>
      <trkpt lat="43.5299" lon="5.3077">
        <ele>138.57</ele>
        <time>2020-01-09T09:39:11Z</time>
      </trkpt>
      <trkpt lat="43.52991" lon="5.30771">
        <ele>146.74</ele>
        <time>2020-01-09T09:39:12Z</time>
      </trkpt>
      <trkpt lat="43.52992" lon="5.30772">
        <ele>139.53</ele>
        <time>2020-01-09T09:39:13Z</time>
      </trkpt>
      <trkpt lat="43.52994" lon="5.30772">
        <ele>138.57</ele>
        <time>2020-01-09T09:39:15Z</time>
      </trkpt>
      <trkpt lat="43.53005" lon="5.30781">
        <ele>137.61</ele>
        <time>2020-01-09T09:39:29Z</time>
      </trkpt>
      <trkpt lat="43.53008" lon="5.30782">
        <ele>132.32</ele>
        <time>2020-01-09T09:39:37Z</time>
      </trkpt>
      <trkpt lat="43.53008" lon="5.30782">
        <ele>140.01</ele>
        <time>2020-01-09T09:39:38Z</time>
      </trkpt>
      <trkpt lat="43.53008" lon="5.30782">
        <ele>136.64</ele>
        <time>2020-01-09T09:39:41Z</time>
      </trkpt>
      <trkpt lat="43.53008" lon="5.30783">
        <ele>138.09</ele>
        <time>2020-01-09T09:39:44Z</time>
      </trkpt>
      <trkpt lat="43.53008" lon="5.3079">
        <ele>131.84</ele>
        <time>2020-01-09T09:39:50Z</time>
      </trkpt>
      <trkpt lat="43.53008" lon="5.30791">
        <ele>145.3</ele>
        <time>2020-01-09T09:39:51Z</time>
      </trkpt>
      <trkpt lat="43.53007" lon="5.30792">
        <ele>137.61</ele>
        <time>2020-01-09T09:39:52Z</time>
      </trkpt>
      <trkpt lat="43.53007" lon="5.30794">
        <ele>137.13</ele>
        <time>2020-01-09T09:39:53Z</time>
      </trkpt>
      <trkpt lat="43.53005" lon="5.30797">
        <ele>137.61</ele>
        <time>2020-01-09T09:40:05Z</time>
      </trkpt>
      <trkpt lat="43.53004" lon="5.30798">
        <ele>138.09</ele>
        <time>2020-01-09T09:40:19Z</time>
      </trkpt>
      <trkpt lat="43.53004" lon="5.30798">
        <ele>135.68</ele>
        <time>2020-01-09T09:40:23Z</time>
      </trkpt>
      <trkpt lat="43.53004" lon="5.30802">
        <ele>138.09</ele>
        <time>2020-01-09T09:42:24Z</time>
      </trkpt>
      <trkpt lat="43.53003" lon="5.30802">
        <ele>138.09</ele>
        <time>2020-01-09T09:42:25Z</time>
      </trkpt>
      <trkpt lat="43.53001" lon="5.30804">
        <ele>138.09</ele>
        <time>2020-01-09T09:42:47Z</time>
      </trkpt>
      <trkpt lat="43.53001" lon="5.30802">
        <ele>135.2</ele>
        <time>2020-01-09T09:42:51Z</time>
      </trkpt>
      <trkpt lat="43.53001" lon="5.30801">
        <ele>140.97</ele>
        <time>2020-01-09T09:42:52Z</time>
      </trkpt>
      <trkpt lat="43.53" lon="5.30802">
        <ele>137.13</ele>
        <time>2020-01-09T09:42:54Z</time>
      </trkpt>
      <trkpt lat="43.52999" lon="5.30802">
        <ele>137.61</ele>
        <time>2020-01-09T09:42:55Z</time>
      </trkpt>
      <trkpt lat="43.52999" lon="5.30802">
        <ele>141.45</ele>
        <time>2020-01-09T09:42:56Z</time>
      </trkpt>
      <trkpt lat="43.52998" lon="5.30802">
        <ele>137.13</ele>
        <time>2020-01-09T09:42:57Z</time>
      </trkpt>
      <trkpt lat="43.52998" lon="5.30803">
        <ele>140.49</ele>
        <time>2020-01-09T09:43:17Z</time>
      </trkpt>
      <trkpt lat="43.52994" lon="5.30807">
        <ele>136.64</ele>
        <time>2020-01-09T09:43:32Z</time>
      </trkpt>
      <trkpt lat="43.52994" lon="5.30807">
        <ele>140.97</ele>
        <time>2020-01-09T09:43:33Z</time>
      </trkpt>
      <trkpt lat="43.52994" lon="5.30807">
        <ele>135.68</ele>
        <time>2020-01-09T09:43:35Z</time>
      </trkpt>
      <trkpt lat="43.52994" lon="5.30807">
        <ele>141.45</ele>
        <time>2020-01-09T09:43:36Z</time>
      </trkpt>
      <trkpt lat="43.5299" lon="5.30808">
        <ele>139.05</ele>
        <time>2020-01-09T09:43:43Z</time>
      </trkpt>
      <trkpt lat="43.52983" lon="5.30814">
        <ele>134.72</ele>
        <time>2020-01-09T09:43:52Z</time>
      </trkpt>
      <trkpt lat="43.52983" lon="5.30815">
        <ele>141.45</ele>
        <time>2020-01-09T09:43:53Z</time>
      </trkpt>
      <trkpt lat="43.52983" lon="5.30815">
        <ele>135.2</ele>
        <time>2020-01-09T09:43:57Z</time>
      </trkpt>
      <trkpt lat="43.52984" lon="5.30815">
        <ele>141.45</ele>
        <time>2020-01-09T09:43:58Z</time>
      </trkpt>
      <trkpt lat="43.52984" lon="5.30815">
        <ele>137.13</ele>
        <time>2020-01-09T09:43:59Z</time>
      </trkpt>
      <trkpt lat="43.52984" lon="5.30814">
        <ele>142.89</ele>
        <time>2020-01-09T09:44:01Z</time>
      </trkpt>
      <trkpt lat="43.52984" lon="5.30814">
        <ele>135.68</ele>
        <time>2020-01-09T09:44:02Z</time>
      </trkpt>
      <trkpt lat="43.52984" lon="5.30814">
        <ele>140.97</ele>
        <time>2020-01-09T09:44:03Z</time>
      </trkpt>
      <trkpt lat="43.52984" lon="5.30814">
        <ele>131.84</ele>
        <time>2020-01-09T09:44:05Z</time>
      </trkpt>
      <trkpt lat="43.52984" lon="5.30813">
        <ele>144.82</ele>
        <time>2020-01-09T09:44:06Z</time>
      </trkpt>
      <trkpt lat="43.52985" lon="5.30812">
        <ele>140.49</ele>
        <time>2020-01-09T09:44:07Z</time>
      </trkpt>
      <trkpt lat="43.52986" lon="5.3081">
        <ele>139.05</ele>
        <time>2020-01-09T09:44:09Z</time>
      </trkpt>
      <trkpt lat="43.52987" lon="5.30809">
        <ele>143.37</ele>
        <time>2020-01-09T09:44:11Z</time>
      </trkpt>
      <trkpt lat="43.52988" lon="5.30809">
        <ele>141.93</ele>
        <time>2020-01-09T09:44:12Z</time>
      </trkpt>
      <trkpt lat="43.52989" lon="5.30808">
        <ele>139.53</ele>
        <time>2020-01-09T09:44:14Z</time>
      </trkpt>
      <trkpt lat="43.53" lon="5.30799">
        <ele>140.49</ele>
        <time>2020-01-09T09:44:26Z</time>
      </trkpt>
      <trkpt lat="43.5301" lon="5.30803">
        <ele>140.49</ele>
        <time>2020-01-09T09:44:38Z</time>
      </trkpt>
      <trkpt lat="43.53011" lon="5.30804">
        <ele>140.49</ele>
        <time>2020-01-09T09:44:39Z</time>
      </trkpt>
      <trkpt lat="43.53019" lon="5.30814">
        <ele>140.97</ele>
        <time>2020-01-09T09:44:49Z</time>
      </trkpt>
      <trkpt lat="43.53022" lon="5.30818">
        <ele>140.97</ele>
        <time>2020-01-09T09:44:54Z</time>
      </trkpt>
      <trkpt lat="43.5303" lon="5.30834">
        <ele>141.45</ele>
        <time>2020-01-09T09:45:08Z</time>
      </trkpt>
      <trkpt lat="43.53038" lon="5.30845">
        <ele>142.41</ele>
        <time>2020-01-09T09:45:21Z</time>
      </trkpt>
      <trkpt lat="43.53039" lon="5.30845">
        <ele>142.41</ele>
        <time>2020-01-09T09:45:22Z</time>
      </trkpt>
      <trkpt lat="43.53044" lon="5.30852">
        <ele>142.89</ele>
        <time>2020-01-09T09:45:27Z</time>
      </trkpt>
      <trkpt lat="43.53047" lon="5.30856">
        <ele>151.06</ele>
        <time>2020-01-09T09:45:29Z</time>
      </trkpt>
      <trkpt lat="43.53048" lon="5.30857">
        <ele>141.93</ele>
        <time>2020-01-09T09:45:30Z</time>
      </trkpt>
      <trkpt lat="43.53052" lon="5.30867">
        <ele>143.37</ele>
        <time>2020-01-09T09:45:38Z</time>
      </trkpt>
      <trkpt lat="43.53054" lon="5.30878">
        <ele>133.28</ele>
        <time>2020-01-09T09:45:45Z</time>
      </trkpt>
      <trkpt lat="43.53054" lon="5.30879">
        <ele>147.22</ele>
        <time>2020-01-09T09:45:46Z</time>
      </trkpt>
      <trkpt lat="43.53054" lon="5.30879">
        <ele>145.78</ele>
        <time>2020-01-09T09:45:47Z</time>
      </trkpt>
      <trkpt lat="43.53055" lon="5.30881">
        <ele>144.34</ele>
        <time>2020-01-09T09:45:49Z</time>
      </trkpt>
      <trkpt lat="43.53053" lon="5.30889">
        <ele>145.3</ele>
        <time>2020-01-09T09:46:02Z</time>
      </trkpt>
      <trkpt lat="43.5305" lon="5.30905">
        <ele>146.26</ele>
        <time>2020-01-09T09:46:17Z</time>
      </trkpt>
      <trkpt lat="43.53048" lon="5.30911">
        <ele>147.22</ele>
        <time>2020-01-09T09:46:22Z</time>
      </trkpt>
      <trkpt lat="43.53043" lon="5.3093">
        <ele>148.66</ele>
        <time>2020-01-09T09:46:39Z</time>
      </trkpt>
      <trkpt lat="43.53039" lon="5.3095">
        <ele>149.62</ele>
        <time>2020-01-09T09:46:52Z</time>
      </trkpt>
      <trkpt lat="43.53039" lon="5.3096">
        <ele>150.1</ele>
        <time>2020-01-09T09:46:57Z</time>
      </trkpt>
      <trkpt lat="43.53042" lon="5.30973">
        <ele>155.39</ele>
        <time>2020-01-09T09:47:03Z</time>
      </trkpt>
      <trkpt lat="43.53043" lon="5.30979">
        <ele>147.22</ele>
        <time>2020-01-09T09:47:06Z</time>
      </trkpt>
      <trkpt lat="43.53043" lon="5.3098">
        <ele>147.22</ele>
        <time>2020-01-09T09:47:07Z</time>
      </trkpt>
      <trkpt lat="43.53043" lon="5.30982">
        <ele>158.75</ele>
        <time>2020-01-09T09:47:08Z</time>
      </trkpt>
      <trkpt lat="43.53043" lon="5.30984">
        <ele>152.03</ele>
        <time>2020-01-09T09:47:09Z</time>
      </trkpt>
      <trkpt lat="43.53043" lon="5.30987">
        <ele>152.03</ele>
        <time>2020-01-09T09:47:11Z</time>
      </trkpt>
      <trkpt lat="43.53044" lon="5.30992">
        <ele>152.03</ele>
        <time>2020-01-09T09:47:15Z</time>
      </trkpt>
      <trkpt lat="43.53044" lon="5.31009">
        <ele>152.03</ele>
        <time>2020-01-09T09:47:27Z</time>
      </trkpt>
      <trkpt lat="43.53043" lon="5.31024">
        <ele>152.51</ele>
        <time>2020-01-09T09:47:42Z</time>
      </trkpt>
      <trkpt lat="43.53043" lon="5.31052">
        <ele>152.99</ele>
        <time>2020-01-09T09:47:55Z</time>
      </trkpt>
      <trkpt lat="43.53047" lon="5.31069">
        <ele>152.51</ele>
        <time>2020-01-09T09:48:10Z</time>
      </trkpt>
      <trkpt lat="43.53048" lon="5.31081">
        <ele>152.03</ele>
        <time>2020-01-09T09:48:25Z</time>
      </trkpt>
      <trkpt lat="43.53049" lon="5.31082">
        <ele>152.03</ele>
        <time>2020-01-09T09:48:43Z</time>
      </trkpt>
      <trkpt lat="43.53049" lon="5.31088">
        <ele>152.03</ele>
        <time>2020-01-09T09:48:48Z</time>
      </trkpt>
      <trkpt lat="43.53054" lon="5.31111">
        <ele>151.54</ele>
        <time>2020-01-09T09:49:00Z</time>
      </trkpt>
      <trkpt lat="43.5306" lon="5.31134">
        <ele>151.06</ele>
        <time>2020-01-09T09:49:14Z</time>
      </trkpt>
      <trkpt lat="43.53065" lon="5.31155">
        <ele>151.54</ele>
        <time>2020-01-09T09:49:28Z</time>
      </trkpt>
      <trkpt lat="43.53065" lon="5.31156">
        <ele>151.54</ele>
        <time>2020-01-09T09:49:29Z</time>
      </trkpt>
      <trkpt lat="43.53063" lon="5.31175">
        <ele>147.7</ele>
        <time>2020-01-09T09:49:41Z</time>
      </trkpt>
      <trkpt lat="43.53062" lon="5.31178">
        <ele>156.83</ele>
        <time>2020-01-09T09:49:43Z</time>
      </trkpt>
      <trkpt lat="43.53062" lon="5.31179">
        <ele>156.83</ele>
        <time>2020-01-09T09:49:44Z</time>
      </trkpt>
      <trkpt lat="43.53061" lon="5.3118">
        <ele>152.99</ele>
        <time>2020-01-09T09:49:45Z</time>
      </trkpt>
      <trkpt lat="43.53061" lon="5.31181">
        <ele>149.62</ele>
        <time>2020-01-09T09:49:46Z</time>
      </trkpt>
      <trkpt lat="43.5306" lon="5.31182">
        <ele>151.06</ele>
        <time>2020-01-09T09:49:47Z</time>
      </trkpt>
      <trkpt lat="43.53059" lon="5.31182">
        <ele>155.39</ele>
        <time>2020-01-09T09:49:48Z</time>
      </trkpt>
      <trkpt lat="43.53058" lon="5.31183">
        <ele>152.99</ele>
        <time>2020-01-09T09:49:49Z</time>
      </trkpt>
      <trkpt lat="43.53049" lon="5.31184">
        <ele>154.43</ele>
        <time>2020-01-09T09:50:03Z</time>
      </trkpt>
      <trkpt lat="43.53042" lon="5.31186">
        <ele>155.39</ele>
        <time>2020-01-09T09:50:10Z</time>
      </trkpt>
      <trkpt lat="43.53036" lon="5.31185">
        <ele>155.87</ele>
        <time>2020-01-09T09:50:16Z</time>
      </trkpt>
      <trkpt lat="43.53026" lon="5.31187">
        <ele>157.79</ele>
        <time>2020-01-09T09:50:29Z</time>
      </trkpt>
      <trkpt lat="43.53019" lon="5.31195">
        <ele>158.27</ele>
        <time>2020-01-09T09:50:41Z</time>
      </trkpt>
      <trkpt lat="43.53007" lon="5.312">
        <ele>158.75</ele>
        <time>2020-01-09T09:50:53Z</time>
      </trkpt>
      <trkpt lat="43.52992" lon="5.31207">
        <ele>160.68</ele>
        <time>2020-01-09T09:51:07Z</time>
      </trkpt>
      <trkpt lat="43.52982" lon="5.31228">
        <ele>162.6</ele>
        <time>2020-01-09T09:51:23Z</time>
      </trkpt>
      <trkpt lat="43.52973" lon="5.31239">
        <ele>164.52</ele>
        <time>2020-01-09T09:51:37Z</time>
      </trkpt>
      <trkpt lat="43.52966" lon="5.31246">
        <ele>165.48</ele>
        <time>2020-01-09T09:51:49Z</time>
      </trkpt>
      <trkpt lat="43.52958" lon="5.31251">
        <ele>166.45</ele>
        <time>2020-01-09T09:52:01Z</time>
      </trkpt>
      <trkpt lat="43.52941" lon="5.31255">
        <ele>167.41</ele>
        <time>2020-01-09T09:52:17Z</time>
      </trkpt>
      <trkpt lat="43.52934" lon="5.31273">
        <ele>167.89</ele>
        <time>2020-01-09T09:52:27Z</time>
      </trkpt>
      <trkpt lat="43.52924" lon="5.31293">
        <ele>168.37</ele>
        <time>2020-01-09T09:52:38Z</time>
      </trkpt>
      <trkpt lat="43.52923" lon="5.31294">
        <ele>168.37</ele>
        <time>2020-01-09T09:52:41Z</time>
      </trkpt>
      <trkpt lat="43.52917" lon="5.31302">
        <ele>168.37</ele>
        <time>2020-01-09T09:52:47Z</time>
      </trkpt>
      <trkpt lat="43.52905" lon="5.31307">
        <ele>168.85</ele>
        <time>2020-01-09T09:52:58Z</time>
      </trkpt>
      <trkpt lat="43.52893" lon="5.3131">
        <ele>169.33</ele>
        <time>2020-01-09T09:53:10Z</time>
      </trkpt>
      <trkpt lat="43.52887" lon="5.31307">
        <ele>169.81</ele>
        <time>2020-01-09T09:53:16Z</time>
      </trkpt>
      <trkpt lat="43.52874" lon="5.31305">
        <ele>170.29</ele>
        <time>2020-01-09T09:53:30Z</time>
      </trkpt>
      <trkpt lat="43.52859" lon="5.31302">
        <ele>171.73</ele>
        <time>2020-01-09T09:53:45Z</time>
      </trkpt>
      <trkpt lat="43.52849" lon="5.31303">
        <ele>172.69</ele>
        <time>2020-01-09T09:53:58Z</time>
      </trkpt>
      <trkpt lat="43.52835" lon="5.31303">
        <ele>174.14</ele>
        <time>2020-01-09T09:54:13Z</time>
      </trkpt>
      <trkpt lat="43.52827" lon="5.31305">
        <ele>174.62</ele>
        <time>2020-01-09T09:54:21Z</time>
      </trkpt>
      <trkpt lat="43.52817" lon="5.31306">
        <ele>175.1</ele>
        <time>2020-01-09T09:54:31Z</time>
      </trkpt>
      <trkpt lat="43.52801" lon="5.31306">
        <ele>175.58</ele>
        <time>2020-01-09T09:54:46Z</time>
      </trkpt>
      <trkpt lat="43.52788" lon="5.31309">
        <ele>176.54</ele>
        <time>2020-01-09T09:55:00Z</time>
      </trkpt>
      <trkpt lat="43.52772" lon="5.31311">
        <ele>177.02</ele>
        <time>2020-01-09T09:55:15Z</time>
      </trkpt>
      <trkpt lat="43.52755" lon="5.31313">
        <ele>177.5</ele>
        <time>2020-01-09T09:55:27Z</time>
      </trkpt>
      <trkpt lat="43.52737" lon="5.31315">
        <ele>178.46</ele>
        <time>2020-01-09T09:55:42Z</time>
      </trkpt>
      <trkpt lat="43.52721" lon="5.31321">
        <ele>178.46</ele>
        <time>2020-01-09T09:55:57Z</time>
      </trkpt>
      <trkpt lat="43.52717" lon="5.31323">
        <ele>178.46</ele>
        <time>2020-01-09T09:56:01Z</time>
      </trkpt>
      <trkpt lat="43.5271" lon="5.31322">
        <ele>178.94</ele>
        <time>2020-01-09T09:56:07Z</time>
      </trkpt>
      <trkpt lat="43.52695" lon="5.31325">
        <ele>179.42</ele>
        <time>2020-01-09T09:56:21Z</time>
      </trkpt>
      <trkpt lat="43.52681" lon="5.3133">
        <ele>179.42</ele>
        <time>2020-01-09T09:56:35Z</time>
      </trkpt>
      <trkpt lat="43.52677" lon="5.31332">
        <ele>179.42</ele>
        <time>2020-01-09T09:56:40Z</time>
      </trkpt>
      <trkpt lat="43.52673" lon="5.31333">
        <ele>179.42</ele>
        <time>2020-01-09T09:56:43Z</time>
      </trkpt>
      <trkpt lat="43.52655" lon="5.31343">
        <ele>179.42</ele>
        <time>2020-01-09T09:56:59Z</time>
      </trkpt>
      <trkpt lat="43.52645" lon="5.31345">
        <ele>179.42</ele>
        <time>2020-01-09T09:57:09Z</time>
      </trkpt>
      <trkpt lat="43.5264" lon="5.31346">
        <ele>179.42</ele>
        <time>2020-01-09T09:57:13Z</time>
      </trkpt>
      <trkpt lat="43.52621" lon="5.31349">
        <ele>178.94</ele>
        <time>2020-01-09T09:57:28Z</time>
      </trkpt>
      <trkpt lat="43.52603" lon="5.31353">
        <ele>178.94</ele>
        <time>2020-01-09T09:57:42Z</time>
      </trkpt>
      <trkpt lat="43.52587" lon="5.31361">
        <ele>178.46</ele>
        <time>2020-01-09T09:57:56Z</time>
      </trkpt>
      <trkpt lat="43.52576" lon="5.31367">
        <ele>177.98</ele>
        <time>2020-01-09T09:58:06Z</time>
      </trkpt>
      <trkpt lat="43.5257" lon="5.31371">
        <ele>177.98</ele>
        <time>2020-01-09T09:58:11Z</time>
      </trkpt>
      <trkpt lat="43.52562" lon="5.3138">
        <ele>181.83</ele>
        <time>2020-01-09T09:58:19Z</time>
      </trkpt>
      <trkpt lat="43.52559" lon="5.3138">
        <ele>177.98</ele>
        <time>2020-01-09T09:58:21Z</time>
      </trkpt>
      <trkpt lat="43.52558" lon="5.31381">
        <ele>166.93</ele>
        <time>2020-01-09T09:58:22Z</time>
      </trkpt>
      <trkpt lat="43.52556" lon="5.31382">
        <ele>178.46</ele>
        <time>2020-01-09T09:58:24Z</time>
      </trkpt>
      <trkpt lat="43.52554" lon="5.31383">
        <ele>177.5</ele>
        <time>2020-01-09T09:58:26Z</time>
      </trkpt>
      <trkpt lat="43.52533" lon="5.31383">
        <ele>177.5</ele>
        <time>2020-01-09T09:58:42Z</time>
      </trkpt>
      <trkpt lat="43.52517" lon="5.31388">
        <ele>177.98</ele>
        <time>2020-01-09T09:58:57Z</time>
      </trkpt>
      <trkpt lat="43.52503" lon="5.31393">
        <ele>177.98</ele>
        <time>2020-01-09T09:59:10Z</time>
      </trkpt>
      <trkpt lat="43.52496" lon="5.31396">
        <ele>177.98</ele>
        <time>2020-01-09T09:59:16Z</time>
      </trkpt>
      <trkpt lat="43.52479" lon="5.31398">
        <ele>177.5</ele>
        <time>2020-01-09T09:59:30Z</time>
      </trkpt>
      <trkpt lat="43.52467" lon="5.31403">
        <ele>177.5</ele>
        <time>2020-01-09T09:59:43Z</time>
      </trkpt>
      <trkpt lat="43.52466" lon="5.31403">
        <ele>169.33</ele>
        <time>2020-01-09T09:59:48Z</time>
      </trkpt>
      <trkpt lat="43.52466" lon="5.31403">
        <ele>175.58</ele>
        <time>2020-01-09T09:59:49Z</time>
      </trkpt>
      <trkpt lat="43.52466" lon="5.31403">
        <ele>185.19</ele>
        <time>2020-01-09T09:59:50Z</time>
      </trkpt>
      <trkpt lat="43.52466" lon="5.31403">
        <ele>177.98</ele>
        <time>2020-01-09T09:59:51Z</time>
      </trkpt>
      <trkpt lat="43.52466" lon="5.31403">
        <ele>177.5</ele>
        <time>2020-01-09T10:00:06Z</time>
      </trkpt>
      <trkpt lat="43.52467" lon="5.31402">
        <ele>177.98</ele>
        <time>2020-01-09T10:00:34Z</time>
      </trkpt>
      <trkpt lat="43.52463" lon="5.31401">
        <ele>177.98</ele>
        <time>2020-01-09T10:00:58Z</time>
      </trkpt>
      <trkpt lat="43.52459" lon="5.314">
        <ele>174.62</ele>
        <time>2020-01-09T10:01:02Z</time>
      </trkpt>
      <trkpt lat="43.52457" lon="5.31398">
        <ele>180.38</ele>
        <time>2020-01-09T10:01:04Z</time>
      </trkpt>
      <trkpt lat="43.52456" lon="5.31398">
        <ele>177.98</ele>
        <time>2020-01-09T10:01:05Z</time>
      </trkpt>
      <trkpt lat="43.52452" lon="5.31395">
        <ele>177.5</ele>
        <time>2020-01-09T10:01:11Z</time>
      </trkpt>
      <trkpt lat="43.52447" lon="5.31392">
        <ele>177.5</ele>
        <time>2020-01-09T10:01:16Z</time>
      </trkpt>
      <trkpt lat="43.52442" lon="5.31386">
        <ele>177.02</ele>
        <time>2020-01-09T10:01:24Z</time>
      </trkpt>
      <trkpt lat="43.52437" lon="5.31382">
        <ele>176.54</ele>
        <time>2020-01-09T10:01:30Z</time>
      </trkpt>
      <trkpt lat="43.52428" lon="5.31373">
        <ele>175.58</ele>
        <time>2020-01-09T10:01:41Z</time>
      </trkpt>
      <trkpt lat="43.5242" lon="5.31365">
        <ele>174.62</ele>
        <time>2020-01-09T10:01:52Z</time>
      </trkpt>
      <trkpt lat="43.52408" lon="5.31356">
        <ele>173.17</ele>
        <time>2020-01-09T10:02:06Z</time>
      </trkpt>
      <trkpt lat="43.52401" lon="5.31356">
        <ele>172.21</ele>
        <time>2020-01-09T10:02:15Z</time>
      </trkpt>
      <trkpt lat="43.52385" lon="5.31355">
        <ele>170.29</ele>
        <time>2020-01-09T10:02:32Z</time>
      </trkpt>
      <trkpt lat="43.52369" lon="5.31357">
        <ele>168.85</ele>
        <time>2020-01-09T10:02:48Z</time>
      </trkpt>
      <trkpt lat="43.52354" lon="5.31357">
        <ele>166.93</ele>
        <time>2020-01-09T10:03:02Z</time>
      </trkpt>
      <trkpt lat="43.52348" lon="5.31355">
        <ele>151.54</ele>
        <time>2020-01-09T10:03:11Z</time>
      </trkpt>
      <trkpt lat="43.52347" lon="5.31355">
        <ele>179.42</ele>
        <time>2020-01-09T10:03:12Z</time>
      </trkpt>
      <trkpt lat="43.52346" lon="5.31355">
        <ele>166.93</ele>
        <time>2020-01-09T10:03:13Z</time>
      </trkpt>
      <trkpt lat="43.52344" lon="5.31354">
        <ele>165.96</ele>
        <time>2020-01-09T10:03:15Z</time>
      </trkpt>
      <trkpt lat="43.5233" lon="5.31351">
        <ele>165.96</ele>
        <time>2020-01-09T10:03:32Z</time>
      </trkpt>
      <trkpt lat="43.52327" lon="5.31353">
        <ele>165.96</ele>
        <time>2020-01-09T10:03:35Z</time>
      </trkpt>
      <trkpt lat="43.52316" lon="5.3135">
        <ele>167.41</ele>
        <time>2020-01-09T10:03:49Z</time>
      </trkpt>
      <trkpt lat="43.523" lon="5.31346">
        <ele>168.37</ele>
        <time>2020-01-09T10:04:05Z</time>
      </trkpt>
      <trkpt lat="43.5229" lon="5.31347">
        <ele>169.81</ele>
        <time>2020-01-09T10:04:17Z</time>
      </trkpt>
      <trkpt lat="43.52273" lon="5.31342">
        <ele>170.29</ele>
        <time>2020-01-09T10:04:34Z</time>
      </trkpt>
      <trkpt lat="43.5226" lon="5.31344">
        <ele>170.29</ele>
        <time>2020-01-09T10:04:49Z</time>
      </trkpt>
      <trkpt lat="43.52252" lon="5.31344">
        <ele>170.29</ele>
        <time>2020-01-09T10:05:02Z</time>
      </trkpt>
      <trkpt lat="43.5225" lon="5.31344">
        <ele>170.29</ele>
        <time>2020-01-09T10:05:04Z</time>
      </trkpt>
      <trkpt lat="43.52248" lon="5.31344">
        <ele>170.29</ele>
        <time>2020-01-09T10:05:07Z</time>
      </trkpt>
      <trkpt lat="43.5224" lon="5.31346">
        <ele>170.77</ele>
        <time>2020-01-09T10:05:16Z</time>
      </trkpt>
      <trkpt lat="43.52235" lon="5.31346">
        <ele>170.77</ele>
        <time>2020-01-09T10:05:21Z</time>
      </trkpt>
      <trkpt lat="43.52231" lon="5.31347">
        <ele>170.77</ele>
        <time>2020-01-09T10:05:24Z</time>
      </trkpt>
      <trkpt lat="43.52216" lon="5.31347">
        <ele>170.77</ele>
        <time>2020-01-09T10:05:38Z</time>
      </trkpt>
      <trkpt lat="43.52203" lon="5.31351">
        <ele>170.77</ele>
        <time>2020-01-09T10:05:52Z</time>
      </trkpt>
      <trkpt lat="43.52185" lon="5.31359">
        <ele>170.77</ele>
        <time>2020-01-09T10:06:08Z</time>
      </trkpt>
      <trkpt lat="43.52175" lon="5.31359">
        <ele>170.29</ele>
        <time>2020-01-09T10:06:17Z</time>
      </trkpt>
      <trkpt lat="43.52157" lon="5.31355">
        <ele>169.33</ele>
        <time>2020-01-09T10:06:34Z</time>
      </trkpt>
      <trkpt lat="43.52138" lon="5.31363">
        <ele>169.33</ele>
        <time>2020-01-09T10:06:52Z</time>
      </trkpt>
      <trkpt lat="43.52121" lon="5.31367">
        <ele>169.33</ele>
        <time>2020-01-09T10:07:08Z</time>
      </trkpt>
      <trkpt lat="43.52105" lon="5.31362">
        <ele>168.85</ele>
        <time>2020-01-09T10:07:24Z</time>
      </trkpt>
      <trkpt lat="43.52087" lon="5.31359">
        <ele>168.37</ele>
        <time>2020-01-09T10:07:40Z</time>
      </trkpt>
      <trkpt lat="43.52072" lon="5.31357">
        <ele>168.37</ele>
        <time>2020-01-09T10:07:55Z</time>
      </trkpt>
      <trkpt lat="43.52053" lon="5.31354">
        <ele>168.85</ele>
        <time>2020-01-09T10:08:13Z</time>
      </trkpt>
      <trkpt lat="43.52048" lon="5.31356">
        <ele>169.33</ele>
        <time>2020-01-09T10:08:27Z</time>
      </trkpt>
      <trkpt lat="43.52044" lon="5.31356">
        <ele>169.33</ele>
        <time>2020-01-09T10:08:32Z</time>
      </trkpt>
      <trkpt lat="43.52037" lon="5.31356">
        <ele>169.81</ele>
        <time>2020-01-09T10:08:41Z</time>
      </trkpt>
      <trkpt lat="43.52024" lon="5.31365">
        <ele>169.33</ele>
        <time>2020-01-09T10:08:57Z</time>
      </trkpt>
      <trkpt lat="43.52011" lon="5.31374">
        <ele>170.29</ele>
        <time>2020-01-09T10:09:13Z</time>
      </trkpt>
      <trkpt lat="43.52004" lon="5.31389">
        <ele>170.77</ele>
        <time>2020-01-09T10:09:26Z</time>
      </trkpt>
      <trkpt lat="43.52001" lon="5.3139">
        <ele>170.77</ele>
        <time>2020-01-09T10:09:29Z</time>
      </trkpt>
      <trkpt lat="43.51992" lon="5.31391">
        <ele>170.77</ele>
        <time>2020-01-09T10:09:42Z</time>
      </trkpt>
      <trkpt lat="43.51981" lon="5.3138">
        <ele>170.77</ele>
        <time>2020-01-09T10:09:58Z</time>
      </trkpt>
      <trkpt lat="43.51975" lon="5.31375">
        <ele>170.77</ele>
        <time>2020-01-09T10:10:11Z</time>
      </trkpt>
      <trkpt lat="43.51969" lon="5.31368">
        <ele>170.77</ele>
        <time>2020-01-09T10:10:24Z</time>
      </trkpt>
      <trkpt lat="43.51969" lon="5.31367">
        <ele>170.77</ele>
        <time>2020-01-09T10:10:25Z</time>
      </trkpt>
      <trkpt lat="43.51967" lon="5.31363">
        <ele>170.29</ele>
        <time>2020-01-09T10:10:28Z</time>
      </trkpt>
      <trkpt lat="43.51965" lon="5.31361">
        <ele>170.77</ele>
        <time>2020-01-09T10:10:31Z</time>
      </trkpt>
      <trkpt lat="43.51962" lon="5.31359">
        <ele>170.77</ele>
        <time>2020-01-09T10:10:34Z</time>
      </trkpt>
      <trkpt lat="43.51959" lon="5.31358">
        <ele>170.77</ele>
        <time>2020-01-09T10:10:37Z</time>
      </trkpt>
      <trkpt lat="43.51954" lon="5.31353">
        <ele>170.77</ele>
        <time>2020-01-09T10:10:44Z</time>
      </trkpt>
      <trkpt lat="43.51943" lon="5.31348">
        <ele>170.77</ele>
        <time>2020-01-09T10:10:56Z</time>
      </trkpt>
      <trkpt lat="43.5193" lon="5.31344">
        <ele>170.77</ele>
        <time>2020-01-09T10:11:10Z</time>
      </trkpt>
      <trkpt lat="43.51917" lon="5.3134">
        <ele>171.25</ele>
        <time>2020-01-09T10:11:25Z</time>
      </trkpt>
      <trkpt lat="43.51902" lon="5.31334">
        <ele>171.25</ele>
        <time>2020-01-09T10:11:42Z</time>
      </trkpt>
      <trkpt lat="43.51892" lon="5.31335">
        <ele>171.25</ele>
        <time>2020-01-09T10:11:52Z</time>
      </trkpt>
      <trkpt lat="43.51888" lon="5.31335">
        <ele>171.25</ele>
        <time>2020-01-09T10:11:56Z</time>
      </trkpt>
      <trkpt lat="43.51887" lon="5.31335">
        <ele>170.77</ele>
        <time>2020-01-09T10:11:58Z</time>
      </trkpt>
      <trkpt lat="43.5188" lon="5.31333">
        <ele>171.25</ele>
        <time>2020-01-09T10:12:06Z</time>
      </trkpt>
      <trkpt lat="43.51866" lon="5.31334">
        <ele>170.29</ele>
        <time>2020-01-09T10:12:22Z</time>
      </trkpt>
      <trkpt lat="43.51856" lon="5.31328">
        <ele>169.81</ele>
        <time>2020-01-09T10:12:36Z</time>
      </trkpt>
      <trkpt lat="43.51852" lon="5.3132">
        <ele>169.81</ele>
        <time>2020-01-09T10:12:51Z</time>
      </trkpt>
      <trkpt lat="43.5185" lon="5.31318">
        <ele>169.81</ele>
        <time>2020-01-09T10:13:07Z</time>
      </trkpt>
      <trkpt lat="43.5185" lon="5.31318">
        <ele>169.81</ele>
        <time>2020-01-09T10:13:32Z</time>
      </trkpt>
      <trkpt lat="43.51851" lon="5.31319">
        <ele>170.29</ele>
        <time>2020-01-09T10:13:46Z</time>
      </trkpt>
      <trkpt lat="43.51852" lon="5.31316">
        <ele>170.29</ele>
        <time>2020-01-09T10:13:56Z</time>
      </trkpt>
      <trkpt lat="43.51853" lon="5.31313">
        <ele>170.77</ele>
        <time>2020-01-09T10:14:13Z</time>
      </trkpt>
      <trkpt lat="43.51854" lon="5.3131">
        <ele>170.77</ele>
        <time>2020-01-09T10:14:27Z</time>
      </trkpt>
      <trkpt lat="43.51855" lon="5.31309">
        <ele>171.25</ele>
        <time>2020-01-09T10:14:44Z</time>
      </trkpt>
      <trkpt lat="43.51857" lon="5.31305">
        <ele>171.73</ele>
        <time>2020-01-09T10:14:56Z</time>
      </trkpt>
      <trkpt lat="43.51857" lon="5.31291">
        <ele>172.21</ele>
        <time>2020-01-09T10:15:12Z</time>
      </trkpt>
      <trkpt lat="43.5185" lon="5.31281">
        <ele>171.25</ele>
        <time>2020-01-09T10:15:24Z</time>
      </trkpt>
      <trkpt lat="43.51845" lon="5.31272">
        <ele>171.25</ele>
        <time>2020-01-09T10:15:38Z</time>
      </trkpt>
      <trkpt lat="43.51846" lon="5.31271">
        <ele>171.73</ele>
        <time>2020-01-09T10:16:01Z</time>
      </trkpt>
      <trkpt lat="43.51847" lon="5.31272">
        <ele>171.73</ele>
        <time>2020-01-09T10:16:16Z</time>
      </trkpt>
      <trkpt lat="43.51847" lon="5.31272">
        <ele>172.21</ele>
        <time>2020-01-09T10:16:32Z</time>
      </trkpt>
      <trkpt lat="43.51847" lon="5.31273">
        <ele>172.21</ele>
        <time>2020-01-09T10:16:55Z</time>
      </trkpt>
      <trkpt lat="43.51847" lon="5.31272">
        <ele>172.69</ele>
        <time>2020-01-09T10:17:12Z</time>
      </trkpt>
      <trkpt lat="43.51847" lon="5.31274">
        <ele>172.69</ele>
        <time>2020-01-09T10:17:30Z</time>
      </trkpt>
      <trkpt lat="43.51848" lon="5.31274">
        <ele>172.69</ele>
        <time>2020-01-09T10:17:53Z</time>
      </trkpt>
      <trkpt lat="43.51848" lon="5.31274">
        <ele>173.17</ele>
        <time>2020-01-09T10:18:16Z</time>
      </trkpt>
      <trkpt lat="43.51849" lon="5.31274">
        <ele>173.66</ele>
        <time>2020-01-09T10:18:43Z</time>
      </trkpt>
      <trkpt lat="43.51848" lon="5.31273">
        <ele>173.17</ele>
        <time>2020-01-09T10:18:58Z</time>
      </trkpt>
      <trkpt lat="43.51847" lon="5.31272">
        <ele>172.69</ele>
        <time>2020-01-09T10:19:22Z</time>
      </trkpt>
      <trkpt lat="43.51847" lon="5.31272">
        <ele>172.69</ele>
        <time>2020-01-09T10:19:52Z</time>
      </trkpt>
      <trkpt lat="43.51847" lon="5.31272">
        <ele>173.17</ele>
        <time>2020-01-09T10:20:18Z</time>
      </trkpt>
      <trkpt lat="43.51846" lon="5.31272">
        <ele>173.17</ele>
        <time>2020-01-09T10:20:49Z</time>
      </trkpt>
      <trkpt lat="43.51846" lon="5.31271">
        <ele>173.66</ele>
        <time>2020-01-09T10:21:23Z</time>
      </trkpt>
      <trkpt lat="43.51846" lon="5.31271">
        <ele>173.66</ele>
        <time>2020-01-09T10:21:56Z</time>
      </trkpt>
      <trkpt lat="43.51846" lon="5.31272">
        <ele>174.14</ele>
        <time>2020-01-09T10:22:30Z</time>
      </trkpt>
      <trkpt lat="43.51846" lon="5.31272">
        <ele>174.14</ele>
        <time>2020-01-09T10:23:00Z</time>
      </trkpt>
      <trkpt lat="43.51846" lon="5.31272">
        <ele>174.14</ele>
        <time>2020-01-09T10:23:31Z</time>
      </trkpt>
      <trkpt lat="43.51846" lon="5.31272">
        <ele>174.62</ele>
        <time>2020-01-09T10:23:55Z</time>
      </trkpt>
      <trkpt lat="43.51846" lon="5.31272">
        <ele>175.1</ele>
        <time>2020-01-09T10:24:23Z</time>
      </trkpt>
      <trkpt lat="43.51847" lon="5.31272">
        <ele>176.06</ele>
        <time>2020-01-09T10:24:47Z</time>
      </trkpt>
      <trkpt lat="43.51847" lon="5.31273">
        <ele>176.06</ele>
        <time>2020-01-09T10:25:04Z</time>
      </trkpt>
      <trkpt lat="43.51847" lon="5.31273">
        <ele>171.73</ele>
        <time>2020-01-09T10:25:12Z</time>
      </trkpt>
      <trkpt lat="43.51847" lon="5.31273">
        <ele>175.1</ele>
        <time>2020-01-09T10:25:13Z</time>
      </trkpt>
      <trkpt lat="43.51847" lon="5.31272">
        <ele>178.94</ele>
        <time>2020-01-09T10:25:14Z</time>
      </trkpt>
      <trkpt lat="43.51847" lon="5.31272">
        <ele>177.98</ele>
        <time>2020-01-09T10:25:15Z</time>
      </trkpt>
      <trkpt lat="43.51847" lon="5.31273">
        <ele>176.54</ele>
        <time>2020-01-09T10:25:17Z</time>
      </trkpt>
      <trkpt lat="43.51848" lon="5.31273">
        <ele>176.54</ele>
        <time>2020-01-09T10:25:36Z</time>
      </trkpt>
      <trkpt lat="43.5185" lon="5.31282">
        <ele>176.54</ele>
        <time>2020-01-09T10:25:52Z</time>
      </trkpt>
      <trkpt lat="43.51857" lon="5.31288">
        <ele>177.5</ele>
        <time>2020-01-09T10:26:07Z</time>
      </trkpt>
      <trkpt lat="43.51857" lon="5.31296">
        <ele>177.98</ele>
        <time>2020-01-09T10:26:20Z</time>
      </trkpt>
      <trkpt lat="43.51856" lon="5.31299">
        <ele>177.98</ele>
        <time>2020-01-09T10:26:23Z</time>
      </trkpt>
      <trkpt lat="43.51853" lon="5.31312">
        <ele>177.5</ele>
        <time>2020-01-09T10:26:36Z</time>
      </trkpt>
      <trkpt lat="43.51856" lon="5.31328">
        <ele>177.02</ele>
        <time>2020-01-09T10:26:50Z</time>
      </trkpt>
      <trkpt lat="43.51862" lon="5.31339">
        <ele>177.02</ele>
        <time>2020-01-09T10:27:02Z</time>
      </trkpt>
      <trkpt lat="43.51869" lon="5.31344">
        <ele>172.21</ele>
        <time>2020-01-09T10:27:14Z</time>
      </trkpt>
      <trkpt lat="43.51869" lon="5.31345">
        <ele>180.87</ele>
        <time>2020-01-09T10:27:15Z</time>
      </trkpt>
      <trkpt lat="43.51871" lon="5.31347">
        <ele>177.5</ele>
        <time>2020-01-09T10:27:17Z</time>
      </trkpt>
      <trkpt lat="43.51871" lon="5.31347">
        <ele>177.5</ele>
        <time>2020-01-09T10:27:18Z</time>
      </trkpt>
      <trkpt lat="43.51874" lon="5.31357">
        <ele>177.02</ele>
        <time>2020-01-09T10:27:31Z</time>
      </trkpt>
      <trkpt lat="43.51876" lon="5.31359">
        <ele>177.02</ele>
        <time>2020-01-09T10:27:45Z</time>
      </trkpt>
      <trkpt lat="43.51874" lon="5.31354">
        <ele>177.5</ele>
        <time>2020-01-09T10:27:58Z</time>
      </trkpt>
      <trkpt lat="43.51874" lon="5.31357">
        <ele>177.5</ele>
        <time>2020-01-09T10:28:01Z</time>
      </trkpt>
      <trkpt lat="43.51877" lon="5.31362">
        <ele>177.5</ele>
        <time>2020-01-09T10:28:16Z</time>
      </trkpt>
      <trkpt lat="43.51877" lon="5.31364">
        <ele>177.5</ele>
        <time>2020-01-09T10:28:18Z</time>
      </trkpt>
      <trkpt lat="43.51882" lon="5.31371">
        <ele>177.5</ele>
        <time>2020-01-09T10:28:32Z</time>
      </trkpt>
      <trkpt lat="43.51882" lon="5.31385">
        <ele>177.02</ele>
        <time>2020-01-09T10:28:45Z</time>
      </trkpt>
      <trkpt lat="43.51882" lon="5.31391">
        <ele>176.54</ele>
        <time>2020-01-09T10:29:00Z</time>
      </trkpt>
      <trkpt lat="43.51883" lon="5.31393">
        <ele>176.06</ele>
        <time>2020-01-09T10:29:25Z</time>
      </trkpt>
      <trkpt lat="43.51883" lon="5.31393">
        <ele>180.87</ele>
        <time>2020-01-09T10:29:26Z</time>
      </trkpt>
      <trkpt lat="43.51883" lon="5.31393">
        <ele>176.54</ele>
        <time>2020-01-09T10:29:27Z</time>
      </trkpt>
      <trkpt lat="43.51883" lon="5.31393">
        <ele>177.98</ele>
        <time>2020-01-09T10:29:32Z</time>
      </trkpt>
      <trkpt lat="43.51884" lon="5.31393">
        <ele>174.62</ele>
        <time>2020-01-09T10:29:36Z</time>
      </trkpt>
      <trkpt lat="43.51884" lon="5.31393">
        <ele>178.94</ele>
        <time>2020-01-09T10:29:37Z</time>
      </trkpt>
      <trkpt lat="43.51884" lon="5.31393">
        <ele>171.73</ele>
        <time>2020-01-09T10:29:39Z</time>
      </trkpt>
      <trkpt lat="43.51884" lon="5.31393">
        <ele>181.83</ele>
        <time>2020-01-09T10:29:40Z</time>
      </trkpt>
      <trkpt lat="43.51884" lon="5.31393">
        <ele>177.5</ele>
        <time>2020-01-09T10:29:41Z</time>
      </trkpt>
      <trkpt lat="43.51884" lon="5.31394">
        <ele>177.02</ele>
        <time>2020-01-09T10:29:55Z</time>
      </trkpt>
      <trkpt lat="43.51888" lon="5.31395">
        <ele>177.98</ele>
        <time>2020-01-09T10:30:07Z</time>
      </trkpt>
      <trkpt lat="43.51889" lon="5.31399">
        <ele>178.46</ele>
        <time>2020-01-09T10:30:21Z</time>
      </trkpt>
      <trkpt lat="43.51887" lon="5.314">
        <ele>177.98</ele>
        <time>2020-01-09T10:30:23Z</time>
      </trkpt>
      <trkpt lat="43.51878" lon="5.31418">
        <ele>175.58</ele>
        <time>2020-01-09T10:30:37Z</time>
      </trkpt>
      <trkpt lat="43.51877" lon="5.31418">
        <ele>175.58</ele>
        <time>2020-01-09T10:30:38Z</time>
      </trkpt>
      <trkpt lat="43.51877" lon="5.31424">
        <ele>175.1</ele>
        <time>2020-01-09T10:30:48Z</time>
      </trkpt>
      <trkpt lat="43.51882" lon="5.31431">
        <ele>177.02</ele>
        <time>2020-01-09T10:31:01Z</time>
      </trkpt>
      <trkpt lat="43.51881" lon="5.3144">
        <ele>176.54</ele>
        <time>2020-01-09T10:31:13Z</time>
      </trkpt>
      <trkpt lat="43.51885" lon="5.3143">
        <ele>177.5</ele>
        <time>2020-01-09T10:31:24Z</time>
      </trkpt>
      <trkpt lat="43.51891" lon="5.31425">
        <ele>178.46</ele>
        <time>2020-01-09T10:31:36Z</time>
      </trkpt>
      <trkpt lat="43.51897" lon="5.31424">
        <ele>179.9</ele>
        <time>2020-01-09T10:31:48Z</time>
      </trkpt>
      <trkpt lat="43.51902" lon="5.3143">
        <ele>181.35</ele>
        <time>2020-01-09T10:31:59Z</time>
      </trkpt>
      <trkpt lat="43.51912" lon="5.31438">
        <ele>181.35</ele>
        <time>2020-01-09T10:32:12Z</time>
      </trkpt>
      <trkpt lat="43.51913" lon="5.31439">
        <ele>181.35</ele>
        <time>2020-01-09T10:32:14Z</time>
      </trkpt>
      <trkpt lat="43.51916" lon="5.3144">
        <ele>181.83</ele>
        <time>2020-01-09T10:32:17Z</time>
      </trkpt>
      <trkpt lat="43.51936" lon="5.31439">
        <ele>182.79</ele>
        <time>2020-01-09T10:32:35Z</time>
      </trkpt>
      <trkpt lat="43.51937" lon="5.31439">
        <ele>169.81</ele>
        <time>2020-01-09T10:32:36Z</time>
      </trkpt>
      <trkpt lat="43.51938" lon="5.31437">
        <ele>193.84</ele>
        <time>2020-01-09T10:32:37Z</time>
      </trkpt>
      <trkpt lat="43.51939" lon="5.31436">
        <ele>184.23</ele>
        <time>2020-01-09T10:32:38Z</time>
      </trkpt>
      <trkpt lat="43.51941" lon="5.31435">
        <ele>182.79</ele>
        <time>2020-01-09T10:32:40Z</time>
      </trkpt>
      <trkpt lat="43.51946" lon="5.31434">
        <ele>182.79</ele>
        <time>2020-01-09T10:32:44Z</time>
      </trkpt>
      <trkpt lat="43.51958" lon="5.31443">
        <ele>182.79</ele>
        <time>2020-01-09T10:32:57Z</time>
      </trkpt>
      <trkpt lat="43.51966" lon="5.31447">
        <ele>183.27</ele>
        <time>2020-01-09T10:33:05Z</time>
      </trkpt>
      <trkpt lat="43.51969" lon="5.31447">
        <ele>183.27</ele>
        <time>2020-01-09T10:33:07Z</time>
      </trkpt>
      <trkpt lat="43.51977" lon="5.3145">
        <ele>175.58</ele>
        <time>2020-01-09T10:33:15Z</time>
      </trkpt>
      <trkpt lat="43.51978" lon="5.3145">
        <ele>185.67</ele>
        <time>2020-01-09T10:33:16Z</time>
      </trkpt>
      <trkpt lat="43.51989" lon="5.31452">
        <ele>183.27</ele>
        <time>2020-01-09T10:33:26Z</time>
      </trkpt>
      <trkpt lat="43.51994" lon="5.31457">
        <ele>183.27</ele>
        <time>2020-01-09T10:33:33Z</time>
      </trkpt>
      <trkpt lat="43.51996" lon="5.31466">
        <ele>182.79</ele>
        <time>2020-01-09T10:33:40Z</time>
      </trkpt>
      <trkpt lat="43.52008" lon="5.31478">
        <ele>181.83</ele>
        <time>2020-01-09T10:33:56Z</time>
      </trkpt>
      <trkpt lat="43.52009" lon="5.31482">
        <ele>181.83</ele>
        <time>2020-01-09T10:34:09Z</time>
      </trkpt>
      <trkpt lat="43.52009" lon="5.3148">
        <ele>181.83</ele>
        <time>2020-01-09T10:34:11Z</time>
      </trkpt>
      <trkpt lat="43.52009" lon="5.31474">
        <ele>182.31</ele>
        <time>2020-01-09T10:34:22Z</time>
      </trkpt>
      <trkpt lat="43.5201" lon="5.31467">
        <ele>182.31</ele>
        <time>2020-01-09T10:34:29Z</time>
      </trkpt>
      <trkpt lat="43.52012" lon="5.3146">
        <ele>177.5</ele>
        <time>2020-01-09T10:34:39Z</time>
      </trkpt>
      <trkpt lat="43.52012" lon="5.31459">
        <ele>189.04</ele>
        <time>2020-01-09T10:34:40Z</time>
      </trkpt>
      <trkpt lat="43.52012" lon="5.31459">
        <ele>184.71</ele>
        <time>2020-01-09T10:34:41Z</time>
      </trkpt>
      <trkpt lat="43.52013" lon="5.31457">
        <ele>183.27</ele>
        <time>2020-01-09T10:34:43Z</time>
      </trkpt>
      <trkpt lat="43.52014" lon="5.31452">
        <ele>182.79</ele>
        <time>2020-01-09T10:34:50Z</time>
      </trkpt>
      <trkpt lat="43.52013" lon="5.31454">
        <ele>182.31</ele>
        <time>2020-01-09T10:34:56Z</time>
      </trkpt>
      <trkpt lat="43.52013" lon="5.31455">
        <ele>186.15</ele>
        <time>2020-01-09T10:34:57Z</time>
      </trkpt>
      <trkpt lat="43.52013" lon="5.31458">
        <ele>183.27</ele>
        <time>2020-01-09T10:35:00Z</time>
      </trkpt>
      <trkpt lat="43.52012" lon="5.31461">
        <ele>182.79</ele>
        <time>2020-01-09T10:35:03Z</time>
      </trkpt>
      <trkpt lat="43.52014" lon="5.31466">
        <ele>182.79</ele>
        <time>2020-01-09T10:35:08Z</time>
      </trkpt>
      <trkpt lat="43.52019" lon="5.31467">
        <ele>175.1</ele>
        <time>2020-01-09T10:35:13Z</time>
      </trkpt>
      <trkpt lat="43.52019" lon="5.31468">
        <ele>187.11</ele>
        <time>2020-01-09T10:35:14Z</time>
      </trkpt>
      <trkpt lat="43.5202" lon="5.31468">
        <ele>180.87</ele>
        <time>2020-01-09T10:35:15Z</time>
      </trkpt>
      <trkpt lat="43.52021" lon="5.31469">
        <ele>186.15</ele>
        <time>2020-01-09T10:35:16Z</time>
      </trkpt>
      <trkpt lat="43.52022" lon="5.3147">
        <ele>182.79</ele>
        <time>2020-01-09T10:35:18Z</time>
      </trkpt>
      <trkpt lat="43.52026" lon="5.31476">
        <ele>182.79</ele>
        <time>2020-01-09T10:35:27Z</time>
      </trkpt>
      <trkpt lat="43.52027" lon="5.31476">
        <ele>175.58</ele>
        <time>2020-01-09T10:35:28Z</time>
      </trkpt>
      <trkpt lat="43.52027" lon="5.31477">
        <ele>187.59</ele>
        <time>2020-01-09T10:35:29Z</time>
      </trkpt>
      <trkpt lat="43.52027" lon="5.31478">
        <ele>182.79</ele>
        <time>2020-01-09T10:35:30Z</time>
      </trkpt>
      <trkpt lat="43.52032" lon="5.31486">
        <ele>181.83</ele>
        <time>2020-01-09T10:35:41Z</time>
      </trkpt>
      <trkpt lat="43.52038" lon="5.31491">
        <ele>181.35</ele>
        <time>2020-01-09T10:35:52Z</time>
      </trkpt>
      <trkpt lat="43.52044" lon="5.31499">
        <ele>178.46</ele>
        <time>2020-01-09T10:36:08Z</time>
      </trkpt>
      <trkpt lat="43.52049" lon="5.31505">
        <ele>176.06</ele>
        <time>2020-01-09T10:36:21Z</time>
      </trkpt>
      <trkpt lat="43.52055" lon="5.31511">
        <ele>174.14</ele>
        <time>2020-01-09T10:36:33Z</time>
      </trkpt>
      <trkpt lat="43.52056" lon="5.31511">
        <ele>161.16</ele>
        <time>2020-01-09T10:36:34Z</time>
      </trkpt>
      <trkpt lat="43.52057" lon="5.31511">
        <ele>183.27</ele>
        <time>2020-01-09T10:36:35Z</time>
      </trkpt>
      <trkpt lat="43.52058" lon="5.31511">
        <ele>174.62</ele>
        <time>2020-01-09T10:36:36Z</time>
      </trkpt>
      <trkpt lat="43.52059" lon="5.3151">
        <ele>173.66</ele>
        <time>2020-01-09T10:36:38Z</time>
      </trkpt>
      <trkpt lat="43.52063" lon="5.31513">
        <ele>172.69</ele>
        <time>2020-01-09T10:36:46Z</time>
      </trkpt>
      <trkpt lat="43.52069" lon="5.31514">
        <ele>171.73</ele>
        <time>2020-01-09T10:36:52Z</time>
      </trkpt>
      <trkpt lat="43.52076" lon="5.3152">
        <ele>170.29</ele>
        <time>2020-01-09T10:37:01Z</time>
      </trkpt>
      <trkpt lat="43.5209" lon="5.31526">
        <ele>167.89</ele>
        <time>2020-01-09T10:37:16Z</time>
      </trkpt>
      <trkpt lat="43.52102" lon="5.31528">
        <ele>166.93</ele>
        <time>2020-01-09T10:37:29Z</time>
      </trkpt>
      <trkpt lat="43.52105" lon="5.31529">
        <ele>166.45</ele>
        <time>2020-01-09T10:37:31Z</time>
      </trkpt>
      <trkpt lat="43.52117" lon="5.31532">
        <ele>166.45</ele>
        <time>2020-01-09T10:37:42Z</time>
      </trkpt>
      <trkpt lat="43.52124" lon="5.31533">
        <ele>161.16</ele>
        <time>2020-01-09T10:37:49Z</time>
      </trkpt>
      <trkpt lat="43.52124" lon="5.31533">
        <ele>166.93</ele>
        <time>2020-01-09T10:37:50Z</time>
      </trkpt>
      <trkpt lat="43.52124" lon="5.31533">
        <ele>156.83</ele>
        <time>2020-01-09T10:37:54Z</time>
      </trkpt>
      <trkpt lat="43.52124" lon="5.31533">
        <ele>175.58</ele>
        <time>2020-01-09T10:37:55Z</time>
      </trkpt>
      <trkpt lat="43.52126" lon="5.31533">
        <ele>166.45</ele>
        <time>2020-01-09T10:37:58Z</time>
      </trkpt>
      <trkpt lat="43.52127" lon="5.31533">
        <ele>166.45</ele>
        <time>2020-01-09T10:37:59Z</time>
      </trkpt>
      <trkpt lat="43.52136" lon="5.31543">
        <ele>165.48</ele>
        <time>2020-01-09T10:38:12Z</time>
      </trkpt>
      <trkpt lat="43.52139" lon="5.31554">
        <ele>162.6</ele>
        <time>2020-01-09T10:38:26Z</time>
      </trkpt>
      <trkpt lat="43.52134" lon="5.31562">
        <ele>160.68</ele>
        <time>2020-01-09T10:38:39Z</time>
      </trkpt>
      <trkpt lat="43.52136" lon="5.31576">
        <ele>160.68</ele>
        <time>2020-01-09T10:38:51Z</time>
      </trkpt>
      <trkpt lat="43.52136" lon="5.31578">
        <ele>160.68</ele>
        <time>2020-01-09T10:38:53Z</time>
      </trkpt>
      <trkpt lat="43.52135" lon="5.31587">
        <ele>160.68</ele>
        <time>2020-01-09T10:39:00Z</time>
      </trkpt>
      <trkpt lat="43.52132" lon="5.31602">
        <ele>161.16</ele>
        <time>2020-01-09T10:39:14Z</time>
      </trkpt>
      <trkpt lat="43.52134" lon="5.31602">
        <ele>161.16</ele>
        <time>2020-01-09T10:39:32Z</time>
      </trkpt>
      <trkpt lat="43.52133" lon="5.31605">
        <ele>161.16</ele>
        <time>2020-01-09T10:39:34Z</time>
      </trkpt>
      <trkpt lat="43.52129" lon="5.31611">
        <ele>161.16</ele>
        <time>2020-01-09T10:39:49Z</time>
      </trkpt>
      <trkpt lat="43.52129" lon="5.31617">
        <ele>161.16</ele>
        <time>2020-01-09T10:40:11Z</time>
      </trkpt>
      <trkpt lat="43.5213" lon="5.31623">
        <ele>161.64</ele>
        <time>2020-01-09T10:40:15Z</time>
      </trkpt>
      <trkpt lat="43.52134" lon="5.31645">
        <ele>161.64</ele>
        <time>2020-01-09T10:40:29Z</time>
      </trkpt>
      <trkpt lat="43.52138" lon="5.31665">
        <ele>161.64</ele>
        <time>2020-01-09T10:40:44Z</time>
      </trkpt>
      <trkpt lat="43.52146" lon="5.31679">
        <ele>161.64</ele>
        <time>2020-01-09T10:40:56Z</time>
      </trkpt>
      <trkpt lat="43.52157" lon="5.31683">
        <ele>161.64</ele>
        <time>2020-01-09T10:41:06Z</time>
      </trkpt>
      <trkpt lat="43.52173" lon="5.31684">
        <ele>162.12</ele>
        <time>2020-01-09T10:41:21Z</time>
      </trkpt>
      <trkpt lat="43.52191" lon="5.31682">
        <ele>162.12</ele>
        <time>2020-01-09T10:41:38Z</time>
      </trkpt>
      <trkpt lat="43.52197" lon="5.31682">
        <ele>162.12</ele>
        <time>2020-01-09T10:41:44Z</time>
      </trkpt>
      <trkpt lat="43.52204" lon="5.31681">
        <ele>162.12</ele>
        <time>2020-01-09T10:41:51Z</time>
      </trkpt>
      <trkpt lat="43.52214" lon="5.31682">
        <ele>162.12</ele>
        <time>2020-01-09T10:42:00Z</time>
      </trkpt>
      <trkpt lat="43.52227" lon="5.31685">
        <ele>151.06</ele>
        <time>2020-01-09T10:42:12Z</time>
      </trkpt>
      <trkpt lat="43.52228" lon="5.31685">
        <ele>166.93</ele>
        <time>2020-01-09T10:42:13Z</time>
      </trkpt>
      <trkpt lat="43.52232" lon="5.31686">
        <ele>163.08</ele>
        <time>2020-01-09T10:42:16Z</time>
      </trkpt>
      <trkpt lat="43.52235" lon="5.31687">
        <ele>159.72</ele>
        <time>2020-01-09T10:42:20Z</time>
      </trkpt>
      <trkpt lat="43.52236" lon="5.31686">
        <ele>160.68</ele>
        <time>2020-01-09T10:42:21Z</time>
      </trkpt>
      <trkpt lat="43.52236" lon="5.31686">
        <ele>167.41</ele>
        <time>2020-01-09T10:42:22Z</time>
      </trkpt>
      <trkpt lat="43.52236" lon="5.31686">
        <ele>157.79</ele>
        <time>2020-01-09T10:42:23Z</time>
      </trkpt>
      <trkpt lat="43.52236" lon="5.31686">
        <ele>162.6</ele>
        <time>2020-01-09T10:42:24Z</time>
      </trkpt>
      <trkpt lat="43.52236" lon="5.31686">
        <ele>166.93</ele>
        <time>2020-01-09T10:42:25Z</time>
      </trkpt>
      <trkpt lat="43.52236" lon="5.31686">
        <ele>163.56</ele>
        <time>2020-01-09T10:42:26Z</time>
      </trkpt>
      <trkpt lat="43.52237" lon="5.31687">
        <ele>157.31</ele>
        <time>2020-01-09T10:42:27Z</time>
      </trkpt>
      <trkpt lat="43.52238" lon="5.31689">
        <ele>166.93</ele>
        <time>2020-01-09T10:42:28Z</time>
      </trkpt>
      <trkpt lat="43.52238" lon="5.3169">
        <ele>163.08</ele>
        <time>2020-01-09T10:42:29Z</time>
      </trkpt>
      <trkpt lat="43.52243" lon="5.31696">
        <ele>162.6</ele>
        <time>2020-01-09T10:42:35Z</time>
      </trkpt>
      <trkpt lat="43.52256" lon="5.31712">
        <ele>155.39</ele>
        <time>2020-01-09T10:42:49Z</time>
      </trkpt>
      <trkpt lat="43.52257" lon="5.31713">
        <ele>168.37</ele>
        <time>2020-01-09T10:42:50Z</time>
      </trkpt>
      <trkpt lat="43.52258" lon="5.31714">
        <ele>163.56</ele>
        <time>2020-01-09T10:42:51Z</time>
      </trkpt>
      <trkpt lat="43.5226" lon="5.31718">
        <ele>163.08</ele>
        <time>2020-01-09T10:42:55Z</time>
      </trkpt>
      <trkpt lat="43.52262" lon="5.31723">
        <ele>163.08</ele>
        <time>2020-01-09T10:42:58Z</time>
      </trkpt>
      <trkpt lat="43.52275" lon="5.31732">
        <ele>163.08</ele>
        <time>2020-01-09T10:43:13Z</time>
      </trkpt>
      <trkpt lat="43.52277" lon="5.31733">
        <ele>163.08</ele>
        <time>2020-01-09T10:43:15Z</time>
      </trkpt>
      <trkpt lat="43.52278" lon="5.31733">
        <ele>163.08</ele>
        <time>2020-01-09T10:43:17Z</time>
      </trkpt>
      <trkpt lat="43.52291" lon="5.31742">
        <ele>163.08</ele>
        <time>2020-01-09T10:43:30Z</time>
      </trkpt>
      <trkpt lat="43.52305" lon="5.31736">
        <ele>150.1</ele>
        <time>2020-01-09T10:43:45Z</time>
      </trkpt>
      <trkpt lat="43.52306" lon="5.31735">
        <ele>175.1</ele>
        <time>2020-01-09T10:43:46Z</time>
      </trkpt>
      <trkpt lat="43.52308" lon="5.31733">
        <ele>164.04</ele>
        <time>2020-01-09T10:43:47Z</time>
      </trkpt>
      <trkpt lat="43.52309" lon="5.31731">
        <ele>163.08</ele>
        <time>2020-01-09T10:43:49Z</time>
      </trkpt>
      <trkpt lat="43.52312" lon="5.31729">
        <ele>154.43</ele>
        <time>2020-01-09T10:43:52Z</time>
      </trkpt>
      <trkpt lat="43.52313" lon="5.31728">
        <ele>170.29</ele>
        <time>2020-01-09T10:43:53Z</time>
      </trkpt>
      <trkpt lat="43.52314" lon="5.31727">
        <ele>160.2</ele>
        <time>2020-01-09T10:43:54Z</time>
      </trkpt>
      <trkpt lat="43.52315" lon="5.31727">
        <ele>163.56</ele>
        <time>2020-01-09T10:43:55Z</time>
      </trkpt>
      <trkpt lat="43.52321" lon="5.31725">
        <ele>163.56</ele>
        <time>2020-01-09T10:44:06Z</time>
      </trkpt>
      <trkpt lat="43.52328" lon="5.31724">
        <ele>163.56</ele>
        <time>2020-01-09T10:44:16Z</time>
      </trkpt>
      <trkpt lat="43.52333" lon="5.31724">
        <ele>164.04</ele>
        <time>2020-01-09T10:44:28Z</time>
      </trkpt>
      <trkpt lat="43.52334" lon="5.31724">
        <ele>159.24</ele>
        <time>2020-01-09T10:44:30Z</time>
      </trkpt>
      <trkpt lat="43.52334" lon="5.31723">
        <ele>166.45</ele>
        <time>2020-01-09T10:44:31Z</time>
      </trkpt>
      <trkpt lat="43.52334" lon="5.31723">
        <ele>156.35</ele>
        <time>2020-01-09T10:44:32Z</time>
      </trkpt>
      <trkpt lat="43.52335" lon="5.31723">
        <ele>170.29</ele>
        <time>2020-01-09T10:44:33Z</time>
      </trkpt>
      <trkpt lat="43.52335" lon="5.31723">
        <ele>159.24</ele>
        <time>2020-01-09T10:44:34Z</time>
      </trkpt>
      <trkpt lat="43.52335" lon="5.31723">
        <ele>167.41</ele>
        <time>2020-01-09T10:44:35Z</time>
      </trkpt>
      <trkpt lat="43.52335" lon="5.31723">
        <ele>158.27</ele>
        <time>2020-01-09T10:44:38Z</time>
      </trkpt>
      <trkpt lat="43.52335" lon="5.31723">
        <ele>164.52</ele>
        <time>2020-01-09T10:44:39Z</time>
      </trkpt>
      <trkpt lat="43.52336" lon="5.31723">
        <ele>165.48</ele>
        <time>2020-01-09T10:44:41Z</time>
      </trkpt>
      <trkpt lat="43.52336" lon="5.31722">
        <ele>159.24</ele>
        <time>2020-01-09T10:44:45Z</time>
      </trkpt>
      <trkpt lat="43.52336" lon="5.31722">
        <ele>169.81</ele>
        <time>2020-01-09T10:44:46Z</time>
      </trkpt>
      <trkpt lat="43.52336" lon="5.31722">
        <ele>165.48</ele>
        <time>2020-01-09T10:44:47Z</time>
      </trkpt>
      <trkpt lat="43.52336" lon="5.31722">
        <ele>161.64</ele>
        <time>2020-01-09T10:44:48Z</time>
      </trkpt>
      <trkpt lat="43.52336" lon="5.31722">
        <ele>166.45</ele>
        <time>2020-01-09T10:44:49Z</time>
      </trkpt>
      <trkpt lat="43.52337" lon="5.31721">
        <ele>158.27</ele>
        <time>2020-01-09T10:44:55Z</time>
      </trkpt>
      <trkpt lat="43.52337" lon="5.31721">
        <ele>168.85</ele>
        <time>2020-01-09T10:44:56Z</time>
      </trkpt>
      <trkpt lat="43.52337" lon="5.31721">
        <ele>165.96</ele>
        <time>2020-01-09T10:44:57Z</time>
      </trkpt>
      <trkpt lat="43.52337" lon="5.31721">
        <ele>165.48</ele>
        <time>2020-01-09T10:44:59Z</time>
      </trkpt>
      <trkpt lat="43.52337" lon="5.31721">
        <ele>161.16</ele>
        <time>2020-01-09T10:45:03Z</time>
      </trkpt>
      <trkpt lat="43.52338" lon="5.31721">
        <ele>162.6</ele>
        <time>2020-01-09T10:45:04Z</time>
      </trkpt>
      <trkpt lat="43.52338" lon="5.31721">
        <ele>169.81</ele>
        <time>2020-01-09T10:45:05Z</time>
      </trkpt>
      <trkpt lat="43.52338" lon="5.31721">
        <ele>165</ele>
        <time>2020-01-09T10:45:06Z</time>
      </trkpt>
      <trkpt lat="43.52338" lon="5.31721">
        <ele>160.2</ele>
        <time>2020-01-09T10:45:07Z</time>
      </trkpt>
      <trkpt lat="43.52338" lon="5.31721">
        <ele>166.93</ele>
        <time>2020-01-09T10:45:08Z</time>
      </trkpt>
      <trkpt lat="43.52338" lon="5.3172">
        <ele>162.6</ele>
        <time>2020-01-09T10:45:13Z</time>
      </trkpt>
      <trkpt lat="43.52339" lon="5.3172">
        <ele>159.72</ele>
        <time>2020-01-09T10:45:16Z</time>
      </trkpt>
      <trkpt lat="43.52339" lon="5.3172">
        <ele>165</ele>
        <time>2020-01-09T10:45:17Z</time>
      </trkpt>
      <trkpt lat="43.52339" lon="5.3172">
        <ele>164.52</ele>
        <time>2020-01-09T10:45:25Z</time>
      </trkpt>
      <trkpt lat="43.52344" lon="5.31721">
        <ele>164.04</ele>
        <time>2020-01-09T10:45:36Z</time>
      </trkpt>
      <trkpt lat="43.5235" lon="5.31721">
        <ele>164.04</ele>
        <time>2020-01-09T10:45:50Z</time>
      </trkpt>
      <trkpt lat="43.52354" lon="5.31733">
        <ele>163.56</ele>
        <time>2020-01-09T10:46:06Z</time>
      </trkpt>
      <trkpt lat="43.5236" lon="5.3175">
        <ele>163.56</ele>
        <time>2020-01-09T10:46:21Z</time>
      </trkpt>
      <trkpt lat="43.52369" lon="5.31769">
        <ele>163.56</ele>
        <time>2020-01-09T10:46:37Z</time>
      </trkpt>
      <trkpt lat="43.52376" lon="5.31783">
        <ele>163.56</ele>
        <time>2020-01-09T10:46:49Z</time>
      </trkpt>
      <trkpt lat="43.52386" lon="5.31802">
        <ele>164.52</ele>
        <time>2020-01-09T10:47:05Z</time>
      </trkpt>
      <trkpt lat="43.5239" lon="5.31806">
        <ele>161.16</ele>
        <time>2020-01-09T10:47:07Z</time>
      </trkpt>
      <trkpt lat="43.52391" lon="5.31807">
        <ele>166.93</ele>
        <time>2020-01-09T10:47:08Z</time>
      </trkpt>
      <trkpt lat="43.52392" lon="5.31808">
        <ele>166.93</ele>
        <time>2020-01-09T10:47:09Z</time>
      </trkpt>
      <trkpt lat="43.52394" lon="5.3181">
        <ele>164.52</ele>
        <time>2020-01-09T10:47:11Z</time>
      </trkpt>
      <trkpt lat="43.52397" lon="5.31818">
        <ele>156.35</ele>
        <time>2020-01-09T10:47:16Z</time>
      </trkpt>
      <trkpt lat="43.52398" lon="5.31819">
        <ele>166.45</ele>
        <time>2020-01-09T10:47:17Z</time>
      </trkpt>
      <trkpt lat="43.52398" lon="5.3183">
        <ele>164.52</ele>
        <time>2020-01-09T10:47:30Z</time>
      </trkpt>
      <trkpt lat="43.52397" lon="5.31835">
        <ele>164.52</ele>
        <time>2020-01-09T10:47:37Z</time>
      </trkpt>
      <trkpt lat="43.52391" lon="5.31848">
        <ele>164.52</ele>
        <time>2020-01-09T10:47:49Z</time>
      </trkpt>
      <trkpt lat="43.5239" lon="5.31865">
        <ele>164.52</ele>
        <time>2020-01-09T10:47:59Z</time>
      </trkpt>
      <trkpt lat="43.52397" lon="5.3189">
        <ele>164.52</ele>
        <time>2020-01-09T10:48:16Z</time>
      </trkpt>
      <trkpt lat="43.52405" lon="5.31897">
        <ele>164.52</ele>
        <time>2020-01-09T10:48:24Z</time>
      </trkpt>
      <trkpt lat="43.52422" lon="5.31899">
        <ele>165.48</ele>
        <time>2020-01-09T10:48:35Z</time>
      </trkpt>
      <trkpt lat="43.52434" lon="5.31908">
        <ele>164.52</ele>
        <time>2020-01-09T10:48:49Z</time>
      </trkpt>
      <trkpt lat="43.52434" lon="5.31909">
        <ele>164.52</ele>
        <time>2020-01-09T10:48:50Z</time>
      </trkpt>
      <trkpt lat="43.52438" lon="5.31922">
        <ele>164.52</ele>
        <time>2020-01-09T10:49:05Z</time>
      </trkpt>
      <trkpt lat="43.52438" lon="5.31923">
        <ele>164.52</ele>
        <time>2020-01-09T10:49:06Z</time>
      </trkpt>
      <trkpt lat="43.5244" lon="5.3195">
        <ele>165</ele>
        <time>2020-01-09T10:49:21Z</time>
      </trkpt>
      <trkpt lat="43.5244" lon="5.31954">
        <ele>165</ele>
        <time>2020-01-09T10:49:24Z</time>
      </trkpt>
      <trkpt lat="43.52438" lon="5.3196">
        <ele>165</ele>
        <time>2020-01-09T10:49:31Z</time>
      </trkpt>
      <trkpt lat="43.52435" lon="5.31972">
        <ele>165.48</ele>
        <time>2020-01-09T10:49:43Z</time>
      </trkpt>
      <trkpt lat="43.52434" lon="5.31978">
        <ele>165.48</ele>
        <time>2020-01-09T10:49:47Z</time>
      </trkpt>
      <trkpt lat="43.52432" lon="5.31986">
        <ele>165.48</ele>
        <time>2020-01-09T10:49:52Z</time>
      </trkpt>
      <trkpt lat="43.52427" lon="5.32006">
        <ele>165.48</ele>
        <time>2020-01-09T10:50:08Z</time>
      </trkpt>
      <trkpt lat="43.52427" lon="5.32007">
        <ele>165.48</ele>
        <time>2020-01-09T10:50:09Z</time>
      </trkpt>
      <trkpt lat="43.52423" lon="5.3203">
        <ele>157.79</ele>
        <time>2020-01-09T10:50:22Z</time>
      </trkpt>
      <trkpt lat="43.52423" lon="5.32033">
        <ele>175.58</ele>
        <time>2020-01-09T10:50:23Z</time>
      </trkpt>
      <trkpt lat="43.52424" lon="5.32036">
        <ele>168.37</ele>
        <time>2020-01-09T10:50:24Z</time>
      </trkpt>
      <trkpt lat="43.52424" lon="5.3204">
        <ele>165.96</ele>
        <time>2020-01-09T10:50:26Z</time>
      </trkpt>
      <trkpt lat="43.52421" lon="5.32054">
        <ele>165.96</ele>
        <time>2020-01-09T10:50:37Z</time>
      </trkpt>
      <trkpt lat="43.52417" lon="5.32077">
        <ele>165.96</ele>
        <time>2020-01-09T10:50:53Z</time>
      </trkpt>
      <trkpt lat="43.52413" lon="5.32099">
        <ele>165.96</ele>
        <time>2020-01-09T10:51:06Z</time>
      </trkpt>
      <trkpt lat="43.52411" lon="5.3211">
        <ele>166.45</ele>
        <time>2020-01-09T10:51:12Z</time>
      </trkpt>
      <trkpt lat="43.52417" lon="5.32128">
        <ele>165.96</ele>
        <time>2020-01-09T10:51:20Z</time>
      </trkpt>
      <trkpt lat="43.52425" lon="5.32156">
        <ele>166.45</ele>
        <time>2020-01-09T10:51:33Z</time>
      </trkpt>
      <trkpt lat="43.52431" lon="5.32167">
        <ele>166.45</ele>
        <time>2020-01-09T10:51:43Z</time>
      </trkpt>
      <trkpt lat="43.52433" lon="5.3217">
        <ele>166.45</ele>
        <time>2020-01-09T10:51:47Z</time>
      </trkpt>
      <trkpt lat="43.52442" lon="5.32173">
        <ele>167.89</ele>
        <time>2020-01-09T10:51:59Z</time>
      </trkpt>
      <trkpt lat="43.52452" lon="5.32172">
        <ele>169.81</ele>
        <time>2020-01-09T10:52:15Z</time>
      </trkpt>
      <trkpt lat="43.52462" lon="5.32165">
        <ele>171.25</ele>
        <time>2020-01-09T10:52:30Z</time>
      </trkpt>
      <trkpt lat="43.52472" lon="5.32156">
        <ele>172.69</ele>
        <time>2020-01-09T10:52:44Z</time>
      </trkpt>
      <trkpt lat="43.52482" lon="5.3215">
        <ele>173.66</ele>
        <time>2020-01-09T10:53:00Z</time>
      </trkpt>
      <trkpt lat="43.52493" lon="5.32143">
        <ele>174.62</ele>
        <time>2020-01-09T10:53:14Z</time>
      </trkpt>
      <trkpt lat="43.52498" lon="5.32138">
        <ele>175.1</ele>
        <time>2020-01-09T10:53:22Z</time>
      </trkpt>
      <trkpt lat="43.52518" lon="5.32103">
        <ele>176.54</ele>
        <time>2020-01-09T10:53:36Z</time>
      </trkpt>
      <trkpt lat="43.52522" lon="5.32098">
        <ele>177.02</ele>
        <time>2020-01-09T10:53:40Z</time>
      </trkpt>
      <trkpt lat="43.52524" lon="5.32096">
        <ele>177.02</ele>
        <time>2020-01-09T10:53:42Z</time>
      </trkpt>
      <trkpt lat="43.52526" lon="5.32093">
        <ele>166.93</ele>
        <time>2020-01-09T10:53:44Z</time>
      </trkpt>
      <trkpt lat="43.52527" lon="5.32092">
        <ele>187.59</ele>
        <time>2020-01-09T10:53:45Z</time>
      </trkpt>
      <trkpt lat="43.52527" lon="5.32091">
        <ele>177.98</ele>
        <time>2020-01-09T10:53:46Z</time>
      </trkpt>
      <trkpt lat="43.52529" lon="5.32089">
        <ele>177.02</ele>
        <time>2020-01-09T10:53:48Z</time>
      </trkpt>
      <trkpt lat="43.52536" lon="5.3208">
        <ele>169.33</ele>
        <time>2020-01-09T10:53:57Z</time>
      </trkpt>
      <trkpt lat="43.52538" lon="5.32077">
        <ele>177.98</ele>
        <time>2020-01-09T10:53:59Z</time>
      </trkpt>
      <trkpt lat="43.52548" lon="5.32066">
        <ele>177.98</ele>
        <time>2020-01-09T10:54:11Z</time>
      </trkpt>
      <trkpt lat="43.52561" lon="5.32055">
        <ele>178.94</ele>
        <time>2020-01-09T10:54:27Z</time>
      </trkpt>
      <trkpt lat="43.52564" lon="5.32052">
        <ele>180.38</ele>
        <time>2020-01-09T10:54:32Z</time>
      </trkpt>
      <trkpt lat="43.52567" lon="5.32049">
        <ele>179.42</ele>
        <time>2020-01-09T10:54:35Z</time>
      </trkpt>
      <trkpt lat="43.52577" lon="5.32041">
        <ele>180.87</ele>
        <time>2020-01-09T10:54:51Z</time>
      </trkpt>
      <trkpt lat="43.52585" lon="5.32034">
        <ele>181.35</ele>
        <time>2020-01-09T10:55:05Z</time>
      </trkpt>
      <trkpt lat="43.52593" lon="5.32031">
        <ele>182.31</ele>
        <time>2020-01-09T10:55:17Z</time>
      </trkpt>
      <trkpt lat="43.52598" lon="5.32027">
        <ele>182.79</ele>
        <time>2020-01-09T10:55:24Z</time>
      </trkpt>
      <trkpt lat="43.52603" lon="5.32017">
        <ele>173.17</ele>
        <time>2020-01-09T10:55:29Z</time>
      </trkpt>
      <trkpt lat="43.52605" lon="5.32013">
        <ele>183.75</ele>
        <time>2020-01-09T10:55:31Z</time>
      </trkpt>
      <trkpt lat="43.52608" lon="5.32005">
        <ele>168.85</ele>
        <time>2020-01-09T10:55:36Z</time>
      </trkpt>
      <trkpt lat="43.52609" lon="5.32004">
        <ele>178.94</ele>
        <time>2020-01-09T10:55:37Z</time>
      </trkpt>
      <trkpt lat="43.5261" lon="5.32002">
        <ele>191.44</ele>
        <time>2020-01-09T10:55:38Z</time>
      </trkpt>
      <trkpt lat="43.52612" lon="5.32002">
        <ele>185.67</ele>
        <time>2020-01-09T10:55:39Z</time>
      </trkpt>
      <trkpt lat="43.52614" lon="5.32">
        <ele>173.17</ele>
        <time>2020-01-09T10:55:41Z</time>
      </trkpt>
      <trkpt lat="43.52615" lon="5.32">
        <ele>187.59</ele>
        <time>2020-01-09T10:55:42Z</time>
      </trkpt>
      <trkpt lat="43.52616" lon="5.31999">
        <ele>183.75</ele>
        <time>2020-01-09T10:55:43Z</time>
      </trkpt>
      <trkpt lat="43.52618" lon="5.31997">
        <ele>192.4</ele>
        <time>2020-01-09T10:55:45Z</time>
      </trkpt>
      <trkpt lat="43.52619" lon="5.31996">
        <ele>185.67</ele>
        <time>2020-01-09T10:55:46Z</time>
      </trkpt>
      <trkpt lat="43.5262" lon="5.31996">
        <ele>184.71</ele>
        <time>2020-01-09T10:55:48Z</time>
      </trkpt>
      <trkpt lat="43.52622" lon="5.31997">
        <ele>184.71</ele>
        <time>2020-01-09T10:55:49Z</time>
      </trkpt>
      <trkpt lat="43.52636" lon="5.32">
        <ele>185.67</ele>
        <time>2020-01-09T10:56:06Z</time>
      </trkpt>
      <trkpt lat="43.52649" lon="5.3199">
        <ele>186.15</ele>
        <time>2020-01-09T10:56:21Z</time>
      </trkpt>
      <trkpt lat="43.52659" lon="5.31989">
        <ele>187.59</ele>
        <time>2020-01-09T10:56:34Z</time>
      </trkpt>
      <trkpt lat="43.52661" lon="5.31989">
        <ele>187.11</ele>
        <time>2020-01-09T10:56:36Z</time>
      </trkpt>
      <trkpt lat="43.52671" lon="5.31993">
        <ele>188.56</ele>
        <time>2020-01-09T10:56:50Z</time>
      </trkpt>
      <trkpt lat="43.52676" lon="5.31993">
        <ele>188.56</ele>
        <time>2020-01-09T10:56:54Z</time>
      </trkpt>
      <trkpt lat="43.52687" lon="5.31992">
        <ele>189.52</ele>
        <time>2020-01-09T10:57:03Z</time>
      </trkpt>
      <trkpt lat="43.52693" lon="5.31991">
        <ele>190</ele>
        <time>2020-01-09T10:57:10Z</time>
      </trkpt>
      <trkpt lat="43.52697" lon="5.31991">
        <ele>190.48</ele>
        <time>2020-01-09T10:57:13Z</time>
      </trkpt>
      <trkpt lat="43.52701" lon="5.31989">
        <ele>190.96</ele>
        <time>2020-01-09T10:57:15Z</time>
      </trkpt>
      <trkpt lat="43.52718" lon="5.31965">
        <ele>192.4</ele>
        <time>2020-01-09T10:57:31Z</time>
      </trkpt>
      <trkpt lat="43.52732" lon="5.31957">
        <ele>193.36</ele>
        <time>2020-01-09T10:57:44Z</time>
      </trkpt>
      <trkpt lat="43.52739" lon="5.31955">
        <ele>194.32</ele>
        <time>2020-01-09T10:57:55Z</time>
      </trkpt>
      <trkpt lat="43.52743" lon="5.31952">
        <ele>194.32</ele>
        <time>2020-01-09T10:57:59Z</time>
      </trkpt>
      <trkpt lat="43.52744" lon="5.31951">
        <ele>181.35</ele>
        <time>2020-01-09T10:58:01Z</time>
      </trkpt>
      <trkpt lat="43.52745" lon="5.31951">
        <ele>205.86</ele>
        <time>2020-01-09T10:58:02Z</time>
      </trkpt>
      <trkpt lat="43.52746" lon="5.3195">
        <ele>195.28</ele>
        <time>2020-01-09T10:58:03Z</time>
      </trkpt>
      <trkpt lat="43.52748" lon="5.31948">
        <ele>194.8</ele>
        <time>2020-01-09T10:58:05Z</time>
      </trkpt>
      <trkpt lat="43.52761" lon="5.3194">
        <ele>195.28</ele>
        <time>2020-01-09T10:58:18Z</time>
      </trkpt>
      <trkpt lat="43.52777" lon="5.31932">
        <ele>196.25</ele>
        <time>2020-01-09T10:58:34Z</time>
      </trkpt>
      <trkpt lat="43.52784" lon="5.31924">
        <ele>183.75</ele>
        <time>2020-01-09T10:58:45Z</time>
      </trkpt>
      <trkpt lat="43.52785" lon="5.31922">
        <ele>199.13</ele>
        <time>2020-01-09T10:58:47Z</time>
      </trkpt>
      <trkpt lat="43.52786" lon="5.3192">
        <ele>196.73</ele>
        <time>2020-01-09T10:58:49Z</time>
      </trkpt>
      <trkpt lat="43.52788" lon="5.31919">
        <ele>192.4</ele>
        <time>2020-01-09T10:58:51Z</time>
      </trkpt>
      <trkpt lat="43.52788" lon="5.31917">
        <ele>204.42</ele>
        <time>2020-01-09T10:58:52Z</time>
      </trkpt>
      <trkpt lat="43.52789" lon="5.31916">
        <ele>199.13</ele>
        <time>2020-01-09T10:58:53Z</time>
      </trkpt>
      <trkpt lat="43.52789" lon="5.31914">
        <ele>185.19</ele>
        <time>2020-01-09T10:58:55Z</time>
      </trkpt>
      <trkpt lat="43.5279" lon="5.31913">
        <ele>208.74</ele>
        <time>2020-01-09T10:58:56Z</time>
      </trkpt>
      <trkpt lat="43.52791" lon="5.31911">
        <ele>194.32</ele>
        <time>2020-01-09T10:58:57Z</time>
      </trkpt>
      <trkpt lat="43.52792" lon="5.3191">
        <ele>200.09</ele>
        <time>2020-01-09T10:58:58Z</time>
      </trkpt>
      <trkpt lat="43.52793" lon="5.31909">
        <ele>188.08</ele>
        <time>2020-01-09T10:58:59Z</time>
      </trkpt>
      <trkpt lat="43.52794" lon="5.31907">
        <ele>199.61</ele>
        <time>2020-01-09T10:59:00Z</time>
      </trkpt>
      <trkpt lat="43.52795" lon="5.31905">
        <ele>190</ele>
        <time>2020-01-09T10:59:02Z</time>
      </trkpt>
      <trkpt lat="43.52796" lon="5.31905">
        <ele>200.57</ele>
        <time>2020-01-09T10:59:03Z</time>
      </trkpt>
      <trkpt lat="43.52796" lon="5.31905">
        <ele>200.57</ele>
        <time>2020-01-09T10:59:04Z</time>
      </trkpt>
      <trkpt lat="43.52797" lon="5.31904">
        <ele>197.69</ele>
        <time>2020-01-09T10:59:05Z</time>
      </trkpt>
      <trkpt lat="43.528" lon="5.319">
        <ele>197.69</ele>
        <time>2020-01-09T10:59:09Z</time>
      </trkpt>
      <trkpt lat="43.52813" lon="5.31888">
        <ele>198.17</ele>
        <time>2020-01-09T10:59:23Z</time>
      </trkpt>
      <trkpt lat="43.52813" lon="5.31888">
        <ele>198.17</ele>
        <time>2020-01-09T10:59:24Z</time>
      </trkpt>
      <trkpt lat="43.52817" lon="5.31881">
        <ele>198.65</ele>
        <time>2020-01-09T10:59:30Z</time>
      </trkpt>
      <trkpt lat="43.52821" lon="5.31873">
        <ele>198.65</ele>
        <time>2020-01-09T10:59:36Z</time>
      </trkpt>
      <trkpt lat="43.52828" lon="5.31861">
        <ele>200.09</ele>
        <time>2020-01-09T10:59:49Z</time>
      </trkpt>
      <trkpt lat="43.52829" lon="5.31859">
        <ele>199.61</ele>
        <time>2020-01-09T10:59:51Z</time>
      </trkpt>
      <trkpt lat="43.52835" lon="5.31851">
        <ele>200.57</ele>
        <time>2020-01-09T10:59:58Z</time>
      </trkpt>
      <trkpt lat="43.5284" lon="5.31842">
        <ele>201.05</ele>
        <time>2020-01-09T11:00:07Z</time>
      </trkpt>
      <trkpt lat="43.52842" lon="5.31839">
        <ele>201.53</ele>
        <time>2020-01-09T11:00:09Z</time>
      </trkpt>
      <trkpt lat="43.52843" lon="5.31834">
        <ele>193.84</ele>
        <time>2020-01-09T11:00:13Z</time>
      </trkpt>
      <trkpt lat="43.52843" lon="5.31833">
        <ele>204.42</ele>
        <time>2020-01-09T11:00:14Z</time>
      </trkpt>
      <trkpt lat="43.52843" lon="5.31832">
        <ele>196.73</ele>
        <time>2020-01-09T11:00:17Z</time>
      </trkpt>
      <trkpt lat="43.52843" lon="5.31831">
        <ele>204.42</ele>
        <time>2020-01-09T11:00:18Z</time>
      </trkpt>
      <trkpt lat="43.52845" lon="5.31826">
        <ele>202.01</ele>
        <time>2020-01-09T11:00:22Z</time>
      </trkpt>
      <trkpt lat="43.52846" lon="5.31823">
        <ele>198.17</ele>
        <time>2020-01-09T11:00:24Z</time>
      </trkpt>
      <trkpt lat="43.52846" lon="5.31822">
        <ele>204.9</ele>
        <time>2020-01-09T11:00:25Z</time>
      </trkpt>
      <trkpt lat="43.52848" lon="5.31811">
        <ele>202.01</ele>
        <time>2020-01-09T11:00:32Z</time>
      </trkpt>
      <trkpt lat="43.52851" lon="5.31791">
        <ele>202.49</ele>
        <time>2020-01-09T11:00:46Z</time>
      </trkpt>
      <trkpt lat="43.52852" lon="5.31773">
        <ele>202.98</ele>
        <time>2020-01-09T11:00:58Z</time>
      </trkpt>
      <trkpt lat="43.52853" lon="5.31768">
        <ele>202.98</ele>
        <time>2020-01-09T11:01:01Z</time>
      </trkpt>
      <trkpt lat="43.52856" lon="5.31745">
        <ele>202.98</ele>
        <time>2020-01-09T11:01:16Z</time>
      </trkpt>
      <trkpt lat="43.52862" lon="5.31729">
        <ele>202.49</ele>
        <time>2020-01-09T11:01:28Z</time>
      </trkpt>
      <trkpt lat="43.52864" lon="5.31725">
        <ele>202.98</ele>
        <time>2020-01-09T11:01:31Z</time>
      </trkpt>
      <trkpt lat="43.5287" lon="5.31709">
        <ele>188.56</ele>
        <time>2020-01-09T11:01:44Z</time>
      </trkpt>
      <trkpt lat="43.52871" lon="5.31708">
        <ele>215.47</ele>
        <time>2020-01-09T11:01:45Z</time>
      </trkpt>
      <trkpt lat="43.52871" lon="5.31707">
        <ele>201.53</ele>
        <time>2020-01-09T11:01:46Z</time>
      </trkpt>
      <trkpt lat="43.52873" lon="5.317">
        <ele>189.52</ele>
        <time>2020-01-09T11:01:51Z</time>
      </trkpt>
      <trkpt lat="43.52874" lon="5.31699">
        <ele>214.99</ele>
        <time>2020-01-09T11:01:52Z</time>
      </trkpt>
      <trkpt lat="43.52874" lon="5.31698">
        <ele>202.98</ele>
        <time>2020-01-09T11:01:53Z</time>
      </trkpt>
      <trkpt lat="43.52879" lon="5.31674">
        <ele>205.38</ele>
        <time>2020-01-09T11:02:08Z</time>
      </trkpt>
      <trkpt lat="43.5288" lon="5.31673">
        <ele>204.9</ele>
        <time>2020-01-09T11:02:09Z</time>
      </trkpt>
      <trkpt lat="43.52881" lon="5.3167">
        <ele>203.46</ele>
        <time>2020-01-09T11:02:11Z</time>
      </trkpt>
      <trkpt lat="43.52882" lon="5.31667">
        <ele>194.8</ele>
        <time>2020-01-09T11:02:13Z</time>
      </trkpt>
      <trkpt lat="43.52883" lon="5.31665">
        <ele>207.3</ele>
        <time>2020-01-09T11:02:14Z</time>
      </trkpt>
      <trkpt lat="43.52883" lon="5.31662">
        <ele>203.94</ele>
        <time>2020-01-09T11:02:16Z</time>
      </trkpt>
      <trkpt lat="43.52886" lon="5.31656">
        <ele>203.46</ele>
        <time>2020-01-09T11:02:21Z</time>
      </trkpt>
      <trkpt lat="43.52892" lon="5.31639">
        <ele>203.94</ele>
        <time>2020-01-09T11:02:34Z</time>
      </trkpt>
      <trkpt lat="43.52893" lon="5.31635">
        <ele>203.94</ele>
        <time>2020-01-09T11:02:37Z</time>
      </trkpt>
      <trkpt lat="43.52893" lon="5.31629">
        <ele>203.94</ele>
        <time>2020-01-09T11:02:41Z</time>
      </trkpt>
      <trkpt lat="43.52893" lon="5.31621">
        <ele>191.44</ele>
        <time>2020-01-09T11:02:46Z</time>
      </trkpt>
      <trkpt lat="43.52894" lon="5.3162">
        <ele>214.03</ele>
        <time>2020-01-09T11:02:47Z</time>
      </trkpt>
      <trkpt lat="43.52894" lon="5.31618">
        <ele>214.03</ele>
        <time>2020-01-09T11:02:48Z</time>
      </trkpt>
      <trkpt lat="43.52895" lon="5.31617">
        <ele>204.9</ele>
        <time>2020-01-09T11:02:49Z</time>
      </trkpt>
      <trkpt lat="43.52896" lon="5.31613">
        <ele>201.05</ele>
        <time>2020-01-09T11:02:52Z</time>
      </trkpt>
      <trkpt lat="43.52896" lon="5.31612">
        <ele>206.34</ele>
        <time>2020-01-09T11:02:53Z</time>
      </trkpt>
      <trkpt lat="43.52896" lon="5.3161">
        <ele>197.21</ele>
        <time>2020-01-09T11:02:55Z</time>
      </trkpt>
      <trkpt lat="43.52896" lon="5.31608">
        <ele>208.26</ele>
        <time>2020-01-09T11:02:56Z</time>
      </trkpt>
      <trkpt lat="43.52896" lon="5.31607">
        <ele>202.98</ele>
        <time>2020-01-09T11:02:57Z</time>
      </trkpt>
      <trkpt lat="43.52896" lon="5.31605">
        <ele>209.7</ele>
        <time>2020-01-09T11:02:58Z</time>
      </trkpt>
      <trkpt lat="43.52897" lon="5.31604">
        <ele>204.9</ele>
        <time>2020-01-09T11:02:59Z</time>
      </trkpt>
      <trkpt lat="43.52896" lon="5.31604">
        <ele>199.61</ele>
        <time>2020-01-09T11:03:01Z</time>
      </trkpt>
      <trkpt lat="43.52896" lon="5.31604">
        <ele>207.78</ele>
        <time>2020-01-09T11:03:02Z</time>
      </trkpt>
      <trkpt lat="43.52897" lon="5.31604">
        <ele>203.94</ele>
        <time>2020-01-09T11:03:05Z</time>
      </trkpt>
      <trkpt lat="43.52899" lon="5.31599">
        <ele>202.98</ele>
        <time>2020-01-09T11:03:27Z</time>
      </trkpt>
      <trkpt lat="43.529" lon="5.31597">
        <ele>205.86</ele>
        <time>2020-01-09T11:03:29Z</time>
      </trkpt>
      <trkpt lat="43.52902" lon="5.31591">
        <ele>203.94</ele>
        <time>2020-01-09T11:03:35Z</time>
      </trkpt>
      <trkpt lat="43.52905" lon="5.31584">
        <ele>203.94</ele>
        <time>2020-01-09T11:03:41Z</time>
      </trkpt>
      <trkpt lat="43.52912" lon="5.31573">
        <ele>200.09</ele>
        <time>2020-01-09T11:03:51Z</time>
      </trkpt>
      <trkpt lat="43.52912" lon="5.31571">
        <ele>205.38</ele>
        <time>2020-01-09T11:03:52Z</time>
      </trkpt>
      <trkpt lat="43.52915" lon="5.31565">
        <ele>201.05</ele>
        <time>2020-01-09T11:03:57Z</time>
      </trkpt>
      <trkpt lat="43.52915" lon="5.31564">
        <ele>204.9</ele>
        <time>2020-01-09T11:03:58Z</time>
      </trkpt>
      <trkpt lat="43.52915" lon="5.31563">
        <ele>204.9</ele>
        <time>2020-01-09T11:03:59Z</time>
      </trkpt>
      <trkpt lat="43.52915" lon="5.3156">
        <ele>202.98</ele>
        <time>2020-01-09T11:04:01Z</time>
      </trkpt>
      <trkpt lat="43.52915" lon="5.31559">
        <ele>195.77</ele>
        <time>2020-01-09T11:04:02Z</time>
      </trkpt>
      <trkpt lat="43.52915" lon="5.31558">
        <ele>204.42</ele>
        <time>2020-01-09T11:04:03Z</time>
      </trkpt>
      <trkpt lat="43.52916" lon="5.31554">
        <ele>202.98</ele>
        <time>2020-01-09T11:04:06Z</time>
      </trkpt>
      <trkpt lat="43.52919" lon="5.31537">
        <ele>196.25</ele>
        <time>2020-01-09T11:04:19Z</time>
      </trkpt>
      <trkpt lat="43.52919" lon="5.31536">
        <ele>207.3</ele>
        <time>2020-01-09T11:04:20Z</time>
      </trkpt>
      <trkpt lat="43.52919" lon="5.31534">
        <ele>202.98</ele>
        <time>2020-01-09T11:04:21Z</time>
      </trkpt>
      <trkpt lat="43.52918" lon="5.31522">
        <ele>202.98</ele>
        <time>2020-01-09T11:04:29Z</time>
      </trkpt>
      <trkpt lat="43.52918" lon="5.31517">
        <ele>202.49</ele>
        <time>2020-01-09T11:04:32Z</time>
      </trkpt>
      <trkpt lat="43.52919" lon="5.31509">
        <ele>198.65</ele>
        <time>2020-01-09T11:04:38Z</time>
      </trkpt>
      <trkpt lat="43.52919" lon="5.31508">
        <ele>205.86</ele>
        <time>2020-01-09T11:04:39Z</time>
      </trkpt>
      <trkpt lat="43.52919" lon="5.31507">
        <ele>202.98</ele>
        <time>2020-01-09T11:04:42Z</time>
      </trkpt>
      <trkpt lat="43.52919" lon="5.31506">
        <ele>206.34</ele>
        <time>2020-01-09T11:04:50Z</time>
      </trkpt>
      <trkpt lat="43.52919" lon="5.31506">
        <ele>202.98</ele>
        <time>2020-01-09T11:04:51Z</time>
      </trkpt>
      <trkpt lat="43.52919" lon="5.31505">
        <ele>202.98</ele>
        <time>2020-01-09T11:04:55Z</time>
      </trkpt>
      <trkpt lat="43.52919" lon="5.315">
        <ele>199.13</ele>
        <time>2020-01-09T11:05:05Z</time>
      </trkpt>
      <trkpt lat="43.52919" lon="5.31499">
        <ele>208.74</ele>
        <time>2020-01-09T11:05:06Z</time>
      </trkpt>
      <trkpt lat="43.52919" lon="5.31498">
        <ele>201.05</ele>
        <time>2020-01-09T11:05:07Z</time>
      </trkpt>
      <trkpt lat="43.5292" lon="5.31498">
        <ele>205.38</ele>
        <time>2020-01-09T11:05:08Z</time>
      </trkpt>
      <trkpt lat="43.52919" lon="5.31498">
        <ele>196.73</ele>
        <time>2020-01-09T11:05:09Z</time>
      </trkpt>
      <trkpt lat="43.52919" lon="5.31498">
        <ele>205.86</ele>
        <time>2020-01-09T11:05:10Z</time>
      </trkpt>
      <trkpt lat="43.52919" lon="5.31497">
        <ele>195.77</ele>
        <time>2020-01-09T11:05:14Z</time>
      </trkpt>
      <trkpt lat="43.52919" lon="5.31497">
        <ele>204.42</ele>
        <time>2020-01-09T11:05:15Z</time>
      </trkpt>
      <trkpt lat="43.52919" lon="5.31497">
        <ele>200.57</ele>
        <time>2020-01-09T11:05:23Z</time>
      </trkpt>
      <trkpt lat="43.52919" lon="5.31497">
        <ele>203.94</ele>
        <time>2020-01-09T11:05:24Z</time>
      </trkpt>
      <trkpt lat="43.52918" lon="5.31497">
        <ele>197.21</ele>
        <time>2020-01-09T11:05:26Z</time>
      </trkpt>
      <trkpt lat="43.52918" lon="5.31497">
        <ele>211.63</ele>
        <time>2020-01-09T11:05:27Z</time>
      </trkpt>
      <trkpt lat="43.52918" lon="5.31497">
        <ele>203.94</ele>
        <time>2020-01-09T11:05:28Z</time>
      </trkpt>
      <trkpt lat="43.52918" lon="5.31497">
        <ele>200.09</ele>
        <time>2020-01-09T11:05:29Z</time>
      </trkpt>
      <trkpt lat="43.52918" lon="5.31497">
        <ele>199.61</ele>
        <time>2020-01-09T11:05:30Z</time>
      </trkpt>
      <trkpt lat="43.52918" lon="5.31497">
        <ele>204.9</ele>
        <time>2020-01-09T11:05:31Z</time>
      </trkpt>
      <trkpt lat="43.52918" lon="5.31498">
        <ele>203.94</ele>
        <time>2020-01-09T11:05:32Z</time>
      </trkpt>
      <trkpt lat="43.52918" lon="5.31498">
        <ele>207.3</ele>
        <time>2020-01-09T11:05:33Z</time>
      </trkpt>
      <trkpt lat="43.52918" lon="5.31498">
        <ele>203.94</ele>
        <time>2020-01-09T11:05:34Z</time>
      </trkpt>
      <trkpt lat="43.52918" lon="5.31499">
        <ele>203.46</ele>
        <time>2020-01-09T11:05:35Z</time>
      </trkpt>
      <trkpt lat="43.52917" lon="5.31521">
        <ele>203.46</ele>
        <time>2020-01-09T11:05:49Z</time>
      </trkpt>
      <trkpt lat="43.52916" lon="5.31538">
        <ele>202.49</ele>
        <time>2020-01-09T11:06:02Z</time>
      </trkpt>
      <trkpt lat="43.52915" lon="5.31551">
        <ele>198.65</ele>
        <time>2020-01-09T11:06:12Z</time>
      </trkpt>
      <trkpt lat="43.52915" lon="5.31553">
        <ele>205.38</ele>
        <time>2020-01-09T11:06:13Z</time>
      </trkpt>
      <trkpt lat="43.52913" lon="5.31575">
        <ele>203.46</ele>
        <time>2020-01-09T11:06:29Z</time>
      </trkpt>
      <trkpt lat="43.52914" lon="5.31576">
        <ele>203.46</ele>
        <time>2020-01-09T11:06:30Z</time>
      </trkpt>
      <trkpt lat="43.52914" lon="5.31581">
        <ele>203.46</ele>
        <time>2020-01-09T11:06:43Z</time>
      </trkpt>
      <trkpt lat="43.52914" lon="5.31579">
        <ele>203.94</ele>
        <time>2020-01-09T11:06:44Z</time>
      </trkpt>
      <trkpt lat="43.5291" lon="5.31577">
        <ele>203.46</ele>
        <time>2020-01-09T11:06:48Z</time>
      </trkpt>
      <trkpt lat="43.52906" lon="5.31582">
        <ele>203.94</ele>
        <time>2020-01-09T11:06:55Z</time>
      </trkpt>
      <trkpt lat="43.52902" lon="5.3159">
        <ele>203.94</ele>
        <time>2020-01-09T11:07:04Z</time>
      </trkpt>
      <trkpt lat="43.52898" lon="5.31609">
        <ele>203.46</ele>
        <time>2020-01-09T11:07:16Z</time>
      </trkpt>
      <trkpt lat="43.52902" lon="5.31617">
        <ele>204.42</ele>
        <time>2020-01-09T11:07:22Z</time>
      </trkpt>
      <trkpt lat="43.52907" lon="5.31621">
        <ele>204.9</ele>
        <time>2020-01-09T11:07:30Z</time>
      </trkpt>
      <trkpt lat="43.52916" lon="5.31626">
        <ele>205.86</ele>
        <time>2020-01-09T11:07:41Z</time>
      </trkpt>
      <trkpt lat="43.52925" lon="5.3163">
        <ele>206.34</ele>
        <time>2020-01-09T11:07:52Z</time>
      </trkpt>
      <trkpt lat="43.52928" lon="5.3163">
        <ele>206.34</ele>
        <time>2020-01-09T11:07:57Z</time>
      </trkpt>
      <trkpt lat="43.52945" lon="5.31636">
        <ele>206.34</ele>
        <time>2020-01-09T11:08:10Z</time>
      </trkpt>
      <trkpt lat="43.52963" lon="5.31644">
        <ele>206.82</ele>
        <time>2020-01-09T11:08:24Z</time>
      </trkpt>
      <trkpt lat="43.52974" lon="5.31644">
        <ele>202.01</ele>
        <time>2020-01-09T11:08:34Z</time>
      </trkpt>
      <trkpt lat="43.52975" lon="5.31644">
        <ele>211.63</ele>
        <time>2020-01-09T11:08:35Z</time>
      </trkpt>
      <trkpt lat="43.52976" lon="5.31643">
        <ele>207.3</ele>
        <time>2020-01-09T11:08:36Z</time>
      </trkpt>
      <trkpt lat="43.52978" lon="5.31641">
        <ele>202.01</ele>
        <time>2020-01-09T11:08:42Z</time>
      </trkpt>
      <trkpt lat="43.52978" lon="5.31641">
        <ele>210.19</ele>
        <time>2020-01-09T11:08:43Z</time>
      </trkpt>
      <trkpt lat="43.52978" lon="5.31641">
        <ele>209.22</ele>
        <time>2020-01-09T11:08:44Z</time>
      </trkpt>
      <trkpt lat="43.52978" lon="5.31641">
        <ele>207.3</ele>
        <time>2020-01-09T11:08:46Z</time>
      </trkpt>
      <trkpt lat="43.5298" lon="5.3164">
        <ele>207.3</ele>
        <time>2020-01-09T11:08:49Z</time>
      </trkpt>
      <trkpt lat="43.52984" lon="5.31638">
        <ele>207.78</ele>
        <time>2020-01-09T11:08:56Z</time>
      </trkpt>
      <trkpt lat="43.52995" lon="5.31628">
        <ele>208.74</ele>
        <time>2020-01-09T11:09:09Z</time>
      </trkpt>
      <trkpt lat="43.53009" lon="5.31614">
        <ele>209.22</ele>
        <time>2020-01-09T11:09:22Z</time>
      </trkpt>
      <trkpt lat="43.5302" lon="5.31601">
        <ele>209.7</ele>
        <time>2020-01-09T11:09:36Z</time>
      </trkpt>
      <trkpt lat="43.53031" lon="5.31591">
        <ele>210.67</ele>
        <time>2020-01-09T11:09:51Z</time>
      </trkpt>
      <trkpt lat="43.53045" lon="5.31578">
        <ele>211.63</ele>
        <time>2020-01-09T11:10:06Z</time>
      </trkpt>
      <trkpt lat="43.5305" lon="5.31573">
        <ele>212.11</ele>
        <time>2020-01-09T11:10:13Z</time>
      </trkpt>
      <trkpt lat="43.53057" lon="5.31566">
        <ele>212.59</ele>
        <time>2020-01-09T11:10:25Z</time>
      </trkpt>
      <trkpt lat="43.5307" lon="5.31551">
        <ele>213.55</ele>
        <time>2020-01-09T11:10:40Z</time>
      </trkpt>
      <trkpt lat="43.53073" lon="5.31548">
        <ele>213.55</ele>
        <time>2020-01-09T11:10:44Z</time>
      </trkpt>
      <trkpt lat="43.53078" lon="5.31547">
        <ele>209.22</ele>
        <time>2020-01-09T11:10:49Z</time>
      </trkpt>
      <trkpt lat="43.53079" lon="5.31547">
        <ele>217.4</ele>
        <time>2020-01-09T11:10:50Z</time>
      </trkpt>
      <trkpt lat="43.5308" lon="5.31547">
        <ele>214.99</ele>
        <time>2020-01-09T11:10:51Z</time>
      </trkpt>
      <trkpt lat="43.53082" lon="5.31547">
        <ele>214.03</ele>
        <time>2020-01-09T11:10:53Z</time>
      </trkpt>
      <trkpt lat="43.53084" lon="5.31549">
        <ele>214.03</ele>
        <time>2020-01-09T11:10:56Z</time>
      </trkpt>
      <trkpt lat="43.53095" lon="5.31553">
        <ele>214.99</ele>
        <time>2020-01-09T11:11:09Z</time>
      </trkpt>
      <trkpt lat="43.53098" lon="5.31556">
        <ele>214.51</ele>
        <time>2020-01-09T11:11:11Z</time>
      </trkpt>
      <trkpt lat="43.53101" lon="5.3156">
        <ele>214.51</ele>
        <time>2020-01-09T11:11:15Z</time>
      </trkpt>
      <trkpt lat="43.53105" lon="5.31562">
        <ele>214.99</ele>
        <time>2020-01-09T11:11:18Z</time>
      </trkpt>
      <trkpt lat="43.5311" lon="5.31564">
        <ele>210.67</ele>
        <time>2020-01-09T11:11:23Z</time>
      </trkpt>
      <trkpt lat="43.5311" lon="5.31564">
        <ele>218.36</ele>
        <time>2020-01-09T11:11:24Z</time>
      </trkpt>
      <trkpt lat="43.53114" lon="5.31564">
        <ele>215.47</ele>
        <time>2020-01-09T11:11:28Z</time>
      </trkpt>
      <trkpt lat="43.53126" lon="5.31562">
        <ele>215.95</ele>
        <time>2020-01-09T11:11:41Z</time>
      </trkpt>
      <trkpt lat="43.53127" lon="5.31562">
        <ele>215.95</ele>
        <time>2020-01-09T11:11:42Z</time>
      </trkpt>
      <trkpt lat="43.53136" lon="5.3156">
        <ele>216.43</ele>
        <time>2020-01-09T11:11:51Z</time>
      </trkpt>
      <trkpt lat="43.53144" lon="5.31561">
        <ele>216.91</ele>
        <time>2020-01-09T11:11:58Z</time>
      </trkpt>
      <trkpt lat="43.53158" lon="5.31566">
        <ele>217.4</ele>
        <time>2020-01-09T11:12:12Z</time>
      </trkpt>
      <trkpt lat="43.53163" lon="5.31569">
        <ele>217.88</ele>
        <time>2020-01-09T11:12:18Z</time>
      </trkpt>
      <trkpt lat="43.53176" lon="5.31578">
        <ele>219.32</ele>
        <time>2020-01-09T11:12:34Z</time>
      </trkpt>
      <trkpt lat="43.53186" lon="5.31584">
        <ele>218.84</ele>
        <time>2020-01-09T11:12:45Z</time>
      </trkpt>
      <trkpt lat="43.53188" lon="5.31586">
        <ele>219.32</ele>
        <time>2020-01-09T11:12:48Z</time>
      </trkpt>
      <trkpt lat="43.532" lon="5.31589">
        <ele>219.8</ele>
        <time>2020-01-09T11:13:02Z</time>
      </trkpt>
      <trkpt lat="43.53202" lon="5.3159">
        <ele>219.8</ele>
        <time>2020-01-09T11:13:04Z</time>
      </trkpt>
      <trkpt lat="43.53218" lon="5.31598">
        <ele>220.76</ele>
        <time>2020-01-09T11:13:20Z</time>
      </trkpt>
      <trkpt lat="43.53225" lon="5.31603">
        <ele>220.76</ele>
        <time>2020-01-09T11:13:28Z</time>
      </trkpt>
      <trkpt lat="43.53243" lon="5.31609">
        <ele>221.24</ele>
        <time>2020-01-09T11:13:44Z</time>
      </trkpt>
      <trkpt lat="43.53245" lon="5.31609">
        <ele>221.24</ele>
        <time>2020-01-09T11:13:46Z</time>
      </trkpt>
      <trkpt lat="43.53248" lon="5.3161">
        <ele>221.72</ele>
        <time>2020-01-09T11:13:50Z</time>
      </trkpt>
      <trkpt lat="43.53264" lon="5.31612">
        <ele>221.72</ele>
        <time>2020-01-09T11:14:05Z</time>
      </trkpt>
      <trkpt lat="43.53281" lon="5.31617">
        <ele>221.72</ele>
        <time>2020-01-09T11:14:21Z</time>
      </trkpt>
      <trkpt lat="43.53295" lon="5.31621">
        <ele>221.72</ele>
        <time>2020-01-09T11:14:35Z</time>
      </trkpt>
      <trkpt lat="43.53298" lon="5.31623">
        <ele>221.24</ele>
        <time>2020-01-09T11:14:38Z</time>
      </trkpt>
      <trkpt lat="43.53316" lon="5.31614">
        <ele>217.4</ele>
        <time>2020-01-09T11:14:51Z</time>
      </trkpt>
      <trkpt lat="43.53317" lon="5.31613">
        <ele>225.09</ele>
        <time>2020-01-09T11:14:52Z</time>
      </trkpt>
      <trkpt lat="43.53317" lon="5.31613">
        <ele>225.09</ele>
        <time>2020-01-09T11:14:53Z</time>
      </trkpt>
      <trkpt lat="43.53317" lon="5.31612">
        <ele>220.28</ele>
        <time>2020-01-09T11:14:54Z</time>
      </trkpt>
      <trkpt lat="43.53318" lon="5.31612">
        <ele>222.68</ele>
        <time>2020-01-09T11:14:55Z</time>
      </trkpt>
      <trkpt lat="43.53322" lon="5.31611">
        <ele>221.72</ele>
        <time>2020-01-09T11:14:58Z</time>
      </trkpt>
      <trkpt lat="43.53324" lon="5.3161">
        <ele>226.05</ele>
        <time>2020-01-09T11:15:00Z</time>
      </trkpt>
      <trkpt lat="43.53324" lon="5.3161">
        <ele>222.2</ele>
        <time>2020-01-09T11:15:01Z</time>
      </trkpt>
      <trkpt lat="43.53331" lon="5.31613">
        <ele>221.72</ele>
        <time>2020-01-09T11:15:08Z</time>
      </trkpt>
      <trkpt lat="43.53345" lon="5.31615">
        <ele>222.2</ele>
        <time>2020-01-09T11:15:21Z</time>
      </trkpt>
      <trkpt lat="43.53352" lon="5.31618">
        <ele>215.47</ele>
        <time>2020-01-09T11:15:28Z</time>
      </trkpt>
      <trkpt lat="43.53353" lon="5.31619">
        <ele>224.61</ele>
        <time>2020-01-09T11:15:30Z</time>
      </trkpt>
      <trkpt lat="43.53355" lon="5.3162">
        <ele>231.81</ele>
        <time>2020-01-09T11:15:31Z</time>
      </trkpt>
      <trkpt lat="43.53356" lon="5.31621">
        <ele>223.16</ele>
        <time>2020-01-09T11:15:32Z</time>
      </trkpt>
      <trkpt lat="43.53358" lon="5.31622">
        <ele>222.2</ele>
        <time>2020-01-09T11:15:34Z</time>
      </trkpt>
      <trkpt lat="43.53361" lon="5.31625">
        <ele>222.68</ele>
        <time>2020-01-09T11:15:37Z</time>
      </trkpt>
      <trkpt lat="43.53364" lon="5.31625">
        <ele>216.43</ele>
        <time>2020-01-09T11:15:40Z</time>
      </trkpt>
      <trkpt lat="43.53365" lon="5.31626">
        <ele>225.57</ele>
        <time>2020-01-09T11:15:42Z</time>
      </trkpt>
      <trkpt lat="43.53369" lon="5.3163">
        <ele>215.47</ele>
        <time>2020-01-09T11:15:45Z</time>
      </trkpt>
      <trkpt lat="43.5337" lon="5.31631">
        <ele>228.45</ele>
        <time>2020-01-09T11:15:46Z</time>
      </trkpt>
      <trkpt lat="43.5337" lon="5.31632">
        <ele>219.8</ele>
        <time>2020-01-09T11:15:47Z</time>
      </trkpt>
      <trkpt lat="43.53371" lon="5.31633">
        <ele>223.16</ele>
        <time>2020-01-09T11:15:48Z</time>
      </trkpt>
      <trkpt lat="43.53372" lon="5.31635">
        <ele>222.68</ele>
        <time>2020-01-09T11:15:49Z</time>
      </trkpt>
      <trkpt lat="43.53375" lon="5.31646">
        <ele>221.72</ele>
        <time>2020-01-09T11:15:56Z</time>
      </trkpt>
      <trkpt lat="43.53378" lon="5.31653">
        <ele>215.47</ele>
        <time>2020-01-09T11:16:03Z</time>
      </trkpt>
      <trkpt lat="43.53378" lon="5.31655">
        <ele>229.41</ele>
        <time>2020-01-09T11:16:04Z</time>
      </trkpt>
      <trkpt lat="43.53378" lon="5.3166">
        <ele>221.72</ele>
        <time>2020-01-09T11:16:07Z</time>
      </trkpt>
      <trkpt lat="43.5338" lon="5.31677">
        <ele>224.12</ele>
        <time>2020-01-09T11:16:21Z</time>
      </trkpt>
      <trkpt lat="43.5338" lon="5.31678">
        <ele>217.88</ele>
        <time>2020-01-09T11:16:22Z</time>
      </trkpt>
      <trkpt lat="43.53381" lon="5.31678">
        <ele>225.57</ele>
        <time>2020-01-09T11:16:23Z</time>
      </trkpt>
      <trkpt lat="43.53381" lon="5.31678">
        <ele>221.24</ele>
        <time>2020-01-09T11:16:24Z</time>
      </trkpt>
      <trkpt lat="43.53382" lon="5.31679">
        <ele>219.8</ele>
        <time>2020-01-09T11:16:33Z</time>
      </trkpt>
      <trkpt lat="43.53382" lon="5.31678">
        <ele>223.64</ele>
        <time>2020-01-09T11:16:42Z</time>
      </trkpt>
      <trkpt lat="43.53381" lon="5.31678">
        <ele>215.95</ele>
        <time>2020-01-09T11:16:46Z</time>
      </trkpt>
      <trkpt lat="43.53381" lon="5.31678">
        <ele>225.57</ele>
        <time>2020-01-09T11:16:47Z</time>
      </trkpt>
      <trkpt lat="43.53381" lon="5.31678">
        <ele>221.72</ele>
        <time>2020-01-09T11:16:48Z</time>
      </trkpt>
      <trkpt lat="43.53387" lon="5.31681">
        <ele>221.24</ele>
        <time>2020-01-09T11:16:58Z</time>
      </trkpt>
      <trkpt lat="43.53393" lon="5.31677">
        <ele>221.24</ele>
        <time>2020-01-09T11:17:10Z</time>
      </trkpt>
      <trkpt lat="43.53401" lon="5.31668">
        <ele>222.2</ele>
        <time>2020-01-09T11:17:25Z</time>
      </trkpt>
      <trkpt lat="43.53408" lon="5.3166">
        <ele>223.64</ele>
        <time>2020-01-09T11:17:39Z</time>
      </trkpt>
      <trkpt lat="43.53413" lon="5.31654">
        <ele>225.09</ele>
        <time>2020-01-09T11:17:53Z</time>
      </trkpt>
      <trkpt lat="43.53421" lon="5.31643">
        <ele>226.05</ele>
        <time>2020-01-09T11:18:08Z</time>
      </trkpt>
      <trkpt lat="43.53432" lon="5.31638">
        <ele>227.49</ele>
        <time>2020-01-09T11:18:23Z</time>
      </trkpt>
      <trkpt lat="43.53442" lon="5.31631">
        <ele>228.45</ele>
        <time>2020-01-09T11:18:38Z</time>
      </trkpt>
      <trkpt lat="43.53453" lon="5.31617">
        <ele>229.41</ele>
        <time>2020-01-09T11:18:51Z</time>
      </trkpt>
      <trkpt lat="43.53462" lon="5.31607">
        <ele>230.37</ele>
        <time>2020-01-09T11:19:02Z</time>
      </trkpt>
      <trkpt lat="43.53474" lon="5.3159">
        <ele>231.33</ele>
        <time>2020-01-09T11:19:17Z</time>
      </trkpt>
      <trkpt lat="43.53476" lon="5.31587">
        <ele>231.33</ele>
        <time>2020-01-09T11:19:19Z</time>
      </trkpt>
      <trkpt lat="43.53482" lon="5.31568">
        <ele>227.49</ele>
        <time>2020-01-09T11:19:25Z</time>
      </trkpt>
      <trkpt lat="43.53482" lon="5.31567">
        <ele>235.18</ele>
        <time>2020-01-09T11:19:26Z</time>
      </trkpt>
      <trkpt lat="43.53482" lon="5.31567">
        <ele>233.74</ele>
        <time>2020-01-09T11:19:27Z</time>
      </trkpt>
      <trkpt lat="43.53483" lon="5.31566">
        <ele>232.3</ele>
        <time>2020-01-09T11:19:29Z</time>
      </trkpt>
      <trkpt lat="43.53483" lon="5.31565">
        <ele>226.53</ele>
        <time>2020-01-09T11:19:30Z</time>
      </trkpt>
      <trkpt lat="43.53483" lon="5.31565">
        <ele>234.22</ele>
        <time>2020-01-09T11:19:31Z</time>
      </trkpt>
      <trkpt lat="43.53484" lon="5.31564">
        <ele>230.37</ele>
        <time>2020-01-09T11:19:35Z</time>
      </trkpt>
      <trkpt lat="43.5349" lon="5.3156">
        <ele>224.61</ele>
        <time>2020-01-09T11:19:42Z</time>
      </trkpt>
      <trkpt lat="43.53491" lon="5.31559">
        <ele>241.43</ele>
        <time>2020-01-09T11:19:43Z</time>
      </trkpt>
      <trkpt lat="43.53491" lon="5.31558">
        <ele>233.74</ele>
        <time>2020-01-09T11:19:44Z</time>
      </trkpt>
      <trkpt lat="43.53493" lon="5.31556">
        <ele>232.78</ele>
        <time>2020-01-09T11:19:46Z</time>
      </trkpt>
      <trkpt lat="43.53501" lon="5.3155">
        <ele>233.26</ele>
        <time>2020-01-09T11:19:59Z</time>
      </trkpt>
      <trkpt lat="43.53502" lon="5.31549">
        <ele>233.26</ele>
        <time>2020-01-09T11:20:01Z</time>
      </trkpt>
      <trkpt lat="43.53506" lon="5.31547">
        <ele>233.26</ele>
        <time>2020-01-09T11:20:06Z</time>
      </trkpt>
      <trkpt lat="43.53508" lon="5.31544">
        <ele>233.74</ele>
        <time>2020-01-09T11:20:09Z</time>
      </trkpt>
      <trkpt lat="43.53513" lon="5.31542">
        <ele>234.22</ele>
        <time>2020-01-09T11:20:17Z</time>
      </trkpt>
      <trkpt lat="43.53525" lon="5.31535">
        <ele>234.7</ele>
        <time>2020-01-09T11:20:32Z</time>
      </trkpt>
      <trkpt lat="43.53526" lon="5.31534">
        <ele>234.7</ele>
        <time>2020-01-09T11:20:33Z</time>
      </trkpt>
      <trkpt lat="43.53539" lon="5.31521">
        <ele>235.66</ele>
        <time>2020-01-09T11:20:49Z</time>
      </trkpt>
      <trkpt lat="43.53549" lon="5.31512">
        <ele>236.14</ele>
        <time>2020-01-09T11:21:03Z</time>
      </trkpt>
      <trkpt lat="43.53554" lon="5.31508">
        <ele>236.14</ele>
        <time>2020-01-09T11:21:09Z</time>
      </trkpt>
      <trkpt lat="43.53556" lon="5.31505">
        <ele>236.62</ele>
        <time>2020-01-09T11:21:12Z</time>
      </trkpt>
      <trkpt lat="43.5356" lon="5.315">
        <ele>236.62</ele>
        <time>2020-01-09T11:21:18Z</time>
      </trkpt>
      <trkpt lat="43.53565" lon="5.31494">
        <ele>236.62</ele>
        <time>2020-01-09T11:21:23Z</time>
      </trkpt>
      <trkpt lat="43.53567" lon="5.31491">
        <ele>236.62</ele>
        <time>2020-01-09T11:21:26Z</time>
      </trkpt>
      <trkpt lat="43.53579" lon="5.31468">
        <ele>237.58</ele>
        <time>2020-01-09T11:21:42Z</time>
      </trkpt>
      <trkpt lat="43.53583" lon="5.31463">
        <ele>237.58</ele>
        <time>2020-01-09T11:21:47Z</time>
      </trkpt>
      <trkpt lat="43.53595" lon="5.3145">
        <ele>238.06</ele>
        <time>2020-01-09T11:22:02Z</time>
      </trkpt>
      <trkpt lat="43.53606" lon="5.31436">
        <ele>238.54</ele>
        <time>2020-01-09T11:22:16Z</time>
      </trkpt>
      <trkpt lat="43.53615" lon="5.31425">
        <ele>238.06</ele>
        <time>2020-01-09T11:22:28Z</time>
      </trkpt>
      <trkpt lat="43.53625" lon="5.31411">
        <ele>238.54</ele>
        <time>2020-01-09T11:22:41Z</time>
      </trkpt>
      <trkpt lat="43.53637" lon="5.31395">
        <ele>239.02</ele>
        <time>2020-01-09T11:22:55Z</time>
      </trkpt>
      <trkpt lat="43.53645" lon="5.31383">
        <ele>239.02</ele>
        <time>2020-01-09T11:23:08Z</time>
      </trkpt>
      <trkpt lat="43.53647" lon="5.31381">
        <ele>239.51</ele>
        <time>2020-01-09T11:23:11Z</time>
      </trkpt>
      <trkpt lat="43.53651" lon="5.31375">
        <ele>239.02</ele>
        <time>2020-01-09T11:23:16Z</time>
      </trkpt>
      <trkpt lat="43.53652" lon="5.31373">
        <ele>239.51</ele>
        <time>2020-01-09T11:23:18Z</time>
      </trkpt>
      <trkpt lat="43.53656" lon="5.31368">
        <ele>239.51</ele>
        <time>2020-01-09T11:23:23Z</time>
      </trkpt>
      <trkpt lat="43.53665" lon="5.31353">
        <ele>239.51</ele>
        <time>2020-01-09T11:23:37Z</time>
      </trkpt>
      <trkpt lat="43.5367" lon="5.31343">
        <ele>239.99</ele>
        <time>2020-01-09T11:23:48Z</time>
      </trkpt>
      <trkpt lat="43.5368" lon="5.31327">
        <ele>239.99</ele>
        <time>2020-01-09T11:24:02Z</time>
      </trkpt>
      <trkpt lat="43.53688" lon="5.31312">
        <ele>240.47</ele>
        <time>2020-01-09T11:24:16Z</time>
      </trkpt>
      <trkpt lat="43.53688" lon="5.31311">
        <ele>240.47</ele>
        <time>2020-01-09T11:24:17Z</time>
      </trkpt>
      <trkpt lat="43.53689" lon="5.31308">
        <ele>240.47</ele>
        <time>2020-01-09T11:24:19Z</time>
      </trkpt>
      <trkpt lat="43.53698" lon="5.31291">
        <ele>240.47</ele>
        <time>2020-01-09T11:24:33Z</time>
      </trkpt>
      <trkpt lat="43.53698" lon="5.3129">
        <ele>240.47</ele>
        <time>2020-01-09T11:24:34Z</time>
      </trkpt>
      <trkpt lat="43.53708" lon="5.31274">
        <ele>240.47</ele>
        <time>2020-01-09T11:24:48Z</time>
      </trkpt>
      <trkpt lat="43.53718" lon="5.3126">
        <ele>240.47</ele>
        <time>2020-01-09T11:25:03Z</time>
      </trkpt>
      <trkpt lat="43.53727" lon="5.31239">
        <ele>239.99</ele>
        <time>2020-01-09T11:25:15Z</time>
      </trkpt>
      <trkpt lat="43.53735" lon="5.31231">
        <ele>239.51</ele>
        <time>2020-01-09T11:25:27Z</time>
      </trkpt>
      <trkpt lat="43.53744" lon="5.31217">
        <ele>239.51</ele>
        <time>2020-01-09T11:25:39Z</time>
      </trkpt>
      <trkpt lat="43.53749" lon="5.31209">
        <ele>238.54</ele>
        <time>2020-01-09T11:25:47Z</time>
      </trkpt>
      <trkpt lat="43.53753" lon="5.31204">
        <ele>238.54</ele>
        <time>2020-01-09T11:25:52Z</time>
      </trkpt>
      <trkpt lat="43.53762" lon="5.31185">
        <ele>238.06</ele>
        <time>2020-01-09T11:26:06Z</time>
      </trkpt>
      <trkpt lat="43.53769" lon="5.3117">
        <ele>236.62</ele>
        <time>2020-01-09T11:26:19Z</time>
      </trkpt>
      <trkpt lat="43.5377" lon="5.31165">
        <ele>236.62</ele>
        <time>2020-01-09T11:26:23Z</time>
      </trkpt>
      <trkpt lat="43.53771" lon="5.31161">
        <ele>236.14</ele>
        <time>2020-01-09T11:26:26Z</time>
      </trkpt>
      <trkpt lat="43.53774" lon="5.31158">
        <ele>235.66</ele>
        <time>2020-01-09T11:26:30Z</time>
      </trkpt>
      <trkpt lat="43.53778" lon="5.3115">
        <ele>234.22</ele>
        <time>2020-01-09T11:26:44Z</time>
      </trkpt>
      <trkpt lat="43.5378" lon="5.31146">
        <ele>233.74</ele>
        <time>2020-01-09T11:26:58Z</time>
      </trkpt>
      <trkpt lat="43.53779" lon="5.31143">
        <ele>233.74</ele>
        <time>2020-01-09T11:27:06Z</time>
      </trkpt>
      <trkpt lat="43.53775" lon="5.3114">
        <ele>234.22</ele>
        <time>2020-01-09T11:27:11Z</time>
      </trkpt>
      <trkpt lat="43.53765" lon="5.31135">
        <ele>233.74</ele>
        <time>2020-01-09T11:27:20Z</time>
      </trkpt>
      <trkpt lat="43.53764" lon="5.31133">
        <ele>235.66</ele>
        <time>2020-01-09T11:27:22Z</time>
      </trkpt>
      <trkpt lat="43.53762" lon="5.31132">
        <ele>241.43</ele>
        <time>2020-01-09T11:27:24Z</time>
      </trkpt>
      <trkpt lat="43.53761" lon="5.31132">
        <ele>233.74</ele>
        <time>2020-01-09T11:27:25Z</time>
      </trkpt>
      <trkpt lat="43.5376" lon="5.31131">
        <ele>228.93</ele>
        <time>2020-01-09T11:27:26Z</time>
      </trkpt>
      <trkpt lat="43.53759" lon="5.3113">
        <ele>235.66</ele>
        <time>2020-01-09T11:27:27Z</time>
      </trkpt>
      <trkpt lat="43.53756" lon="5.31128">
        <ele>233.26</ele>
        <time>2020-01-09T11:27:31Z</time>
      </trkpt>
      <trkpt lat="43.53742" lon="5.31116">
        <ele>232.3</ele>
        <time>2020-01-09T11:27:48Z</time>
      </trkpt>
      <trkpt lat="43.53738" lon="5.31115">
        <ele>231.81</ele>
        <time>2020-01-09T11:27:51Z</time>
      </trkpt>
      <trkpt lat="43.53721" lon="5.31106">
        <ele>231.33</ele>
        <time>2020-01-09T11:28:07Z</time>
      </trkpt>
      <trkpt lat="43.53707" lon="5.31097">
        <ele>231.33</ele>
        <time>2020-01-09T11:28:21Z</time>
      </trkpt>
      <trkpt lat="43.537" lon="5.3109">
        <ele>224.61</ele>
        <time>2020-01-09T11:28:29Z</time>
      </trkpt>
      <trkpt lat="43.53699" lon="5.31089">
        <ele>236.62</ele>
        <time>2020-01-09T11:28:30Z</time>
      </trkpt>
      <trkpt lat="43.53698" lon="5.31087">
        <ele>224.61</ele>
        <time>2020-01-09T11:28:31Z</time>
      </trkpt>
      <trkpt lat="43.53697" lon="5.31086">
        <ele>239.99</ele>
        <time>2020-01-09T11:28:32Z</time>
      </trkpt>
      <trkpt lat="43.53693" lon="5.31079">
        <ele>221.72</ele>
        <time>2020-01-09T11:28:38Z</time>
      </trkpt>
      <trkpt lat="43.53692" lon="5.31078">
        <ele>236.62</ele>
        <time>2020-01-09T11:28:39Z</time>
      </trkpt>
      <trkpt lat="43.53691" lon="5.31076">
        <ele>227.97</ele>
        <time>2020-01-09T11:28:40Z</time>
      </trkpt>
      <trkpt lat="43.53691" lon="5.31075">
        <ele>236.14</ele>
        <time>2020-01-09T11:28:41Z</time>
      </trkpt>
      <trkpt lat="43.53691" lon="5.31073">
        <ele>231.33</ele>
        <time>2020-01-09T11:28:42Z</time>
      </trkpt>
      <trkpt lat="43.53691" lon="5.31062">
        <ele>231.33</ele>
        <time>2020-01-09T11:28:51Z</time>
      </trkpt>
      <trkpt lat="43.53689" lon="5.31056">
        <ele>230.85</ele>
        <time>2020-01-09T11:28:56Z</time>
      </trkpt>
      <trkpt lat="43.53689" lon="5.31051">
        <ele>230.85</ele>
        <time>2020-01-09T11:28:59Z</time>
      </trkpt>
      <trkpt lat="43.53682" lon="5.31035">
        <ele>230.37</ele>
        <time>2020-01-09T11:29:13Z</time>
      </trkpt>
      <trkpt lat="43.53678" lon="5.31017">
        <ele>230.85</ele>
        <time>2020-01-09T11:29:25Z</time>
      </trkpt>
      <trkpt lat="43.53662" lon="5.31012">
        <ele>231.33</ele>
        <time>2020-01-09T11:29:40Z</time>
      </trkpt>
      <trkpt lat="43.53648" lon="5.31011">
        <ele>231.81</ele>
        <time>2020-01-09T11:29:53Z</time>
      </trkpt>
      <trkpt lat="43.53635" lon="5.3101">
        <ele>232.78</ele>
        <time>2020-01-09T11:30:08Z</time>
      </trkpt>
      <trkpt lat="43.53619" lon="5.31008">
        <ele>233.26</ele>
        <time>2020-01-09T11:30:25Z</time>
      </trkpt>
      <trkpt lat="43.53606" lon="5.31008">
        <ele>233.74</ele>
        <time>2020-01-09T11:30:38Z</time>
      </trkpt>
      <trkpt lat="43.53605" lon="5.31008">
        <ele>233.74</ele>
        <time>2020-01-09T11:30:39Z</time>
      </trkpt>
      <trkpt lat="43.53596" lon="5.31008">
        <ele>233.74</ele>
        <time>2020-01-09T11:30:47Z</time>
      </trkpt>
      <trkpt lat="43.53592" lon="5.31008">
        <ele>233.74</ele>
        <time>2020-01-09T11:30:50Z</time>
      </trkpt>
      <trkpt lat="43.53572" lon="5.31012">
        <ele>234.22</ele>
        <time>2020-01-09T11:31:05Z</time>
      </trkpt>
      <trkpt lat="43.53557" lon="5.31018">
        <ele>234.22</ele>
        <time>2020-01-09T11:31:18Z</time>
      </trkpt>
      <trkpt lat="43.53539" lon="5.31025">
        <ele>234.22</ele>
        <time>2020-01-09T11:31:35Z</time>
      </trkpt>
      <trkpt lat="43.53526" lon="5.3103">
        <ele>233.74</ele>
        <time>2020-01-09T11:31:49Z</time>
      </trkpt>
      <trkpt lat="43.53523" lon="5.31032">
        <ele>233.26</ele>
        <time>2020-01-09T11:31:52Z</time>
      </trkpt>
      <trkpt lat="43.53517" lon="5.31033">
        <ele>233.26</ele>
        <time>2020-01-09T11:32:08Z</time>
      </trkpt>
      <trkpt lat="43.53516" lon="5.31028">
        <ele>233.26</ele>
        <time>2020-01-09T11:32:24Z</time>
      </trkpt>
      <trkpt lat="43.53516" lon="5.31027">
        <ele>237.58</ele>
        <time>2020-01-09T11:32:30Z</time>
      </trkpt>
      <trkpt lat="43.53517" lon="5.31027">
        <ele>227.49</ele>
        <time>2020-01-09T11:32:31Z</time>
      </trkpt>
      <trkpt lat="43.53517" lon="5.31027">
        <ele>237.58</ele>
        <time>2020-01-09T11:32:32Z</time>
      </trkpt>
      <trkpt lat="43.53517" lon="5.31027">
        <ele>234.22</ele>
        <time>2020-01-09T11:32:34Z</time>
      </trkpt>
      <trkpt lat="43.53517" lon="5.31027">
        <ele>234.7</ele>
        <time>2020-01-09T11:32:35Z</time>
      </trkpt>
      <trkpt lat="43.53516" lon="5.31026">
        <ele>233.26</ele>
        <time>2020-01-09T11:32:50Z</time>
      </trkpt>
      <trkpt lat="43.53516" lon="5.31022">
        <ele>232.78</ele>
        <time>2020-01-09T11:33:06Z</time>
      </trkpt>
      <trkpt lat="43.53515" lon="5.3102">
        <ele>232.78</ele>
        <time>2020-01-09T11:33:21Z</time>
      </trkpt>
      <trkpt lat="43.53515" lon="5.31021">
        <ele>232.78</ele>
        <time>2020-01-09T11:33:49Z</time>
      </trkpt>
      <trkpt lat="43.53514" lon="5.3102">
        <ele>232.3</ele>
        <time>2020-01-09T11:34:24Z</time>
      </trkpt>
      <trkpt lat="43.53514" lon="5.31019">
        <ele>232.78</ele>
        <time>2020-01-09T11:34:55Z</time>
      </trkpt>
      <trkpt lat="43.53514" lon="5.31019">
        <ele>232.78</ele>
        <time>2020-01-09T11:35:28Z</time>
      </trkpt>
      <trkpt lat="43.53514" lon="5.31018">
        <ele>232.78</ele>
        <time>2020-01-09T11:35:56Z</time>
      </trkpt>
      <trkpt lat="43.53514" lon="5.31016">
        <ele>232.78</ele>
        <time>2020-01-09T11:36:24Z</time>
      </trkpt>
      <trkpt lat="43.53514" lon="5.31016">
        <ele>232.78</ele>
        <time>2020-01-09T11:36:48Z</time>
      </trkpt>
      <trkpt lat="43.53514" lon="5.31017">
        <ele>232.78</ele>
        <time>2020-01-09T11:37:08Z</time>
      </trkpt>
      <trkpt lat="43.53513" lon="5.31018">
        <ele>232.78</ele>
        <time>2020-01-09T11:37:38Z</time>
      </trkpt>
      <trkpt lat="43.53514" lon="5.31017">
        <ele>232.78</ele>
        <time>2020-01-09T11:38:12Z</time>
      </trkpt>
      <trkpt lat="43.53515" lon="5.31016">
        <ele>232.78</ele>
        <time>2020-01-09T11:38:41Z</time>
      </trkpt>
      <trkpt lat="43.53515" lon="5.31019">
        <ele>232.78</ele>
        <time>2020-01-09T11:39:14Z</time>
      </trkpt>
      <trkpt lat="43.53514" lon="5.3102">
        <ele>232.78</ele>
        <time>2020-01-09T11:39:49Z</time>
      </trkpt>
      <trkpt lat="43.53515" lon="5.3102">
        <ele>232.3</ele>
        <time>2020-01-09T11:40:24Z</time>
      </trkpt>
      <trkpt lat="43.53514" lon="5.3102">
        <ele>232.3</ele>
        <time>2020-01-09T11:41:01Z</time>
      </trkpt>
      <trkpt lat="43.53514" lon="5.31022">
        <ele>232.3</ele>
        <time>2020-01-09T11:41:38Z</time>
      </trkpt>
      <trkpt lat="43.53513" lon="5.31021">
        <ele>231.81</ele>
        <time>2020-01-09T11:42:12Z</time>
      </trkpt>
      <trkpt lat="43.53513" lon="5.31021">
        <ele>231.81</ele>
        <time>2020-01-09T11:42:45Z</time>
      </trkpt>
      <trkpt lat="43.53513" lon="5.3102">
        <ele>231.81</ele>
        <time>2020-01-09T11:43:17Z</time>
      </trkpt>
      <trkpt lat="43.53514" lon="5.31018">
        <ele>231.81</ele>
        <time>2020-01-09T11:43:55Z</time>
      </trkpt>
      <trkpt lat="43.53513" lon="5.31018">
        <ele>231.81</ele>
        <time>2020-01-09T11:44:30Z</time>
      </trkpt>
      <trkpt lat="43.53513" lon="5.31019">
        <ele>231.81</ele>
        <time>2020-01-09T11:45:04Z</time>
      </trkpt>
      <trkpt lat="43.53514" lon="5.31019">
        <ele>231.81</ele>
        <time>2020-01-09T11:45:41Z</time>
      </trkpt>
      <trkpt lat="43.53514" lon="5.3102">
        <ele>231.33</ele>
        <time>2020-01-09T11:46:15Z</time>
      </trkpt>
      <trkpt lat="43.53514" lon="5.31021">
        <ele>231.33</ele>
        <time>2020-01-09T11:46:47Z</time>
      </trkpt>
      <trkpt lat="43.53515" lon="5.31021">
        <ele>231.33</ele>
        <time>2020-01-09T11:47:15Z</time>
      </trkpt>
      <trkpt lat="43.53515" lon="5.3102">
        <ele>231.33</ele>
        <time>2020-01-09T11:47:50Z</time>
      </trkpt>
      <trkpt lat="43.53515" lon="5.31019">
        <ele>230.85</ele>
        <time>2020-01-09T11:48:26Z</time>
      </trkpt>
      <trkpt lat="43.53514" lon="5.31018">
        <ele>230.85</ele>
        <time>2020-01-09T11:48:56Z</time>
      </trkpt>
      <trkpt lat="43.53513" lon="5.31019">
        <ele>230.85</ele>
        <time>2020-01-09T11:49:27Z</time>
      </trkpt>
      <trkpt lat="43.53512" lon="5.31018">
        <ele>230.85</ele>
        <time>2020-01-09T11:49:58Z</time>
      </trkpt>
      <trkpt lat="43.53511" lon="5.31017">
        <ele>230.85</ele>
        <time>2020-01-09T11:50:32Z</time>
      </trkpt>
      <trkpt lat="43.53511" lon="5.31016">
        <ele>230.85</ele>
        <time>2020-01-09T11:50:59Z</time>
      </trkpt>
      <trkpt lat="43.5351" lon="5.31017">
        <ele>230.85</ele>
        <time>2020-01-09T11:51:26Z</time>
      </trkpt>
      <trkpt lat="43.5351" lon="5.31015">
        <ele>230.85</ele>
        <time>2020-01-09T11:51:57Z</time>
      </trkpt>
      <trkpt lat="43.53511" lon="5.31016">
        <ele>230.85</ele>
        <time>2020-01-09T11:52:25Z</time>
      </trkpt>
      <trkpt lat="43.5351" lon="5.31018">
        <ele>230.85</ele>
        <time>2020-01-09T11:52:55Z</time>
      </trkpt>
      <trkpt lat="43.5351" lon="5.31017">
        <ele>230.85</ele>
        <time>2020-01-09T11:53:21Z</time>
      </trkpt>
      <trkpt lat="43.5351" lon="5.31018">
        <ele>230.85</ele>
        <time>2020-01-09T11:53:48Z</time>
      </trkpt>
      <trkpt lat="43.5351" lon="5.31019">
        <ele>230.85</ele>
        <time>2020-01-09T11:54:17Z</time>
      </trkpt>
      <trkpt lat="43.5351" lon="5.31018">
        <ele>230.85</ele>
        <time>2020-01-09T11:54:48Z</time>
      </trkpt>
      <trkpt lat="43.5351" lon="5.31017">
        <ele>230.85</ele>
        <time>2020-01-09T11:55:17Z</time>
      </trkpt>
      <trkpt lat="43.5351" lon="5.31016">
        <ele>230.85</ele>
        <time>2020-01-09T11:55:46Z</time>
      </trkpt>
      <trkpt lat="43.5351" lon="5.31018">
        <ele>230.85</ele>
        <time>2020-01-09T11:56:18Z</time>
      </trkpt>
      <trkpt lat="43.5351" lon="5.31019">
        <ele>230.85</ele>
        <time>2020-01-09T11:56:47Z</time>
      </trkpt>
      <trkpt lat="43.53509" lon="5.31021">
        <ele>231.33</ele>
        <time>2020-01-09T11:57:19Z</time>
      </trkpt>
      <trkpt lat="43.53511" lon="5.31021">
        <ele>230.85</ele>
        <time>2020-01-09T11:57:50Z</time>
      </trkpt>
      <trkpt lat="43.53512" lon="5.31021">
        <ele>231.33</ele>
        <time>2020-01-09T11:58:23Z</time>
      </trkpt>
      <trkpt lat="43.53513" lon="5.31021">
        <ele>231.33</ele>
        <time>2020-01-09T11:58:52Z</time>
      </trkpt>
      <trkpt lat="43.53514" lon="5.31021">
        <ele>231.33</ele>
        <time>2020-01-09T11:59:26Z</time>
      </trkpt>
      <trkpt lat="43.53513" lon="5.31021">
        <ele>231.33</ele>
        <time>2020-01-09T11:59:52Z</time>
      </trkpt>
      <trkpt lat="43.53513" lon="5.3102">
        <ele>231.33</ele>
        <time>2020-01-09T12:00:24Z</time>
      </trkpt>
      <trkpt lat="43.53512" lon="5.3102">
        <ele>231.81</ele>
        <time>2020-01-09T12:00:56Z</time>
      </trkpt>
      <trkpt lat="43.53512" lon="5.3102">
        <ele>231.81</ele>
        <time>2020-01-09T12:01:31Z</time>
      </trkpt>
      <trkpt lat="43.53513" lon="5.3102">
        <ele>231.81</ele>
        <time>2020-01-09T12:02:02Z</time>
      </trkpt>
      <trkpt lat="43.53513" lon="5.31018">
        <ele>231.81</ele>
        <time>2020-01-09T12:02:36Z</time>
      </trkpt>
      <trkpt lat="43.53514" lon="5.31018">
        <ele>231.81</ele>
        <time>2020-01-09T12:03:10Z</time>
      </trkpt>
      <trkpt lat="43.53512" lon="5.31017">
        <ele>232.3</ele>
        <time>2020-01-09T12:03:39Z</time>
      </trkpt>
      <trkpt lat="43.53513" lon="5.31017">
        <ele>232.3</ele>
        <time>2020-01-09T12:04:07Z</time>
      </trkpt>
      <trkpt lat="43.53513" lon="5.31018">
        <ele>232.3</ele>
        <time>2020-01-09T12:04:44Z</time>
      </trkpt>
      <trkpt lat="43.53513" lon="5.3102">
        <ele>232.78</ele>
        <time>2020-01-09T12:05:14Z</time>
      </trkpt>
      <trkpt lat="43.53512" lon="5.31021">
        <ele>232.78</ele>
        <time>2020-01-09T12:05:41Z</time>
      </trkpt>
      <trkpt lat="43.53513" lon="5.31021">
        <ele>232.78</ele>
        <time>2020-01-09T12:06:16Z</time>
      </trkpt>
      <trkpt lat="43.53513" lon="5.31019">
        <ele>233.26</ele>
        <time>2020-01-09T12:06:49Z</time>
      </trkpt>
      <trkpt lat="43.53514" lon="5.31019">
        <ele>232.78</ele>
        <time>2020-01-09T12:07:20Z</time>
      </trkpt>
      <trkpt lat="43.53513" lon="5.31019">
        <ele>232.78</ele>
        <time>2020-01-09T12:07:52Z</time>
      </trkpt>
      <trkpt lat="43.53511" lon="5.31017">
        <ele>232.78</ele>
        <time>2020-01-09T12:08:26Z</time>
      </trkpt>
      <trkpt lat="43.53511" lon="5.31016">
        <ele>232.78</ele>
        <time>2020-01-09T12:09:00Z</time>
      </trkpt>
      <trkpt lat="43.53513" lon="5.31018">
        <ele>232.78</ele>
        <time>2020-01-09T12:09:30Z</time>
      </trkpt>
      <trkpt lat="43.53514" lon="5.31018">
        <ele>232.78</ele>
        <time>2020-01-09T12:10:02Z</time>
      </trkpt>
      <trkpt lat="43.53513" lon="5.31017">
        <ele>232.78</ele>
        <time>2020-01-09T12:10:35Z</time>
      </trkpt>
      <trkpt lat="43.53513" lon="5.31017">
        <ele>232.78</ele>
        <time>2020-01-09T12:11:06Z</time>
      </trkpt>
      <trkpt lat="43.53513" lon="5.31016">
        <ele>232.78</ele>
        <time>2020-01-09T12:11:40Z</time>
      </trkpt>
      <trkpt lat="43.53512" lon="5.31016">
        <ele>232.78</ele>
        <time>2020-01-09T12:12:01Z</time>
      </trkpt>
      <trkpt lat="43.53512" lon="5.31017">
        <ele>232.78</ele>
        <time>2020-01-09T12:12:31Z</time>
      </trkpt>
      <trkpt lat="43.53512" lon="5.31017">
        <ele>232.3</ele>
        <time>2020-01-09T12:13:01Z</time>
      </trkpt>
      <trkpt lat="43.53512" lon="5.31017">
        <ele>232.3</ele>
        <time>2020-01-09T12:13:35Z</time>
      </trkpt>
      <trkpt lat="43.53513" lon="5.31017">
        <ele>232.3</ele>
        <time>2020-01-09T12:14:00Z</time>
      </trkpt>
      <trkpt lat="43.53513" lon="5.31017">
        <ele>232.3</ele>
        <time>2020-01-09T12:14:30Z</time>
      </trkpt>
      <trkpt lat="43.53513" lon="5.31017">
        <ele>232.3</ele>
        <time>2020-01-09T12:14:56Z</time>
      </trkpt>
      <trkpt lat="43.53513" lon="5.31018">
        <ele>231.81</ele>
        <time>2020-01-09T12:15:31Z</time>
      </trkpt>
      <trkpt lat="43.53512" lon="5.31019">
        <ele>231.81</ele>
        <time>2020-01-09T12:16:04Z</time>
      </trkpt>
      <trkpt lat="43.53512" lon="5.31019">
        <ele>232.78</ele>
        <time>2020-01-09T12:16:21Z</time>
      </trkpt>
      <trkpt lat="43.53511" lon="5.31019">
        <ele>232.78</ele>
        <time>2020-01-09T12:16:38Z</time>
      </trkpt>
      <trkpt lat="43.53511" lon="5.31019">
        <ele>232.3</ele>
        <time>2020-01-09T12:17:02Z</time>
      </trkpt>
      <trkpt lat="43.53508" lon="5.31021">
        <ele>232.3</ele>
        <time>2020-01-09T12:17:20Z</time>
      </trkpt>
      <trkpt lat="43.53504" lon="5.31027">
        <ele>232.3</ele>
        <time>2020-01-09T12:17:41Z</time>
      </trkpt>
      <trkpt lat="43.53503" lon="5.31036">
        <ele>232.3</ele>
        <time>2020-01-09T12:17:55Z</time>
      </trkpt>
      <trkpt lat="43.53494" lon="5.31038">
        <ele>231.33</ele>
        <time>2020-01-09T12:18:11Z</time>
      </trkpt>
      <trkpt lat="43.53484" lon="5.31042">
        <ele>230.37</ele>
        <time>2020-01-09T12:18:26Z</time>
      </trkpt>
      <trkpt lat="43.53479" lon="5.31045">
        <ele>230.37</ele>
        <time>2020-01-09T12:18:33Z</time>
      </trkpt>
      <trkpt lat="43.53466" lon="5.31048">
        <ele>229.41</ele>
        <time>2020-01-09T12:18:50Z</time>
      </trkpt>
      <trkpt lat="43.53453" lon="5.31054">
        <ele>228.45</ele>
        <time>2020-01-09T12:19:04Z</time>
      </trkpt>
      <trkpt lat="43.53445" lon="5.31058">
        <ele>227.97</ele>
        <time>2020-01-09T12:19:16Z</time>
      </trkpt>
      <trkpt lat="43.53444" lon="5.31058">
        <ele>227.97</ele>
        <time>2020-01-09T12:19:17Z</time>
      </trkpt>
      <trkpt lat="43.5343" lon="5.31062">
        <ele>227.01</ele>
        <time>2020-01-09T12:19:33Z</time>
      </trkpt>
      <trkpt lat="43.53424" lon="5.31063">
        <ele>226.53</ele>
        <time>2020-01-09T12:19:39Z</time>
      </trkpt>
      <trkpt lat="43.53414" lon="5.31064">
        <ele>226.05</ele>
        <time>2020-01-09T12:19:49Z</time>
      </trkpt>
      <trkpt lat="43.5341" lon="5.31066">
        <ele>225.57</ele>
        <time>2020-01-09T12:19:53Z</time>
      </trkpt>
      <trkpt lat="43.53402" lon="5.31069">
        <ele>225.09</ele>
        <time>2020-01-09T12:20:02Z</time>
      </trkpt>
      <trkpt lat="43.53394" lon="5.31075">
        <ele>224.61</ele>
        <time>2020-01-09T12:20:12Z</time>
      </trkpt>
      <trkpt lat="43.53391" lon="5.31076">
        <ele>224.61</ele>
        <time>2020-01-09T12:20:15Z</time>
      </trkpt>
      <trkpt lat="43.53381" lon="5.31082">
        <ele>224.12</ele>
        <time>2020-01-09T12:20:29Z</time>
      </trkpt>
      <trkpt lat="43.53378" lon="5.31082">
        <ele>223.64</ele>
        <time>2020-01-09T12:20:32Z</time>
      </trkpt>
      <trkpt lat="43.53371" lon="5.31086">
        <ele>223.64</ele>
        <time>2020-01-09T12:20:39Z</time>
      </trkpt>
      <trkpt lat="43.53369" lon="5.31087">
        <ele>223.64</ele>
        <time>2020-01-09T12:20:42Z</time>
      </trkpt>
      <trkpt lat="43.5336" lon="5.31087">
        <ele>223.16</ele>
        <time>2020-01-09T12:20:52Z</time>
      </trkpt>
      <trkpt lat="43.53345" lon="5.31092">
        <ele>222.68</ele>
        <time>2020-01-09T12:21:07Z</time>
      </trkpt>
      <trkpt lat="43.53333" lon="5.31098">
        <ele>222.2</ele>
        <time>2020-01-09T12:21:21Z</time>
      </trkpt>
      <trkpt lat="43.5332" lon="5.31104">
        <ele>221.72</ele>
        <time>2020-01-09T12:21:35Z</time>
      </trkpt>
      <trkpt lat="43.53319" lon="5.31105">
        <ele>221.72</ele>
        <time>2020-01-09T12:21:36Z</time>
      </trkpt>
      <trkpt lat="43.53309" lon="5.31111">
        <ele>221.24</ele>
        <time>2020-01-09T12:21:46Z</time>
      </trkpt>
      <trkpt lat="43.53302" lon="5.31116">
        <ele>220.76</ele>
        <time>2020-01-09T12:21:53Z</time>
      </trkpt>
      <trkpt lat="43.53292" lon="5.31119">
        <ele>219.8</ele>
        <time>2020-01-09T12:22:08Z</time>
      </trkpt>
      <trkpt lat="43.5329" lon="5.31119">
        <ele>219.8</ele>
        <time>2020-01-09T12:22:11Z</time>
      </trkpt>
      <trkpt lat="43.53284" lon="5.31112">
        <ele>219.32</ele>
        <time>2020-01-09T12:22:26Z</time>
      </trkpt>
      <trkpt lat="43.5327" lon="5.31109">
        <ele>218.84</ele>
        <time>2020-01-09T12:22:39Z</time>
      </trkpt>
      <trkpt lat="43.53259" lon="5.31107">
        <ele>217.88</ele>
        <time>2020-01-09T12:22:47Z</time>
      </trkpt>
      <trkpt lat="43.53248" lon="5.31111">
        <ele>216.91</ele>
        <time>2020-01-09T12:23:02Z</time>
      </trkpt>
      <trkpt lat="43.53246" lon="5.3111">
        <ele>216.91</ele>
        <time>2020-01-09T12:23:04Z</time>
      </trkpt>
      <trkpt lat="43.53237" lon="5.31098">
        <ele>216.43</ele>
        <time>2020-01-09T12:23:20Z</time>
      </trkpt>
      <trkpt lat="43.53235" lon="5.31095">
        <ele>216.43</ele>
        <time>2020-01-09T12:23:24Z</time>
      </trkpt>
      <trkpt lat="43.53231" lon="5.31083">
        <ele>215.95</ele>
        <time>2020-01-09T12:23:34Z</time>
      </trkpt>
      <trkpt lat="43.53224" lon="5.31078">
        <ele>215.47</ele>
        <time>2020-01-09T12:23:40Z</time>
      </trkpt>
      <trkpt lat="43.53209" lon="5.3107">
        <ele>214.51</ele>
        <time>2020-01-09T12:23:54Z</time>
      </trkpt>
      <trkpt lat="43.5319" lon="5.31058">
        <ele>213.55</ele>
        <time>2020-01-09T12:24:10Z</time>
      </trkpt>
      <trkpt lat="43.53189" lon="5.31057">
        <ele>214.03</ele>
        <time>2020-01-09T12:24:11Z</time>
      </trkpt>
      <trkpt lat="43.53178" lon="5.31048">
        <ele>213.07</ele>
        <time>2020-01-09T12:24:21Z</time>
      </trkpt>
      <trkpt lat="43.53162" lon="5.31041">
        <ele>212.11</ele>
        <time>2020-01-09T12:24:37Z</time>
      </trkpt>
      <trkpt lat="43.53151" lon="5.31039">
        <ele>211.63</ele>
        <time>2020-01-09T12:24:44Z</time>
      </trkpt>
      <trkpt lat="43.53135" lon="5.31033">
        <ele>210.67</ele>
        <time>2020-01-09T12:25:00Z</time>
      </trkpt>
      <trkpt lat="43.5312" lon="5.31023">
        <ele>210.19</ele>
        <time>2020-01-09T12:25:14Z</time>
      </trkpt>
      <trkpt lat="43.53105" lon="5.31018">
        <ele>209.22</ele>
        <time>2020-01-09T12:25:28Z</time>
      </trkpt>
      <trkpt lat="43.531" lon="5.31012">
        <ele>208.26</ele>
        <time>2020-01-09T12:25:34Z</time>
      </trkpt>
      <trkpt lat="43.53095" lon="5.31006">
        <ele>207.78</ele>
        <time>2020-01-09T12:25:40Z</time>
      </trkpt>
      <trkpt lat="43.5309" lon="5.30986">
        <ele>206.34</ele>
        <time>2020-01-09T12:25:57Z</time>
      </trkpt>
      <trkpt lat="43.53086" lon="5.30973">
        <ele>204.9</ele>
        <time>2020-01-09T12:26:10Z</time>
      </trkpt>
      <trkpt lat="43.53077" lon="5.3096">
        <ele>203.46</ele>
        <time>2020-01-09T12:26:24Z</time>
      </trkpt>
      <trkpt lat="43.53074" lon="5.30954">
        <ele>193.84</ele>
        <time>2020-01-09T12:26:28Z</time>
      </trkpt>
      <trkpt lat="43.53073" lon="5.30953">
        <ele>208.74</ele>
        <time>2020-01-09T12:26:29Z</time>
      </trkpt>
      <trkpt lat="43.53073" lon="5.30952">
        <ele>202.98</ele>
        <time>2020-01-09T12:26:30Z</time>
      </trkpt>
      <trkpt lat="43.53066" lon="5.30944">
        <ele>201.53</ele>
        <time>2020-01-09T12:26:37Z</time>
      </trkpt>
      <trkpt lat="43.53059" lon="5.30935">
        <ele>199.13</ele>
        <time>2020-01-09T12:26:50Z</time>
      </trkpt>
      <trkpt lat="43.53051" lon="5.30931">
        <ele>197.69</ele>
        <time>2020-01-09T12:27:01Z</time>
      </trkpt>
      <trkpt lat="43.5305" lon="5.30927">
        <ele>195.28</ele>
        <time>2020-01-09T12:27:15Z</time>
      </trkpt>
      <trkpt lat="43.5305" lon="5.30916">
        <ele>194.8</ele>
        <time>2020-01-09T12:27:24Z</time>
      </trkpt>
      <trkpt lat="43.53049" lon="5.30909">
        <ele>193.84</ele>
        <time>2020-01-09T12:27:32Z</time>
      </trkpt>
      <trkpt lat="43.53052" lon="5.30904">
        <ele>193.36</ele>
        <time>2020-01-09T12:27:40Z</time>
      </trkpt>
      <trkpt lat="43.53061" lon="5.30882">
        <ele>192.88</ele>
        <time>2020-01-09T12:27:55Z</time>
      </trkpt>
      <trkpt lat="43.53058" lon="5.30864">
        <ele>191.44</ele>
        <time>2020-01-09T12:28:09Z</time>
      </trkpt>
      <trkpt lat="43.53057" lon="5.30858">
        <ele>191.44</ele>
        <time>2020-01-09T12:28:13Z</time>
      </trkpt>
      <trkpt lat="43.53056" lon="5.30853">
        <ele>191.44</ele>
        <time>2020-01-09T12:28:15Z</time>
      </trkpt>
      <trkpt lat="43.53043" lon="5.30837">
        <ele>190.96</ele>
        <time>2020-01-09T12:28:29Z</time>
      </trkpt>
      <trkpt lat="43.53043" lon="5.30836">
        <ele>190.96</ele>
        <time>2020-01-09T12:28:30Z</time>
      </trkpt>
      <trkpt lat="43.53041" lon="5.30832">
        <ele>190.96</ele>
        <time>2020-01-09T12:28:34Z</time>
      </trkpt>
      <trkpt lat="43.5303" lon="5.30818">
        <ele>190.48</ele>
        <time>2020-01-09T12:28:47Z</time>
      </trkpt>
      <trkpt lat="43.53023" lon="5.30811">
        <ele>190.48</ele>
        <time>2020-01-09T12:28:55Z</time>
      </trkpt>
      <trkpt lat="43.53011" lon="5.30795">
        <ele>190.48</ele>
        <time>2020-01-09T12:29:09Z</time>
      </trkpt>
      <trkpt lat="43.53009" lon="5.30787">
        <ele>190.96</ele>
        <time>2020-01-09T12:29:17Z</time>
      </trkpt>
      <trkpt lat="43.53008" lon="5.30779">
        <ele>190.96</ele>
        <time>2020-01-09T12:29:22Z</time>
      </trkpt>
      <trkpt lat="43.53004" lon="5.30774">
        <ele>191.92</ele>
        <time>2020-01-09T12:29:28Z</time>
      </trkpt>
      <trkpt lat="43.52996" lon="5.30771">
        <ele>192.88</ele>
        <time>2020-01-09T12:29:41Z</time>
      </trkpt>
      <trkpt lat="43.52991" lon="5.30768">
        <ele>195.77</ele>
        <time>2020-01-09T12:29:52Z</time>
      </trkpt>
      <trkpt lat="43.52987" lon="5.30767">
        <ele>193.36</ele>
        <time>2020-01-09T12:29:55Z</time>
      </trkpt>
      <trkpt lat="43.5298" lon="5.30767">
        <ele>187.11</ele>
        <time>2020-01-09T12:30:01Z</time>
      </trkpt>
      <trkpt lat="43.52979" lon="5.30767">
        <ele>199.61</ele>
        <time>2020-01-09T12:30:02Z</time>
      </trkpt>
      <trkpt lat="43.52978" lon="5.30767">
        <ele>196.73</ele>
        <time>2020-01-09T12:30:03Z</time>
      </trkpt>
      <trkpt lat="43.52977" lon="5.30766">
        <ele>194.32</ele>
        <time>2020-01-09T12:30:05Z</time>
      </trkpt>
      <trkpt lat="43.52974" lon="5.30766">
        <ele>188.08</ele>
        <time>2020-01-09T12:30:09Z</time>
      </trkpt>
      <trkpt lat="43.52973" lon="5.30765">
        <ele>201.05</ele>
        <time>2020-01-09T12:30:10Z</time>
      </trkpt>
      <trkpt lat="43.52972" lon="5.30765">
        <ele>195.28</ele>
        <time>2020-01-09T12:30:11Z</time>
      </trkpt>
      <trkpt lat="43.52968" lon="5.30764">
        <ele>191.44</ele>
        <time>2020-01-09T12:30:17Z</time>
      </trkpt>
      <trkpt lat="43.52967" lon="5.30764">
        <ele>199.13</ele>
        <time>2020-01-09T12:30:18Z</time>
      </trkpt>
      <trkpt lat="43.52965" lon="5.30764">
        <ele>195.28</ele>
        <time>2020-01-09T12:30:21Z</time>
      </trkpt>
      <trkpt lat="43.52963" lon="5.30765">
        <ele>191.44</ele>
        <time>2020-01-09T12:30:25Z</time>
      </trkpt>
      <trkpt lat="43.52962" lon="5.30765">
        <ele>202.01</ele>
        <time>2020-01-09T12:30:26Z</time>
      </trkpt>
      <trkpt lat="43.52962" lon="5.30765">
        <ele>198.17</ele>
        <time>2020-01-09T12:30:27Z</time>
      </trkpt>
      <trkpt lat="43.52962" lon="5.30764">
        <ele>193.84</ele>
        <time>2020-01-09T12:30:28Z</time>
      </trkpt>
      <trkpt lat="43.52961" lon="5.30764">
        <ele>193.36</ele>
        <time>2020-01-09T12:30:29Z</time>
      </trkpt>
      <trkpt lat="43.52961" lon="5.30764">
        <ele>204.42</ele>
        <time>2020-01-09T12:30:30Z</time>
      </trkpt>
      <trkpt lat="43.52961" lon="5.30764">
        <ele>198.17</ele>
        <time>2020-01-09T12:30:31Z</time>
      </trkpt>
      <trkpt lat="43.52961" lon="5.30764">
        <ele>190.48</ele>
        <time>2020-01-09T12:30:32Z</time>
      </trkpt>
      <trkpt lat="43.52961" lon="5.30765">
        <ele>197.69</ele>
        <time>2020-01-09T12:30:33Z</time>
      </trkpt>
      <trkpt lat="43.52961" lon="5.30765">
        <ele>208.26</ele>
        <time>2020-01-09T12:30:34Z</time>
      </trkpt>
      <trkpt lat="43.52961" lon="5.30765">
        <ele>194.8</ele>
        <time>2020-01-09T12:30:35Z</time>
      </trkpt>
      <trkpt lat="43.52961" lon="5.30765">
        <ele>200.57</ele>
        <time>2020-01-09T12:30:36Z</time>
      </trkpt>
      <trkpt lat="43.52951" lon="5.30761">
        <ele>199.13</ele>
        <time>2020-01-09T12:30:49Z</time>
      </trkpt>
      <trkpt lat="43.5294" lon="5.30752">
        <ele>201.53</ele>
        <time>2020-01-09T12:31:04Z</time>
      </trkpt>
      <trkpt lat="43.52944" lon="5.30739">
        <ele>202.98</ele>
        <time>2020-01-09T12:31:15Z</time>
      </trkpt>
      <trkpt lat="43.5295" lon="5.30732">
        <ele>204.42</ele>
        <time>2020-01-09T12:31:26Z</time>
      </trkpt>
      <trkpt lat="43.5295" lon="5.30732">
        <ele>204.42</ele>
        <time>2020-01-09T12:31:27Z</time>
      </trkpt>
      <trkpt lat="43.52952" lon="5.30729">
        <ele>207.78</ele>
        <time>2020-01-09T12:31:31Z</time>
      </trkpt>
      <trkpt lat="43.52953" lon="5.30728">
        <ele>205.86</ele>
        <time>2020-01-09T12:31:32Z</time>
      </trkpt>
      <trkpt lat="43.52954" lon="5.30726">
        <ele>204.9</ele>
        <time>2020-01-09T12:31:34Z</time>
      </trkpt>
      <trkpt lat="43.52962" lon="5.30716">
        <ele>206.34</ele>
        <time>2020-01-09T12:31:47Z</time>
      </trkpt>
      <trkpt lat="43.52962" lon="5.30715">
        <ele>206.34</ele>
        <time>2020-01-09T12:31:52Z</time>
      </trkpt>
      <trkpt lat="43.52967" lon="5.30705">
        <ele>206.82</ele>
        <time>2020-01-09T12:32:03Z</time>
      </trkpt>
      <trkpt lat="43.52973" lon="5.30696">
        <ele>208.26</ele>
        <time>2020-01-09T12:32:16Z</time>
      </trkpt>
      <trkpt lat="43.5298" lon="5.30686">
        <ele>209.22</ele>
        <time>2020-01-09T12:32:30Z</time>
      </trkpt>
      <trkpt lat="43.52992" lon="5.30676">
        <ele>210.19</ele>
        <time>2020-01-09T12:32:45Z</time>
      </trkpt>
      <trkpt lat="43.52999" lon="5.30668">
        <ele>211.15</ele>
        <time>2020-01-09T12:32:54Z</time>
      </trkpt>
      <trkpt lat="43.53004" lon="5.3065">
        <ele>213.07</ele>
        <time>2020-01-09T12:33:09Z</time>
      </trkpt>
      <trkpt lat="43.53011" lon="5.30632">
        <ele>214.51</ele>
        <time>2020-01-09T12:33:24Z</time>
      </trkpt>
      <trkpt lat="43.53015" lon="5.3062">
        <ele>215.47</ele>
        <time>2020-01-09T12:33:37Z</time>
      </trkpt>
      <trkpt lat="43.5302" lon="5.30608">
        <ele>216.43</ele>
        <time>2020-01-09T12:33:51Z</time>
      </trkpt>
      <trkpt lat="43.53023" lon="5.30601">
        <ele>216.91</ele>
        <time>2020-01-09T12:33:58Z</time>
      </trkpt>
      <trkpt lat="43.53027" lon="5.30588">
        <ele>216.91</ele>
        <time>2020-01-09T12:34:09Z</time>
      </trkpt>
      <trkpt lat="43.53036" lon="5.30571">
        <ele>217.88</ele>
        <time>2020-01-09T12:34:25Z</time>
      </trkpt>
      <trkpt lat="43.53045" lon="5.30555">
        <ele>218.84</ele>
        <time>2020-01-09T12:34:41Z</time>
      </trkpt>
      <trkpt lat="43.53051" lon="5.30545">
        <ele>219.8</ele>
        <time>2020-01-09T12:34:53Z</time>
      </trkpt>
      <trkpt lat="43.53056" lon="5.30533">
        <ele>220.28</ele>
        <time>2020-01-09T12:35:05Z</time>
      </trkpt>
      <trkpt lat="43.53066" lon="5.30515">
        <ele>220.76</ele>
        <time>2020-01-09T12:35:21Z</time>
      </trkpt>
      <trkpt lat="43.53072" lon="5.30502">
        <ele>221.72</ele>
        <time>2020-01-09T12:35:35Z</time>
      </trkpt>
      <trkpt lat="43.53074" lon="5.30497">
        <ele>222.2</ele>
        <time>2020-01-09T12:35:41Z</time>
      </trkpt>
      <trkpt lat="43.53081" lon="5.30487">
        <ele>223.64</ele>
        <time>2020-01-09T12:35:55Z</time>
      </trkpt>
      <trkpt lat="43.53084" lon="5.30475">
        <ele>224.12</ele>
        <time>2020-01-09T12:36:04Z</time>
      </trkpt>
      <trkpt lat="43.53087" lon="5.30455">
        <ele>224.61</ele>
        <time>2020-01-09T12:36:19Z</time>
      </trkpt>
      <trkpt lat="43.53086" lon="5.30436">
        <ele>225.09</ele>
        <time>2020-01-09T12:36:33Z</time>
      </trkpt>
      <trkpt lat="43.53084" lon="5.30421">
        <ele>225.57</ele>
        <time>2020-01-09T12:36:45Z</time>
      </trkpt>
      <trkpt lat="43.53088" lon="5.30406">
        <ele>226.53</ele>
        <time>2020-01-09T12:37:01Z</time>
      </trkpt>
      <trkpt lat="43.53096" lon="5.30395">
        <ele>227.97</ele>
        <time>2020-01-09T12:37:15Z</time>
      </trkpt>
      <trkpt lat="43.53101" lon="5.30381">
        <ele>228.93</ele>
        <time>2020-01-09T12:37:30Z</time>
      </trkpt>
      <trkpt lat="43.53103" lon="5.30375">
        <ele>229.41</ele>
        <time>2020-01-09T12:37:42Z</time>
      </trkpt>
      <trkpt lat="43.53106" lon="5.30369">
        <ele>229.89</ele>
        <time>2020-01-09T12:38:00Z</time>
      </trkpt>
      <trkpt lat="43.53108" lon="5.30365">
        <ele>229.89</ele>
        <time>2020-01-09T12:38:05Z</time>
      </trkpt>
      <trkpt lat="43.53109" lon="5.30362">
        <ele>229.89</ele>
        <time>2020-01-09T12:38:07Z</time>
      </trkpt>
      <trkpt lat="43.53117" lon="5.30349">
        <ele>230.37</ele>
        <time>2020-01-09T12:38:21Z</time>
      </trkpt>
      <trkpt lat="43.53127" lon="5.3033">
        <ele>229.89</ele>
        <time>2020-01-09T12:38:37Z</time>
      </trkpt>
      <trkpt lat="43.53127" lon="5.3033">
        <ele>229.89</ele>
        <time>2020-01-09T12:38:38Z</time>
      </trkpt>
      <trkpt lat="43.53129" lon="5.30328">
        <ele>229.89</ele>
        <time>2020-01-09T12:38:40Z</time>
      </trkpt>
      <trkpt lat="43.53138" lon="5.30312">
        <ele>230.37</ele>
        <time>2020-01-09T12:38:56Z</time>
      </trkpt>
      <trkpt lat="43.53143" lon="5.30299">
        <ele>231.81</ele>
        <time>2020-01-09T12:39:10Z</time>
      </trkpt>
      <trkpt lat="43.53145" lon="5.3029">
        <ele>232.78</ele>
        <time>2020-01-09T12:39:21Z</time>
      </trkpt>
      <trkpt lat="43.53152" lon="5.30277">
        <ele>234.7</ele>
        <time>2020-01-09T12:39:34Z</time>
      </trkpt>
      <trkpt lat="43.53158" lon="5.30259">
        <ele>235.66</ele>
        <time>2020-01-09T12:39:47Z</time>
      </trkpt>
      <trkpt lat="43.53165" lon="5.30241">
        <ele>237.1</ele>
        <time>2020-01-09T12:40:01Z</time>
      </trkpt>
      <trkpt lat="43.53171" lon="5.3022">
        <ele>238.06</ele>
        <time>2020-01-09T12:40:15Z</time>
      </trkpt>
      <trkpt lat="43.53172" lon="5.30213">
        <ele>233.74</ele>
        <time>2020-01-09T12:40:18Z</time>
      </trkpt>
      <trkpt lat="43.53172" lon="5.30211">
        <ele>247.2</ele>
        <time>2020-01-09T12:40:19Z</time>
      </trkpt>
      <trkpt lat="43.53172" lon="5.30209">
        <ele>236.14</ele>
        <time>2020-01-09T12:40:20Z</time>
      </trkpt>
      <trkpt lat="43.53172" lon="5.30207">
        <ele>241.91</ele>
        <time>2020-01-09T12:40:21Z</time>
      </trkpt>
      <trkpt lat="43.53173" lon="5.30206">
        <ele>233.74</ele>
        <time>2020-01-09T12:40:22Z</time>
      </trkpt>
      <trkpt lat="43.53173" lon="5.30204">
        <ele>245.27</ele>
        <time>2020-01-09T12:40:23Z</time>
      </trkpt>
      <trkpt lat="43.53174" lon="5.30202">
        <ele>239.99</ele>
        <time>2020-01-09T12:40:24Z</time>
      </trkpt>
      <trkpt lat="43.53175" lon="5.302">
        <ele>238.54</ele>
        <time>2020-01-09T12:40:26Z</time>
      </trkpt>
      <trkpt lat="43.53175" lon="5.30194">
        <ele>232.3</ele>
        <time>2020-01-09T12:40:30Z</time>
      </trkpt>
      <trkpt lat="43.53176" lon="5.30193">
        <ele>242.87</ele>
        <time>2020-01-09T12:40:31Z</time>
      </trkpt>
      <trkpt lat="43.53176" lon="5.30191">
        <ele>238.54</ele>
        <time>2020-01-09T12:40:32Z</time>
      </trkpt>
      <trkpt lat="43.5318" lon="5.30172">
        <ele>239.02</ele>
        <time>2020-01-09T12:40:48Z</time>
      </trkpt>
      <trkpt lat="43.53181" lon="5.30168">
        <ele>239.51</ele>
        <time>2020-01-09T12:40:52Z</time>
      </trkpt>
      <trkpt lat="43.53184" lon="5.30158">
        <ele>239.51</ele>
        <time>2020-01-09T12:41:00Z</time>
      </trkpt>
      <trkpt lat="43.53194" lon="5.30136">
        <ele>240.47</ele>
        <time>2020-01-09T12:41:17Z</time>
      </trkpt>
      <trkpt lat="43.53204" lon="5.30115">
        <ele>241.91</ele>
        <time>2020-01-09T12:41:32Z</time>
      </trkpt>
      <trkpt lat="43.53209" lon="5.30107">
        <ele>241.43</ele>
        <time>2020-01-09T12:41:41Z</time>
      </trkpt>
      <trkpt lat="43.53218" lon="5.30097">
        <ele>241.43</ele>
        <time>2020-01-09T12:41:53Z</time>
      </trkpt>
      <trkpt lat="43.5322" lon="5.30096">
        <ele>240.95</ele>
        <time>2020-01-09T12:41:56Z</time>
      </trkpt>
      <trkpt lat="43.53234" lon="5.30086">
        <ele>239.99</ele>
        <time>2020-01-09T12:42:12Z</time>
      </trkpt>
      <trkpt lat="43.53244" lon="5.30082">
        <ele>241.91</ele>
        <time>2020-01-09T12:42:28Z</time>
      </trkpt>
      <trkpt lat="43.53253" lon="5.30078">
        <ele>244.31</ele>
        <time>2020-01-09T12:42:41Z</time>
      </trkpt>
      <trkpt lat="43.53262" lon="5.30072">
        <ele>245.75</ele>
        <time>2020-01-09T12:42:55Z</time>
      </trkpt>
      <trkpt lat="43.5327" lon="5.30068">
        <ele>246.72</ele>
        <time>2020-01-09T12:43:05Z</time>
      </trkpt>
      <trkpt lat="43.53281" lon="5.30063">
        <ele>247.68</ele>
        <time>2020-01-09T12:43:17Z</time>
      </trkpt>
      <trkpt lat="43.53294" lon="5.30057">
        <ele>249.12</ele>
        <time>2020-01-09T12:43:30Z</time>
      </trkpt>
      <trkpt lat="43.53307" lon="5.30046">
        <ele>250.08</ele>
        <time>2020-01-09T12:43:46Z</time>
      </trkpt>
      <trkpt lat="43.53314" lon="5.30039">
        <ele>250.56</ele>
        <time>2020-01-09T12:43:56Z</time>
      </trkpt>
      <trkpt lat="43.53316" lon="5.30036">
        <ele>251.04</ele>
        <time>2020-01-09T12:43:58Z</time>
      </trkpt>
      <trkpt lat="43.5333" lon="5.30025">
        <ele>251.52</ele>
        <time>2020-01-09T12:44:13Z</time>
      </trkpt>
      <trkpt lat="43.53341" lon="5.30015">
        <ele>252</ele>
        <time>2020-01-09T12:44:27Z</time>
      </trkpt>
      <trkpt lat="43.5335" lon="5.30009">
        <ele>252.96</ele>
        <time>2020-01-09T12:44:40Z</time>
      </trkpt>
      <trkpt lat="43.53351" lon="5.30009">
        <ele>252.96</ele>
        <time>2020-01-09T12:44:41Z</time>
      </trkpt>
      <trkpt lat="43.53358" lon="5.3">
        <ele>252.96</ele>
        <time>2020-01-09T12:44:50Z</time>
      </trkpt>
      <trkpt lat="43.53369" lon="5.29988">
        <ele>252.96</ele>
        <time>2020-01-09T12:45:05Z</time>
      </trkpt>
      <trkpt lat="43.53382" lon="5.29978">
        <ele>252.96</ele>
        <time>2020-01-09T12:45:19Z</time>
      </trkpt>
      <trkpt lat="43.53383" lon="5.29978">
        <ele>252.96</ele>
        <time>2020-01-09T12:45:20Z</time>
      </trkpt>
      <trkpt lat="43.5339" lon="5.29972">
        <ele>252.48</ele>
        <time>2020-01-09T12:45:27Z</time>
      </trkpt>
      <trkpt lat="43.53395" lon="5.29969">
        <ele>252.48</ele>
        <time>2020-01-09T12:45:33Z</time>
      </trkpt>
      <trkpt lat="43.53398" lon="5.29966">
        <ele>252.48</ele>
        <time>2020-01-09T12:45:36Z</time>
      </trkpt>
      <trkpt lat="43.53406" lon="5.2996">
        <ele>252.48</ele>
        <time>2020-01-09T12:45:45Z</time>
      </trkpt>
      <trkpt lat="43.5341" lon="5.29956">
        <ele>252.48</ele>
        <time>2020-01-09T12:45:49Z</time>
      </trkpt>
      <trkpt lat="43.53422" lon="5.29946">
        <ele>252</ele>
        <time>2020-01-09T12:46:01Z</time>
      </trkpt>
      <trkpt lat="43.53432" lon="5.29937">
        <ele>252.48</ele>
        <time>2020-01-09T12:46:15Z</time>
      </trkpt>
      <trkpt lat="43.53436" lon="5.29935">
        <ele>252.48</ele>
        <time>2020-01-09T12:46:20Z</time>
      </trkpt>
      <trkpt lat="43.53438" lon="5.29933">
        <ele>252.48</ele>
        <time>2020-01-09T12:46:22Z</time>
      </trkpt>
      <trkpt lat="43.53449" lon="5.29919">
        <ele>252.96</ele>
        <time>2020-01-09T12:46:36Z</time>
      </trkpt>
      <trkpt lat="43.53458" lon="5.29903">
        <ele>252.96</ele>
        <time>2020-01-09T12:46:50Z</time>
      </trkpt>
      <trkpt lat="43.53466" lon="5.29893">
        <ele>253.44</ele>
        <time>2020-01-09T12:47:00Z</time>
      </trkpt>
      <trkpt lat="43.53468" lon="5.2989">
        <ele>253.44</ele>
        <time>2020-01-09T12:47:03Z</time>
      </trkpt>
      <trkpt lat="43.53476" lon="5.29875">
        <ele>253.44</ele>
        <time>2020-01-09T12:47:17Z</time>
      </trkpt>
      <trkpt lat="43.5348" lon="5.29868">
        <ele>253.93</ele>
        <time>2020-01-09T12:47:24Z</time>
      </trkpt>
      <trkpt lat="43.53485" lon="5.29853">
        <ele>253.93</ele>
        <time>2020-01-09T12:47:37Z</time>
      </trkpt>
      <trkpt lat="43.53485" lon="5.29848">
        <ele>254.41</ele>
        <time>2020-01-09T12:47:40Z</time>
      </trkpt>
      <trkpt lat="43.53487" lon="5.29841">
        <ele>254.41</ele>
        <time>2020-01-09T12:47:46Z</time>
      </trkpt>
      <trkpt lat="43.53489" lon="5.2983">
        <ele>254.41</ele>
        <time>2020-01-09T12:47:54Z</time>
      </trkpt>
      <trkpt lat="43.53495" lon="5.29812">
        <ele>254.89</ele>
        <time>2020-01-09T12:48:07Z</time>
      </trkpt>
      <trkpt lat="43.53499" lon="5.298">
        <ele>255.37</ele>
        <time>2020-01-09T12:48:18Z</time>
      </trkpt>
      <trkpt lat="43.53502" lon="5.29792">
        <ele>255.85</ele>
        <time>2020-01-09T12:48:25Z</time>
      </trkpt>
      <trkpt lat="43.53508" lon="5.29778">
        <ele>255.85</ele>
        <time>2020-01-09T12:48:39Z</time>
      </trkpt>
      <trkpt lat="43.53514" lon="5.29762">
        <ele>256.33</ele>
        <time>2020-01-09T12:48:54Z</time>
      </trkpt>
      <trkpt lat="43.53516" lon="5.29754">
        <ele>256.33</ele>
        <time>2020-01-09T12:49:05Z</time>
      </trkpt>
      <trkpt lat="43.53523" lon="5.29743">
        <ele>256.33</ele>
        <time>2020-01-09T12:49:18Z</time>
      </trkpt>
      <trkpt lat="43.5353" lon="5.29734">
        <ele>256.81</ele>
        <time>2020-01-09T12:49:28Z</time>
      </trkpt>
      <trkpt lat="43.53539" lon="5.29715">
        <ele>256.33</ele>
        <time>2020-01-09T12:49:42Z</time>
      </trkpt>
      <trkpt lat="43.53544" lon="5.29696">
        <ele>256.81</ele>
        <time>2020-01-09T12:49:57Z</time>
      </trkpt>
      <trkpt lat="43.53549" lon="5.29681">
        <ele>257.29</ele>
        <time>2020-01-09T12:50:10Z</time>
      </trkpt>
      <trkpt lat="43.53553" lon="5.29665">
        <ele>257.77</ele>
        <time>2020-01-09T12:50:24Z</time>
      </trkpt>
      <trkpt lat="43.53559" lon="5.29642">
        <ele>258.25</ele>
        <time>2020-01-09T12:50:39Z</time>
      </trkpt>
      <trkpt lat="43.53563" lon="5.29626">
        <ele>258.73</ele>
        <time>2020-01-09T12:50:55Z</time>
      </trkpt>
      <trkpt lat="43.53567" lon="5.29606">
        <ele>259.21</ele>
        <time>2020-01-09T12:51:10Z</time>
      </trkpt>
      <trkpt lat="43.53569" lon="5.29591">
        <ele>259.69</ele>
        <time>2020-01-09T12:51:22Z</time>
      </trkpt>
      <trkpt lat="43.53576" lon="5.2957">
        <ele>260.17</ele>
        <time>2020-01-09T12:51:37Z</time>
      </trkpt>
      <trkpt lat="43.53578" lon="5.29558">
        <ele>260.17</ele>
        <time>2020-01-09T12:51:51Z</time>
      </trkpt>
      <trkpt lat="43.53584" lon="5.29545">
        <ele>260.65</ele>
        <time>2020-01-09T12:52:01Z</time>
      </trkpt>
      <trkpt lat="43.53589" lon="5.29528">
        <ele>260.17</ele>
        <time>2020-01-09T12:52:14Z</time>
      </trkpt>
      <trkpt lat="43.53595" lon="5.2951">
        <ele>260.17</ele>
        <time>2020-01-09T12:52:29Z</time>
      </trkpt>
      <trkpt lat="43.53602" lon="5.29495">
        <ele>260.65</ele>
        <time>2020-01-09T12:52:43Z</time>
      </trkpt>
      <trkpt lat="43.5361" lon="5.29482">
        <ele>259.69</ele>
        <time>2020-01-09T12:52:57Z</time>
      </trkpt>
      <trkpt lat="43.53612" lon="5.29481">
        <ele>259.69</ele>
        <time>2020-01-09T12:52:59Z</time>
      </trkpt>
      <trkpt lat="43.53619" lon="5.29473">
        <ele>259.69</ele>
        <time>2020-01-09T12:53:12Z</time>
      </trkpt>
      <trkpt lat="43.53618" lon="5.29473">
        <ele>259.21</ele>
        <time>2020-01-09T12:53:30Z</time>
      </trkpt>
      <trkpt lat="43.53618" lon="5.29467">
        <ele>258.73</ele>
        <time>2020-01-09T12:53:43Z</time>
      </trkpt>
      <trkpt lat="43.5362" lon="5.29463">
        <ele>258.73</ele>
        <time>2020-01-09T12:54:11Z</time>
      </trkpt>
      <trkpt lat="43.5362" lon="5.29461">
        <ele>259.69</ele>
        <time>2020-01-09T12:54:22Z</time>
      </trkpt>
      <trkpt lat="43.5362" lon="5.2946">
        <ele>260.17</ele>
        <time>2020-01-09T12:54:38Z</time>
      </trkpt>
      <trkpt lat="43.53621" lon="5.29458">
        <ele>259.69</ele>
        <time>2020-01-09T12:54:50Z</time>
      </trkpt>
      <trkpt lat="43.5362" lon="5.29458">
        <ele>259.21</ele>
        <time>2020-01-09T12:55:01Z</time>
      </trkpt>
      <trkpt lat="43.53621" lon="5.29458">
        <ele>260.17</ele>
        <time>2020-01-09T12:55:18Z</time>
      </trkpt>
      <trkpt lat="43.53621" lon="5.29457">
        <ele>247.68</ele>
        <time>2020-01-09T12:55:29Z</time>
      </trkpt>
      <trkpt lat="43.53622" lon="5.29457">
        <ele>269.31</ele>
        <time>2020-01-09T12:55:30Z</time>
      </trkpt>
      <trkpt lat="43.53622" lon="5.29457">
        <ele>257.29</ele>
        <time>2020-01-09T12:55:31Z</time>
      </trkpt>
      <trkpt lat="43.53622" lon="5.29457">
        <ele>261.14</ele>
        <time>2020-01-09T12:55:32Z</time>
      </trkpt>
      <trkpt lat="43.53622" lon="5.29457">
        <ele>257.77</ele>
        <time>2020-01-09T12:55:33Z</time>
      </trkpt>
      <trkpt lat="43.53622" lon="5.29456">
        <ele>261.14</ele>
        <time>2020-01-09T12:55:38Z</time>
      </trkpt>
      <trkpt lat="43.53624" lon="5.29446">
        <ele>259.69</ele>
        <time>2020-01-09T12:55:46Z</time>
      </trkpt>
      <trkpt lat="43.53626" lon="5.29442">
        <ele>259.69</ele>
        <time>2020-01-09T12:55:52Z</time>
      </trkpt>
      <trkpt lat="43.5363" lon="5.2943">
        <ele>259.69</ele>
        <time>2020-01-09T12:56:04Z</time>
      </trkpt>
      <trkpt lat="43.53638" lon="5.29403">
        <ele>259.21</ele>
        <time>2020-01-09T12:56:16Z</time>
      </trkpt>
      <trkpt lat="43.53646" lon="5.29387">
        <ele>259.21</ele>
        <time>2020-01-09T12:56:37Z</time>
      </trkpt>
      <trkpt lat="43.53651" lon="5.29382">
        <ele>259.69</ele>
        <time>2020-01-09T12:56:54Z</time>
      </trkpt>
      <trkpt lat="43.53654" lon="5.29379">
        <ele>259.21</ele>
        <time>2020-01-09T12:57:13Z</time>
      </trkpt>
      <trkpt lat="43.53655" lon="5.29376">
        <ele>259.69</ele>
        <time>2020-01-09T12:57:20Z</time>
      </trkpt>
      <trkpt lat="43.53646" lon="5.29374">
        <ele>259.69</ele>
        <time>2020-01-09T12:57:32Z</time>
      </trkpt>
      <trkpt lat="43.53636" lon="5.29358">
        <ele>259.69</ele>
        <time>2020-01-09T12:57:47Z</time>
      </trkpt>
      <trkpt lat="43.53628" lon="5.29349">
        <ele>259.21</ele>
        <time>2020-01-09T12:57:57Z</time>
      </trkpt>
      <trkpt lat="43.53619" lon="5.29344">
        <ele>258.73</ele>
        <time>2020-01-09T12:58:07Z</time>
      </trkpt>
      <trkpt lat="43.53613" lon="5.29336">
        <ele>258.25</ele>
        <time>2020-01-09T12:58:16Z</time>
      </trkpt>
      <trkpt lat="43.53605" lon="5.29325">
        <ele>257.77</ele>
        <time>2020-01-09T12:58:28Z</time>
      </trkpt>
      <trkpt lat="43.53604" lon="5.29321">
        <ele>257.77</ele>
        <time>2020-01-09T12:58:31Z</time>
      </trkpt>
      <trkpt lat="43.53618" lon="5.29309">
        <ele>258.25</ele>
        <time>2020-01-09T12:58:44Z</time>
      </trkpt>
      <trkpt lat="43.53632" lon="5.29302">
        <ele>258.73</ele>
        <time>2020-01-09T12:58:56Z</time>
      </trkpt>
      <trkpt lat="43.53642" lon="5.29299">
        <ele>258.73</ele>
        <time>2020-01-09T12:59:07Z</time>
      </trkpt>
      <trkpt lat="43.53655" lon="5.29289">
        <ele>258.73</ele>
        <time>2020-01-09T12:59:21Z</time>
      </trkpt>
      <trkpt lat="43.53668" lon="5.29288">
        <ele>259.21</ele>
        <time>2020-01-09T12:59:35Z</time>
      </trkpt>
      <trkpt lat="43.53671" lon="5.29288">
        <ele>259.21</ele>
        <time>2020-01-09T12:59:39Z</time>
      </trkpt>
      <trkpt lat="43.5368" lon="5.29287">
        <ele>259.69</ele>
        <time>2020-01-09T12:59:49Z</time>
      </trkpt>
      <trkpt lat="43.53692" lon="5.29283">
        <ele>259.69</ele>
        <time>2020-01-09T13:00:05Z</time>
      </trkpt>
      <trkpt lat="43.53708" lon="5.29277">
        <ele>259.21</ele>
        <time>2020-01-09T13:00:20Z</time>
      </trkpt>
      <trkpt lat="43.53719" lon="5.29268">
        <ele>259.21</ele>
        <time>2020-01-09T13:00:33Z</time>
      </trkpt>
      <trkpt lat="43.53723" lon="5.29264">
        <ele>259.21</ele>
        <time>2020-01-09T13:00:37Z</time>
      </trkpt>
      <trkpt lat="43.53734" lon="5.29257">
        <ele>259.21</ele>
        <time>2020-01-09T13:00:47Z</time>
      </trkpt>
      <trkpt lat="43.53743" lon="5.29254">
        <ele>258.25</ele>
        <time>2020-01-09T13:01:00Z</time>
      </trkpt>
      <trkpt lat="43.53754" lon="5.29255">
        <ele>257.77</ele>
        <time>2020-01-09T13:01:13Z</time>
      </trkpt>
      <trkpt lat="43.53762" lon="5.29262">
        <ele>257.77</ele>
        <time>2020-01-09T13:01:23Z</time>
      </trkpt>
      <trkpt lat="43.53762" lon="5.29259">
        <ele>257.77</ele>
        <time>2020-01-09T13:01:40Z</time>
      </trkpt>
      <trkpt lat="43.53764" lon="5.29259">
        <ele>257.77</ele>
        <time>2020-01-09T13:02:01Z</time>
      </trkpt>
      <trkpt lat="43.53765" lon="5.29261">
        <ele>257.77</ele>
        <time>2020-01-09T13:02:19Z</time>
      </trkpt>
      <trkpt lat="43.53767" lon="5.29261">
        <ele>257.77</ele>
        <time>2020-01-09T13:02:34Z</time>
      </trkpt>
      <trkpt lat="43.53767" lon="5.29262">
        <ele>257.29</ele>
        <time>2020-01-09T13:02:50Z</time>
      </trkpt>
      <trkpt lat="43.53765" lon="5.29263">
        <ele>257.29</ele>
        <time>2020-01-09T13:03:17Z</time>
      </trkpt>
      <trkpt lat="43.53765" lon="5.29269">
        <ele>256.81</ele>
        <time>2020-01-09T13:03:35Z</time>
      </trkpt>
      <trkpt lat="43.53769" lon="5.29276">
        <ele>255.37</ele>
        <time>2020-01-09T13:03:47Z</time>
      </trkpt>
      <trkpt lat="43.53771" lon="5.29277">
        <ele>254.41</ele>
        <time>2020-01-09T13:03:50Z</time>
      </trkpt>
      <trkpt lat="43.5378" lon="5.29275">
        <ele>251.52</ele>
        <time>2020-01-09T13:04:03Z</time>
      </trkpt>
      <trkpt lat="43.53785" lon="5.29273">
        <ele>252</ele>
        <time>2020-01-09T13:04:15Z</time>
      </trkpt>
      <trkpt lat="43.53785" lon="5.29272">
        <ele>251.52</ele>
        <time>2020-01-09T13:04:17Z</time>
      </trkpt>
      <trkpt lat="43.53785" lon="5.29275">
        <ele>251.04</ele>
        <time>2020-01-09T13:04:33Z</time>
      </trkpt>
      <trkpt lat="43.53788" lon="5.2928">
        <ele>249.12</ele>
        <time>2020-01-09T13:04:47Z</time>
      </trkpt>
      <trkpt lat="43.53782" lon="5.29278">
        <ele>250.08</ele>
        <time>2020-01-09T13:04:58Z</time>
      </trkpt>
      <trkpt lat="43.53777" lon="5.29279">
        <ele>252.96</ele>
        <time>2020-01-09T13:05:13Z</time>
      </trkpt>
      <trkpt lat="43.53769" lon="5.29276">
        <ele>254.89</ele>
        <time>2020-01-09T13:05:21Z</time>
      </trkpt>
      <trkpt lat="43.53759" lon="5.2927">
        <ele>256.33</ele>
        <time>2020-01-09T13:05:35Z</time>
      </trkpt>
      <trkpt lat="43.5376" lon="5.29267">
        <ele>256.33</ele>
        <time>2020-01-09T13:05:58Z</time>
      </trkpt>
      <trkpt lat="43.53759" lon="5.29267">
        <ele>256.33</ele>
        <time>2020-01-09T13:06:16Z</time>
      </trkpt>
      <trkpt lat="43.53757" lon="5.29265">
        <ele>256.81</ele>
        <time>2020-01-09T13:06:34Z</time>
      </trkpt>
      <trkpt lat="43.53754" lon="5.29265">
        <ele>252</ele>
        <time>2020-01-09T13:06:45Z</time>
      </trkpt>
      <trkpt lat="43.53754" lon="5.29265">
        <ele>256.81</ele>
        <time>2020-01-09T13:06:46Z</time>
      </trkpt>
      <trkpt lat="43.53751" lon="5.29264">
        <ele>257.29</ele>
        <time>2020-01-09T13:07:00Z</time>
      </trkpt>
      <trkpt lat="43.53745" lon="5.29269">
        <ele>257.77</ele>
        <time>2020-01-09T13:07:09Z</time>
      </trkpt>
      <trkpt lat="43.53737" lon="5.29281">
        <ele>258.25</ele>
        <time>2020-01-09T13:07:23Z</time>
      </trkpt>
      <trkpt lat="43.53734" lon="5.29283">
        <ele>258.25</ele>
        <time>2020-01-09T13:07:35Z</time>
      </trkpt>
      <trkpt lat="43.53728" lon="5.29292">
        <ele>258.25</ele>
        <time>2020-01-09T13:07:48Z</time>
      </trkpt>
      <trkpt lat="43.53723" lon="5.29297">
        <ele>258.25</ele>
        <time>2020-01-09T13:07:56Z</time>
      </trkpt>
      <trkpt lat="43.53709" lon="5.29302">
        <ele>258.73</ele>
        <time>2020-01-09T13:08:12Z</time>
      </trkpt>
      <trkpt lat="43.53701" lon="5.2931">
        <ele>258.73</ele>
        <time>2020-01-09T13:08:24Z</time>
      </trkpt>
      <trkpt lat="43.53699" lon="5.29313">
        <ele>258.73</ele>
        <time>2020-01-09T13:08:27Z</time>
      </trkpt>
      <trkpt lat="43.53693" lon="5.29324">
        <ele>258.73</ele>
        <time>2020-01-09T13:08:39Z</time>
      </trkpt>
      <trkpt lat="43.53684" lon="5.29338">
        <ele>258.73</ele>
        <time>2020-01-09T13:08:54Z</time>
      </trkpt>
      <trkpt lat="43.53676" lon="5.29354">
        <ele>258.73</ele>
        <time>2020-01-09T13:09:08Z</time>
      </trkpt>
      <trkpt lat="43.53666" lon="5.29369">
        <ele>258.25</ele>
        <time>2020-01-09T13:09:23Z</time>
      </trkpt>
      <trkpt lat="43.53659" lon="5.2938">
        <ele>256.81</ele>
        <time>2020-01-09T13:09:35Z</time>
      </trkpt>
      <trkpt lat="43.53657" lon="5.29384">
        <ele>257.77</ele>
        <time>2020-01-09T13:09:40Z</time>
      </trkpt>
      <trkpt lat="43.53649" lon="5.29396">
        <ele>256.81</ele>
        <time>2020-01-09T13:09:54Z</time>
      </trkpt>
      <trkpt lat="43.53641" lon="5.29408">
        <ele>256.33</ele>
        <time>2020-01-09T13:10:08Z</time>
      </trkpt>
      <trkpt lat="43.53637" lon="5.29417">
        <ele>256.33</ele>
        <time>2020-01-09T13:10:17Z</time>
      </trkpt>
      <trkpt lat="43.53636" lon="5.2942">
        <ele>256.33</ele>
        <time>2020-01-09T13:10:19Z</time>
      </trkpt>
      <trkpt lat="43.53632" lon="5.29432">
        <ele>255.85</ele>
        <time>2020-01-09T13:10:29Z</time>
      </trkpt>
      <trkpt lat="43.53628" lon="5.29443">
        <ele>256.33</ele>
        <time>2020-01-09T13:10:42Z</time>
      </trkpt>
      <trkpt lat="43.53629" lon="5.29454">
        <ele>256.33</ele>
        <time>2020-01-09T13:10:51Z</time>
      </trkpt>
      <trkpt lat="43.5363" lon="5.29457">
        <ele>256.81</ele>
        <time>2020-01-09T13:10:54Z</time>
      </trkpt>
      <trkpt lat="43.53625" lon="5.29461">
        <ele>255.37</ele>
        <time>2020-01-09T13:11:03Z</time>
      </trkpt>
      <trkpt lat="43.53619" lon="5.29458">
        <ele>256.33</ele>
        <time>2020-01-09T13:11:15Z</time>
      </trkpt>
      <trkpt lat="43.53618" lon="5.29456">
        <ele>254.89</ele>
        <time>2020-01-09T13:11:21Z</time>
      </trkpt>
      <trkpt lat="43.53609" lon="5.29458">
        <ele>255.37</ele>
        <time>2020-01-09T13:11:27Z</time>
      </trkpt>
      <trkpt lat="43.53584" lon="5.29511">
        <ele>256.33</ele>
        <time>2020-01-09T13:11:40Z</time>
      </trkpt>
    </trkseg>
  </trk>
</gpx>